<?xml version="1.0" encoding="UTF-8" standalone="no" ?>
<gpx xmlns="http://www.topografix.com/GPX/1/1" xmlns:xsi="http://www.w3.org/2001/XMLSchema-instance" xsi:schemaLocation="http://www.topografix.com/GPX/1/1 http://www.topografix.com/GPX/1/1/gpx.xsd" version="1.1" creator="VisuGPX - https://www.visugpx.com">
  <metadata>
    <name>Traversée du Quermoz</name>
    <desc><![CDATA[Montée face sud depuis Montgirod, descente par l\'Orgère]]></desc>
  </metadata>
  <trk>
    <name><![CDATA[20130228Quermoz]]></name>
    <trkseg>
      <trkpt lat="45.53793" lon="6.58132">
        <ele>1168.9</ele>
        <time>2013-02-28T07:21:43Z</time>
      </trkpt>
      <trkpt lat="45.53797" lon="6.58143">
        <ele>1168.1</ele>
        <time>2013-02-28T07:24:17Z</time>
      </trkpt>
      <trkpt lat="45.53798" lon="6.58144">
        <ele>1168</ele>
        <time>2013-02-28T07:24:18Z</time>
      </trkpt>
      <trkpt lat="45.5381" lon="6.58159">
        <ele>1169.8</ele>
        <time>2013-02-28T07:26:51Z</time>
      </trkpt>
      <trkpt lat="45.5381" lon="6.58159">
        <ele>1170.2</ele>
        <time>2013-02-28T07:26:52Z</time>
      </trkpt>
      <trkpt lat="45.53826" lon="6.58167">
        <ele>1170.7</ele>
        <time>2013-02-28T07:27:15Z</time>
      </trkpt>
      <trkpt lat="45.53835" lon="6.58169">
        <ele>1173.5</ele>
        <time>2013-02-28T07:27:36Z</time>
      </trkpt>
      <trkpt lat="45.53843" lon="6.58175">
        <ele>1176.7</ele>
        <time>2013-02-28T07:27:51Z</time>
      </trkpt>
      <trkpt lat="45.53851" lon="6.5818">
        <ele>1179</ele>
        <time>2013-02-28T07:28:05Z</time>
      </trkpt>
      <trkpt lat="45.53852" lon="6.5818">
        <ele>1179</ele>
        <time>2013-02-28T07:28:06Z</time>
      </trkpt>
      <trkpt lat="45.53865" lon="6.58194">
        <ele>1184</ele>
        <time>2013-02-28T07:28:35Z</time>
      </trkpt>
      <trkpt lat="45.53871" lon="6.58203">
        <ele>1185.9</ele>
        <time>2013-02-28T07:28:49Z</time>
      </trkpt>
      <trkpt lat="45.53876" lon="6.58212">
        <ele>1188.8</ele>
        <time>2013-02-28T07:29:02Z</time>
      </trkpt>
      <trkpt lat="45.53881" lon="6.58222">
        <ele>1189.9</ele>
        <time>2013-02-28T07:29:14Z</time>
      </trkpt>
      <trkpt lat="45.53882" lon="6.58222">
        <ele>1190.6</ele>
        <time>2013-02-28T07:29:15Z</time>
      </trkpt>
      <trkpt lat="45.53897" lon="6.58232">
        <ele>1195.5</ele>
        <time>2013-02-28T07:29:38Z</time>
      </trkpt>
      <trkpt lat="45.53905" lon="6.58236">
        <ele>1197.6</ele>
        <time>2013-02-28T07:29:52Z</time>
      </trkpt>
      <trkpt lat="45.53913" lon="6.58239">
        <ele>1201</ele>
        <time>2013-02-28T07:30:08Z</time>
      </trkpt>
      <trkpt lat="45.53919" lon="6.58249">
        <ele>1203.9</ele>
        <time>2013-02-28T07:30:24Z</time>
      </trkpt>
      <trkpt lat="45.53919" lon="6.58249">
        <ele>1204.1</ele>
        <time>2013-02-28T07:30:25Z</time>
      </trkpt>
      <trkpt lat="45.53928" lon="6.5824">
        <ele>1208</ele>
        <time>2013-02-28T07:31:06Z</time>
      </trkpt>
      <trkpt lat="45.53928" lon="6.58228">
        <ele>1209</ele>
        <time>2013-02-28T07:31:15Z</time>
      </trkpt>
      <trkpt lat="45.53925" lon="6.58217">
        <ele>1209.7</ele>
        <time>2013-02-28T07:31:23Z</time>
      </trkpt>
      <trkpt lat="45.53922" lon="6.58206">
        <ele>1210.1</ele>
        <time>2013-02-28T07:31:32Z</time>
      </trkpt>
      <trkpt lat="45.53922" lon="6.58204">
        <ele>1210.6</ele>
        <time>2013-02-28T07:31:33Z</time>
      </trkpt>
      <trkpt lat="45.53918" lon="6.58182">
        <ele>1211.7</ele>
        <time>2013-02-28T07:31:54Z</time>
      </trkpt>
      <trkpt lat="45.53919" lon="6.5817">
        <ele>1212.2</ele>
        <time>2013-02-28T07:32:06Z</time>
      </trkpt>
      <trkpt lat="45.53919" lon="6.58158">
        <ele>1214.2</ele>
        <time>2013-02-28T07:32:23Z</time>
      </trkpt>
      <trkpt lat="45.5392" lon="6.58145">
        <ele>1214.7</ele>
        <time>2013-02-28T07:32:36Z</time>
      </trkpt>
      <trkpt lat="45.5392" lon="6.58144">
        <ele>1214.8</ele>
        <time>2013-02-28T07:32:37Z</time>
      </trkpt>
      <trkpt lat="45.53921" lon="6.58121">
        <ele>1216.3</ele>
        <time>2013-02-28T07:33:26Z</time>
      </trkpt>
      <trkpt lat="45.5392" lon="6.58108">
        <ele>1217.6</ele>
        <time>2013-02-28T07:33:38Z</time>
      </trkpt>
      <trkpt lat="45.5392" lon="6.58107">
        <ele>1217.7</ele>
        <time>2013-02-28T07:33:39Z</time>
      </trkpt>
      <trkpt lat="45.5392" lon="6.58083">
        <ele>1217.1</ele>
        <time>2013-02-28T07:39:43Z</time>
      </trkpt>
      <trkpt lat="45.53919" lon="6.58082">
        <ele>1216.8</ele>
        <time>2013-02-28T07:39:44Z</time>
      </trkpt>
      <trkpt lat="45.53909" lon="6.58068">
        <ele>1217.4</ele>
        <time>2013-02-28T07:39:57Z</time>
      </trkpt>
      <trkpt lat="45.53902" lon="6.58061">
        <ele>1218.7</ele>
        <time>2013-02-28T07:40:04Z</time>
      </trkpt>
      <trkpt lat="45.53895" lon="6.58053">
        <ele>1221.2</ele>
        <time>2013-02-28T07:40:12Z</time>
      </trkpt>
      <trkpt lat="45.53887" lon="6.58046">
        <ele>1220.5</ele>
        <time>2013-02-28T07:40:21Z</time>
      </trkpt>
      <trkpt lat="45.53883" lon="6.58037">
        <ele>1221.9</ele>
        <time>2013-02-28T07:40:29Z</time>
      </trkpt>
      <trkpt lat="45.53879" lon="6.58026">
        <ele>1221.9</ele>
        <time>2013-02-28T07:40:37Z</time>
      </trkpt>
      <trkpt lat="45.53875" lon="6.58015">
        <ele>1222.8</ele>
        <time>2013-02-28T07:40:46Z</time>
      </trkpt>
      <trkpt lat="45.53875" lon="6.58014">
        <ele>1222.8</ele>
        <time>2013-02-28T07:40:47Z</time>
      </trkpt>
      <trkpt lat="45.53867" lon="6.57993">
        <ele>1224.8</ele>
        <time>2013-02-28T07:41:02Z</time>
      </trkpt>
      <trkpt lat="45.53864" lon="6.57981">
        <ele>1225.9</ele>
        <time>2013-02-28T07:41:11Z</time>
      </trkpt>
      <trkpt lat="45.53861" lon="6.57971">
        <ele>1226.6</ele>
        <time>2013-02-28T07:41:19Z</time>
      </trkpt>
      <trkpt lat="45.53857" lon="6.5796">
        <ele>1227.8</ele>
        <time>2013-02-28T07:41:28Z</time>
      </trkpt>
      <trkpt lat="45.53854" lon="6.57949">
        <ele>1230</ele>
        <time>2013-02-28T07:41:35Z</time>
      </trkpt>
      <trkpt lat="45.53852" lon="6.57938">
        <ele>1230.3</ele>
        <time>2013-02-28T07:41:43Z</time>
      </trkpt>
      <trkpt lat="45.53849" lon="6.57926">
        <ele>1230.9</ele>
        <time>2013-02-28T07:41:52Z</time>
      </trkpt>
      <trkpt lat="45.53849" lon="6.57924">
        <ele>1230.9</ele>
        <time>2013-02-28T07:41:53Z</time>
      </trkpt>
      <trkpt lat="45.53841" lon="6.57904">
        <ele>1232.8</ele>
        <time>2013-02-28T07:42:21Z</time>
      </trkpt>
      <trkpt lat="45.53839" lon="6.57893">
        <ele>1234.2</ele>
        <time>2013-02-28T07:42:31Z</time>
      </trkpt>
      <trkpt lat="45.53838" lon="6.5788">
        <ele>1235</ele>
        <time>2013-02-28T07:42:44Z</time>
      </trkpt>
      <trkpt lat="45.53838" lon="6.57868">
        <ele>1236.6</ele>
        <time>2013-02-28T07:43:06Z</time>
      </trkpt>
      <trkpt lat="45.53838" lon="6.57867">
        <ele>1236.4</ele>
        <time>2013-02-28T07:43:07Z</time>
      </trkpt>
      <trkpt lat="45.53838" lon="6.57842">
        <ele>1240.5</ele>
        <time>2013-02-28T07:43:45Z</time>
      </trkpt>
      <trkpt lat="45.53842" lon="6.57831">
        <ele>1244</ele>
        <time>2013-02-28T07:44:01Z</time>
      </trkpt>
      <trkpt lat="45.53841" lon="6.57818">
        <ele>1247.5</ele>
        <time>2013-02-28T07:44:19Z</time>
      </trkpt>
      <trkpt lat="45.5384" lon="6.57818">
        <ele>1247.8</ele>
        <time>2013-02-28T07:44:20Z</time>
      </trkpt>
      <trkpt lat="45.53835" lon="6.57796">
        <ele>1252.6</ele>
        <time>2013-02-28T07:44:49Z</time>
      </trkpt>
      <trkpt lat="45.53832" lon="6.57784">
        <ele>1254.9</ele>
        <time>2013-02-28T07:45:01Z</time>
      </trkpt>
      <trkpt lat="45.53829" lon="6.57773">
        <ele>1257.9</ele>
        <time>2013-02-28T07:45:13Z</time>
      </trkpt>
      <trkpt lat="45.53825" lon="6.57762">
        <ele>1258.8</ele>
        <time>2013-02-28T07:45:26Z</time>
      </trkpt>
      <trkpt lat="45.53825" lon="6.57761">
        <ele>1259</ele>
        <time>2013-02-28T07:45:27Z</time>
      </trkpt>
      <trkpt lat="45.53822" lon="6.57738">
        <ele>1262.2</ele>
        <time>2013-02-28T07:45:52Z</time>
      </trkpt>
      <trkpt lat="45.5382" lon="6.57726">
        <ele>1265.9</ele>
        <time>2013-02-28T07:46:09Z</time>
      </trkpt>
      <trkpt lat="45.5382" lon="6.57714">
        <ele>1268.3</ele>
        <time>2013-02-28T07:46:26Z</time>
      </trkpt>
      <trkpt lat="45.53819" lon="6.57702">
        <ele>1270.9</ele>
        <time>2013-02-28T07:46:42Z</time>
      </trkpt>
      <trkpt lat="45.53819" lon="6.57701">
        <ele>1271</ele>
        <time>2013-02-28T07:46:43Z</time>
      </trkpt>
      <trkpt lat="45.53818" lon="6.57677">
        <ele>1276.1</ele>
        <time>2013-02-28T07:47:05Z</time>
      </trkpt>
      <trkpt lat="45.53814" lon="6.57667">
        <ele>1277.5</ele>
        <time>2013-02-28T07:47:49Z</time>
      </trkpt>
      <trkpt lat="45.53813" lon="6.57667">
        <ele>1277.4</ele>
        <time>2013-02-28T07:47:50Z</time>
      </trkpt>
      <trkpt lat="45.53805" lon="6.57672">
        <ele>1276.3</ele>
        <time>2013-02-28T07:49:40Z</time>
      </trkpt>
      <trkpt lat="45.53813" lon="6.57665">
        <ele>1275.7</ele>
        <time>2013-02-28T07:51:23Z</time>
      </trkpt>
      <trkpt lat="45.53818" lon="6.57676">
        <ele>1274.5</ele>
        <time>2013-02-28T07:52:39Z</time>
      </trkpt>
      <trkpt lat="45.53819" lon="6.5767">
        <ele>1273.3</ele>
        <time>2013-02-28T07:55:45Z</time>
      </trkpt>
      <trkpt lat="45.53819" lon="6.57669">
        <ele>1273.2</ele>
        <time>2013-02-28T07:55:46Z</time>
      </trkpt>
      <trkpt lat="45.53815" lon="6.57658">
        <ele>1273.8</ele>
        <time>2013-02-28T07:57:00Z</time>
      </trkpt>
      <trkpt lat="45.53803" lon="6.57641">
        <ele>1278.9</ele>
        <time>2013-02-28T07:57:22Z</time>
      </trkpt>
      <trkpt lat="45.53799" lon="6.57629">
        <ele>1281.2</ele>
        <time>2013-02-28T07:57:33Z</time>
      </trkpt>
      <trkpt lat="45.53797" lon="6.57617">
        <ele>1283.8</ele>
        <time>2013-02-28T07:57:48Z</time>
      </trkpt>
      <trkpt lat="45.53796" lon="6.57605">
        <ele>1285.6</ele>
        <time>2013-02-28T07:57:59Z</time>
      </trkpt>
      <trkpt lat="45.53795" lon="6.57592">
        <ele>1289.8</ele>
        <time>2013-02-28T07:58:18Z</time>
      </trkpt>
      <trkpt lat="45.53794" lon="6.57592">
        <ele>1290.2</ele>
        <time>2013-02-28T07:58:19Z</time>
      </trkpt>
      <trkpt lat="45.53795" lon="6.57568">
        <ele>1293.4</ele>
        <time>2013-02-28T07:58:45Z</time>
      </trkpt>
      <trkpt lat="45.53798" lon="6.57556">
        <ele>1294.8</ele>
        <time>2013-02-28T07:58:58Z</time>
      </trkpt>
      <trkpt lat="45.53802" lon="6.57545">
        <ele>1298.5</ele>
        <time>2013-02-28T07:59:14Z</time>
      </trkpt>
      <trkpt lat="45.53802" lon="6.57533">
        <ele>1301</ele>
        <time>2013-02-28T07:59:29Z</time>
      </trkpt>
      <trkpt lat="45.53802" lon="6.57532">
        <ele>1301.3</ele>
        <time>2013-02-28T07:59:30Z</time>
      </trkpt>
      <trkpt lat="45.53803" lon="6.57508">
        <ele>1306.2</ele>
        <time>2013-02-28T08:00:02Z</time>
      </trkpt>
      <trkpt lat="45.538" lon="6.57497">
        <ele>1308.1</ele>
        <time>2013-02-28T08:00:15Z</time>
      </trkpt>
      <trkpt lat="45.53799" lon="6.57484">
        <ele>1310.1</ele>
        <time>2013-02-28T08:00:31Z</time>
      </trkpt>
      <trkpt lat="45.53799" lon="6.57484">
        <ele>1310.2</ele>
        <time>2013-02-28T08:00:32Z</time>
      </trkpt>
      <trkpt lat="45.53788" lon="6.57465">
        <ele>1316.1</ele>
        <time>2013-02-28T08:01:06Z</time>
      </trkpt>
      <trkpt lat="45.53787" lon="6.57453">
        <ele>1316.9</ele>
        <time>2013-02-28T08:01:25Z</time>
      </trkpt>
      <trkpt lat="45.5378" lon="6.57446">
        <ele>1319</ele>
        <time>2013-02-28T08:01:35Z</time>
      </trkpt>
      <trkpt lat="45.53779" lon="6.57445">
        <ele>1319</ele>
        <time>2013-02-28T08:01:36Z</time>
      </trkpt>
      <trkpt lat="45.53775" lon="6.57425">
        <ele>1324.2</ele>
        <time>2013-02-28T08:02:11Z</time>
      </trkpt>
      <trkpt lat="45.53771" lon="6.57414">
        <ele>1326.7</ele>
        <time>2013-02-28T08:02:23Z</time>
      </trkpt>
      <trkpt lat="45.53769" lon="6.57402">
        <ele>1330.1</ele>
        <time>2013-02-28T08:02:43Z</time>
      </trkpt>
      <trkpt lat="45.53769" lon="6.57402">
        <ele>1330.3</ele>
        <time>2013-02-28T08:02:44Z</time>
      </trkpt>
      <trkpt lat="45.53766" lon="6.57377">
        <ele>1336.3</ele>
        <time>2013-02-28T08:03:20Z</time>
      </trkpt>
      <trkpt lat="45.53766" lon="6.57365">
        <ele>1339.5</ele>
        <time>2013-02-28T08:03:38Z</time>
      </trkpt>
      <trkpt lat="45.53765" lon="6.57353">
        <ele>1341.8</ele>
        <time>2013-02-28T08:03:49Z</time>
      </trkpt>
      <trkpt lat="45.53765" lon="6.57352">
        <ele>1342.3</ele>
        <time>2013-02-28T08:03:50Z</time>
      </trkpt>
      <trkpt lat="45.53763" lon="6.5733">
        <ele>1347.2</ele>
        <time>2013-02-28T08:04:15Z</time>
      </trkpt>
      <trkpt lat="45.53761" lon="6.57317">
        <ele>1349.3</ele>
        <time>2013-02-28T08:04:28Z</time>
      </trkpt>
      <trkpt lat="45.5376" lon="6.57305">
        <ele>1351.5</ele>
        <time>2013-02-28T08:04:39Z</time>
      </trkpt>
      <trkpt lat="45.5376" lon="6.57293">
        <ele>1353.7</ele>
        <time>2013-02-28T08:04:51Z</time>
      </trkpt>
      <trkpt lat="45.5376" lon="6.57292">
        <ele>1353.7</ele>
        <time>2013-02-28T08:04:52Z</time>
      </trkpt>
      <trkpt lat="45.53761" lon="6.57269">
        <ele>1359.1</ele>
        <time>2013-02-28T08:05:18Z</time>
      </trkpt>
      <trkpt lat="45.53764" lon="6.57257">
        <ele>1361.4</ele>
        <time>2013-02-28T08:05:31Z</time>
      </trkpt>
      <trkpt lat="45.53767" lon="6.57245">
        <ele>1364.9</ele>
        <time>2013-02-28T08:05:56Z</time>
      </trkpt>
      <trkpt lat="45.53767" lon="6.57245">
        <ele>1365.2</ele>
        <time>2013-02-28T08:05:57Z</time>
      </trkpt>
      <trkpt lat="45.53764" lon="6.57257">
        <ele>1363.2</ele>
        <time>2013-02-28T08:09:57Z</time>
      </trkpt>
      <trkpt lat="45.53761" lon="6.57257">
        <ele>1363</ele>
        <time>2013-02-28T08:10:56Z</time>
      </trkpt>
      <trkpt lat="45.53759" lon="6.57245">
        <ele>1362.9</ele>
        <time>2013-02-28T08:11:04Z</time>
      </trkpt>
      <trkpt lat="45.53759" lon="6.57244">
        <ele>1362.7</ele>
        <time>2013-02-28T08:11:05Z</time>
      </trkpt>
      <trkpt lat="45.53758" lon="6.5722">
        <ele>1364.8</ele>
        <time>2013-02-28T08:11:20Z</time>
      </trkpt>
      <trkpt lat="45.53756" lon="6.57208">
        <ele>1366.6</ele>
        <time>2013-02-28T08:11:29Z</time>
      </trkpt>
      <trkpt lat="45.53751" lon="6.57197">
        <ele>1369</ele>
        <time>2013-02-28T08:11:40Z</time>
      </trkpt>
      <trkpt lat="45.53744" lon="6.5719">
        <ele>1370.2</ele>
        <time>2013-02-28T08:11:50Z</time>
      </trkpt>
      <trkpt lat="45.5374" lon="6.57179">
        <ele>1371</ele>
        <time>2013-02-28T08:12:00Z</time>
      </trkpt>
      <trkpt lat="45.53735" lon="6.57169">
        <ele>1372.4</ele>
        <time>2013-02-28T08:12:12Z</time>
      </trkpt>
      <trkpt lat="45.53735" lon="6.57168">
        <ele>1373.2</ele>
        <time>2013-02-28T08:12:13Z</time>
      </trkpt>
      <trkpt lat="45.53729" lon="6.57147">
        <ele>1377</ele>
        <time>2013-02-28T08:12:37Z</time>
      </trkpt>
      <trkpt lat="45.53722" lon="6.57139">
        <ele>1379.7</ele>
        <time>2013-02-28T08:12:51Z</time>
      </trkpt>
      <trkpt lat="45.53731" lon="6.57134">
        <ele>1383.9</ele>
        <time>2013-02-28T08:13:25Z</time>
      </trkpt>
      <trkpt lat="45.53731" lon="6.57134">
        <ele>1384</ele>
        <time>2013-02-28T08:13:26Z</time>
      </trkpt>
      <trkpt lat="45.53726" lon="6.57112">
        <ele>1389.4</ele>
        <time>2013-02-28T08:14:00Z</time>
      </trkpt>
      <trkpt lat="45.53721" lon="6.57101">
        <ele>1390.7</ele>
        <time>2013-02-28T08:14:10Z</time>
      </trkpt>
      <trkpt lat="45.53718" lon="6.5709">
        <ele>1393.4</ele>
        <time>2013-02-28T08:14:22Z</time>
      </trkpt>
      <trkpt lat="45.53722" lon="6.5708">
        <ele>1397.3</ele>
        <time>2013-02-28T08:14:43Z</time>
      </trkpt>
      <trkpt lat="45.53723" lon="6.57079">
        <ele>1397.3</ele>
        <time>2013-02-28T08:14:44Z</time>
      </trkpt>
      <trkpt lat="45.53714" lon="6.57061">
        <ele>1404.6</ele>
        <time>2013-02-28T08:15:20Z</time>
      </trkpt>
      <trkpt lat="45.53709" lon="6.57051">
        <ele>1407.7</ele>
        <time>2013-02-28T08:15:42Z</time>
      </trkpt>
      <trkpt lat="45.53703" lon="6.57042">
        <ele>1410.5</ele>
        <time>2013-02-28T08:15:58Z</time>
      </trkpt>
      <trkpt lat="45.53703" lon="6.57041">
        <ele>1410.7</ele>
        <time>2013-02-28T08:15:59Z</time>
      </trkpt>
      <trkpt lat="45.53691" lon="6.57025">
        <ele>1415.4</ele>
        <time>2013-02-28T08:16:28Z</time>
      </trkpt>
      <trkpt lat="45.53686" lon="6.57015">
        <ele>1417.6</ele>
        <time>2013-02-28T08:16:45Z</time>
      </trkpt>
      <trkpt lat="45.53682" lon="6.57003">
        <ele>1418.7</ele>
        <time>2013-02-28T08:17:01Z</time>
      </trkpt>
      <trkpt lat="45.53681" lon="6.57003">
        <ele>1419</ele>
        <time>2013-02-28T08:17:02Z</time>
      </trkpt>
      <trkpt lat="45.53672" lon="6.56982">
        <ele>1423.5</ele>
        <time>2013-02-28T08:17:32Z</time>
      </trkpt>
      <trkpt lat="45.53669" lon="6.56971">
        <ele>1426.4</ele>
        <time>2013-02-28T08:17:48Z</time>
      </trkpt>
      <trkpt lat="45.53669" lon="6.56959">
        <ele>1431.5</ele>
        <time>2013-02-28T08:18:20Z</time>
      </trkpt>
      <trkpt lat="45.53669" lon="6.56958">
        <ele>1432</ele>
        <time>2013-02-28T08:18:21Z</time>
      </trkpt>
      <trkpt lat="45.53668" lon="6.56934">
        <ele>1439.7</ele>
        <time>2013-02-28T08:18:58Z</time>
      </trkpt>
      <trkpt lat="45.53666" lon="6.56921">
        <ele>1442.4</ele>
        <time>2013-02-28T08:19:14Z</time>
      </trkpt>
      <trkpt lat="45.53667" lon="6.5691">
        <ele>1445.5</ele>
        <time>2013-02-28T08:19:25Z</time>
      </trkpt>
      <trkpt lat="45.53667" lon="6.56908">
        <ele>1445.4</ele>
        <time>2013-02-28T08:19:26Z</time>
      </trkpt>
      <trkpt lat="45.53671" lon="6.56886">
        <ele>1449.4</ele>
        <time>2013-02-28T08:20:23Z</time>
      </trkpt>
      <trkpt lat="45.53676" lon="6.56875">
        <ele>1454.3</ele>
        <time>2013-02-28T08:20:52Z</time>
      </trkpt>
      <trkpt lat="45.53676" lon="6.56875">
        <ele>1454.4</ele>
        <time>2013-02-28T08:20:53Z</time>
      </trkpt>
      <trkpt lat="45.53682" lon="6.56852">
        <ele>1461.8</ele>
        <time>2013-02-28T08:21:29Z</time>
      </trkpt>
      <trkpt lat="45.5369" lon="6.56848">
        <ele>1469.4</ele>
        <time>2013-02-28T08:22:17Z</time>
      </trkpt>
      <trkpt lat="45.53691" lon="6.56847">
        <ele>1469.8</ele>
        <time>2013-02-28T08:22:18Z</time>
      </trkpt>
      <trkpt lat="45.53707" lon="6.56839">
        <ele>1477.5</ele>
        <time>2013-02-28T08:22:58Z</time>
      </trkpt>
      <trkpt lat="45.53715" lon="6.5684">
        <ele>1480.8</ele>
        <time>2013-02-28T08:23:17Z</time>
      </trkpt>
      <trkpt lat="45.53724" lon="6.56839">
        <ele>1482.2</ele>
        <time>2013-02-28T08:23:28Z</time>
      </trkpt>
      <trkpt lat="45.53724" lon="6.56839">
        <ele>1482.5</ele>
        <time>2013-02-28T08:23:29Z</time>
      </trkpt>
      <trkpt lat="45.53741" lon="6.56843">
        <ele>1487.3</ele>
        <time>2013-02-28T08:24:00Z</time>
      </trkpt>
      <trkpt lat="45.5375" lon="6.56845">
        <ele>1488.1</ele>
        <time>2013-02-28T08:24:15Z</time>
      </trkpt>
      <trkpt lat="45.53758" lon="6.5685">
        <ele>1490.1</ele>
        <time>2013-02-28T08:24:30Z</time>
      </trkpt>
      <trkpt lat="45.53758" lon="6.56851">
        <ele>1489.9</ele>
        <time>2013-02-28T08:24:31Z</time>
      </trkpt>
      <trkpt lat="45.53773" lon="6.5686">
        <ele>1488.8</ele>
        <time>2013-02-28T08:24:50Z</time>
      </trkpt>
      <trkpt lat="45.53776" lon="6.56872">
        <ele>1489.2</ele>
        <time>2013-02-28T08:25:01Z</time>
      </trkpt>
      <trkpt lat="45.53781" lon="6.56883">
        <ele>1487.9</ele>
        <time>2013-02-28T08:25:12Z</time>
      </trkpt>
      <trkpt lat="45.5379" lon="6.56884">
        <ele>1490.6</ele>
        <time>2013-02-28T08:25:28Z</time>
      </trkpt>
      <trkpt lat="45.53798" lon="6.56888">
        <ele>1491.9</ele>
        <time>2013-02-28T08:25:40Z</time>
      </trkpt>
      <trkpt lat="45.53799" lon="6.56888">
        <ele>1491.8</ele>
        <time>2013-02-28T08:25:41Z</time>
      </trkpt>
      <trkpt lat="45.53814" lon="6.56892">
        <ele>1493.5</ele>
        <time>2013-02-28T08:25:57Z</time>
      </trkpt>
      <trkpt lat="45.53823" lon="6.56892">
        <ele>1493.3</ele>
        <time>2013-02-28T08:26:04Z</time>
      </trkpt>
      <trkpt lat="45.53831" lon="6.56891">
        <ele>1493.9</ele>
        <time>2013-02-28T08:26:11Z</time>
      </trkpt>
      <trkpt lat="45.5384" lon="6.56891">
        <ele>1495.7</ele>
        <time>2013-02-28T08:26:18Z</time>
      </trkpt>
      <trkpt lat="45.53849" lon="6.5689">
        <ele>1496.4</ele>
        <time>2013-02-28T08:26:26Z</time>
      </trkpt>
      <trkpt lat="45.53857" lon="6.56892">
        <ele>1496.1</ele>
        <time>2013-02-28T08:26:35Z</time>
      </trkpt>
      <trkpt lat="45.53866" lon="6.56895">
        <ele>1498.3</ele>
        <time>2013-02-28T08:26:45Z</time>
      </trkpt>
      <trkpt lat="45.53867" lon="6.56895">
        <ele>1498.3</ele>
        <time>2013-02-28T08:26:46Z</time>
      </trkpt>
      <trkpt lat="45.53882" lon="6.56903">
        <ele>1500</ele>
        <time>2013-02-28T08:27:04Z</time>
      </trkpt>
      <trkpt lat="45.5389" lon="6.56907">
        <ele>1500.9</ele>
        <time>2013-02-28T08:27:15Z</time>
      </trkpt>
      <trkpt lat="45.53898" lon="6.5691">
        <ele>1503.3</ele>
        <time>2013-02-28T08:27:30Z</time>
      </trkpt>
      <trkpt lat="45.53907" lon="6.56906">
        <ele>1505.8</ele>
        <time>2013-02-28T08:27:45Z</time>
      </trkpt>
      <trkpt lat="45.53916" lon="6.56906">
        <ele>1509</ele>
        <time>2013-02-28T08:27:59Z</time>
      </trkpt>
      <trkpt lat="45.53917" lon="6.56906">
        <ele>1509.2</ele>
        <time>2013-02-28T08:28:00Z</time>
      </trkpt>
      <trkpt lat="45.53924" lon="6.56925">
        <ele>1512.3</ele>
        <time>2013-02-28T08:28:25Z</time>
      </trkpt>
      <trkpt lat="45.53922" lon="6.56937">
        <ele>1515.3</ele>
        <time>2013-02-28T08:28:36Z</time>
      </trkpt>
      <trkpt lat="45.53925" lon="6.56949">
        <ele>1516</ele>
        <time>2013-02-28T08:28:47Z</time>
      </trkpt>
      <trkpt lat="45.53928" lon="6.5696">
        <ele>1518.7</ele>
        <time>2013-02-28T08:29:02Z</time>
      </trkpt>
      <trkpt lat="45.53928" lon="6.56961">
        <ele>1518.6</ele>
        <time>2013-02-28T08:29:03Z</time>
      </trkpt>
      <trkpt lat="45.53936" lon="6.56983">
        <ele>1523.3</ele>
        <time>2013-02-28T08:29:24Z</time>
      </trkpt>
      <trkpt lat="45.53944" lon="6.56988">
        <ele>1524.2</ele>
        <time>2013-02-28T08:29:36Z</time>
      </trkpt>
      <trkpt lat="45.53952" lon="6.5699">
        <ele>1526.4</ele>
        <time>2013-02-28T08:29:48Z</time>
      </trkpt>
      <trkpt lat="45.53961" lon="6.56993">
        <ele>1529.6</ele>
        <time>2013-02-28T08:30:00Z</time>
      </trkpt>
      <trkpt lat="45.53969" lon="6.56991">
        <ele>1532.2</ele>
        <time>2013-02-28T08:30:17Z</time>
      </trkpt>
      <trkpt lat="45.53969" lon="6.5699">
        <ele>1532.5</ele>
        <time>2013-02-28T08:30:18Z</time>
      </trkpt>
      <trkpt lat="45.53981" lon="6.56985">
        <ele>1537.1</ele>
        <time>2013-02-28T08:30:44Z</time>
      </trkpt>
      <trkpt lat="45.53987" lon="6.56994">
        <ele>1540.4</ele>
        <time>2013-02-28T08:30:59Z</time>
      </trkpt>
      <trkpt lat="45.53994" lon="6.56988">
        <ele>1543.2</ele>
        <time>2013-02-28T08:31:23Z</time>
      </trkpt>
      <trkpt lat="45.53995" lon="6.56987">
        <ele>1543.5</ele>
        <time>2013-02-28T08:31:24Z</time>
      </trkpt>
      <trkpt lat="45.54006" lon="6.56988">
        <ele>1548.7</ele>
        <time>2013-02-28T08:32:02Z</time>
      </trkpt>
      <trkpt lat="45.54012" lon="6.56997">
        <ele>1552.3</ele>
        <time>2013-02-28T08:32:19Z</time>
      </trkpt>
      <trkpt lat="45.5402" lon="6.57005">
        <ele>1556.7</ele>
        <time>2013-02-28T08:32:34Z</time>
      </trkpt>
      <trkpt lat="45.5402" lon="6.57005">
        <ele>1556.3</ele>
        <time>2013-02-28T08:32:35Z</time>
      </trkpt>
      <trkpt lat="45.54034" lon="6.57019">
        <ele>1562.6</ele>
        <time>2013-02-28T08:33:04Z</time>
      </trkpt>
      <trkpt lat="45.54042" lon="6.57025">
        <ele>1564.3</ele>
        <time>2013-02-28T08:33:20Z</time>
      </trkpt>
      <trkpt lat="45.5405" lon="6.5703">
        <ele>1567.7</ele>
        <time>2013-02-28T08:33:39Z</time>
      </trkpt>
      <trkpt lat="45.54051" lon="6.5703">
        <ele>1567.8</ele>
        <time>2013-02-28T08:33:40Z</time>
      </trkpt>
      <trkpt lat="45.54065" lon="6.57043">
        <ele>1573.5</ele>
        <time>2013-02-28T08:34:04Z</time>
      </trkpt>
      <trkpt lat="45.54073" lon="6.57048">
        <ele>1575.8</ele>
        <time>2013-02-28T08:34:19Z</time>
      </trkpt>
      <trkpt lat="45.54081" lon="6.57044">
        <ele>1577.9</ele>
        <time>2013-02-28T08:34:35Z</time>
      </trkpt>
      <trkpt lat="45.54085" lon="6.57033">
        <ele>1581.1</ele>
        <time>2013-02-28T08:34:45Z</time>
      </trkpt>
      <trkpt lat="45.54085" lon="6.57033">
        <ele>1581.1</ele>
        <time>2013-02-28T08:34:46Z</time>
      </trkpt>
      <trkpt lat="45.54099" lon="6.57033">
        <ele>1585.3</ele>
        <time>2013-02-28T08:35:13Z</time>
      </trkpt>
      <trkpt lat="45.54107" lon="6.57027">
        <ele>1587.3</ele>
        <time>2013-02-28T08:35:30Z</time>
      </trkpt>
      <trkpt lat="45.5411" lon="6.57016">
        <ele>1591.2</ele>
        <time>2013-02-28T08:35:45Z</time>
      </trkpt>
      <trkpt lat="45.54115" lon="6.57006">
        <ele>1592.8</ele>
        <time>2013-02-28T08:36:00Z</time>
      </trkpt>
      <trkpt lat="45.54115" lon="6.57005">
        <ele>1592.8</ele>
        <time>2013-02-28T08:36:01Z</time>
      </trkpt>
      <trkpt lat="45.54128" lon="6.5699">
        <ele>1599.4</ele>
        <time>2013-02-28T08:36:35Z</time>
      </trkpt>
      <trkpt lat="45.54137" lon="6.56994">
        <ele>1603.3</ele>
        <time>2013-02-28T08:36:51Z</time>
      </trkpt>
      <trkpt lat="45.54144" lon="6.57002">
        <ele>1605.6</ele>
        <time>2013-02-28T08:37:04Z</time>
      </trkpt>
      <trkpt lat="45.54144" lon="6.57002">
        <ele>1605.7</ele>
        <time>2013-02-28T08:37:05Z</time>
      </trkpt>
      <trkpt lat="45.54159" lon="6.57012">
        <ele>1609.1</ele>
        <time>2013-02-28T08:37:28Z</time>
      </trkpt>
      <trkpt lat="45.54168" lon="6.57011">
        <ele>1611.3</ele>
        <time>2013-02-28T08:37:42Z</time>
      </trkpt>
      <trkpt lat="45.54176" lon="6.57016">
        <ele>1614.1</ele>
        <time>2013-02-28T08:37:56Z</time>
      </trkpt>
      <trkpt lat="45.54183" lon="6.57024">
        <ele>1615.4</ele>
        <time>2013-02-28T08:38:08Z</time>
      </trkpt>
      <trkpt lat="45.54183" lon="6.57025">
        <ele>1616.2</ele>
        <time>2013-02-28T08:38:09Z</time>
      </trkpt>
      <trkpt lat="45.54198" lon="6.57036">
        <ele>1621</ele>
        <time>2013-02-28T08:38:33Z</time>
      </trkpt>
      <trkpt lat="45.54206" lon="6.57038">
        <ele>1620.9</ele>
        <time>2013-02-28T08:38:44Z</time>
      </trkpt>
      <trkpt lat="45.54214" lon="6.57039">
        <ele>1623.9</ele>
        <time>2013-02-28T08:38:55Z</time>
      </trkpt>
      <trkpt lat="45.54223" lon="6.57039">
        <ele>1625.7</ele>
        <time>2013-02-28T08:39:06Z</time>
      </trkpt>
      <trkpt lat="45.54231" lon="6.57035">
        <ele>1627.1</ele>
        <time>2013-02-28T08:39:17Z</time>
      </trkpt>
      <trkpt lat="45.54232" lon="6.57035">
        <ele>1627.4</ele>
        <time>2013-02-28T08:39:18Z</time>
      </trkpt>
      <trkpt lat="45.54247" lon="6.57025">
        <ele>1630</ele>
        <time>2013-02-28T08:39:40Z</time>
      </trkpt>
      <trkpt lat="45.54253" lon="6.57017">
        <ele>1632</ele>
        <time>2013-02-28T08:39:50Z</time>
      </trkpt>
      <trkpt lat="45.54257" lon="6.57006">
        <ele>1633.3</ele>
        <time>2013-02-28T08:40:00Z</time>
      </trkpt>
      <trkpt lat="45.54263" lon="6.56998">
        <ele>1634.8</ele>
        <time>2013-02-28T08:40:13Z</time>
      </trkpt>
      <trkpt lat="45.5427" lon="6.5699">
        <ele>1637.8</ele>
        <time>2013-02-28T08:40:27Z</time>
      </trkpt>
      <trkpt lat="45.54271" lon="6.5699">
        <ele>1638.1</ele>
        <time>2013-02-28T08:40:28Z</time>
      </trkpt>
      <trkpt lat="45.54287" lon="6.56984">
        <ele>1641.7</ele>
        <time>2013-02-28T08:40:52Z</time>
      </trkpt>
      <trkpt lat="45.54295" lon="6.56981">
        <ele>1644.5</ele>
        <time>2013-02-28T08:41:04Z</time>
      </trkpt>
      <trkpt lat="45.54302" lon="6.56975">
        <ele>1646.9</ele>
        <time>2013-02-28T08:41:16Z</time>
      </trkpt>
      <trkpt lat="45.5431" lon="6.56969">
        <ele>1648.9</ele>
        <time>2013-02-28T08:41:29Z</time>
      </trkpt>
      <trkpt lat="45.5431" lon="6.56969">
        <ele>1649</ele>
        <time>2013-02-28T08:41:30Z</time>
      </trkpt>
      <trkpt lat="45.54322" lon="6.56953">
        <ele>1654.1</ele>
        <time>2013-02-28T08:41:58Z</time>
      </trkpt>
      <trkpt lat="45.54327" lon="6.56943">
        <ele>1657</ele>
        <time>2013-02-28T08:42:15Z</time>
      </trkpt>
      <trkpt lat="45.54333" lon="6.56935">
        <ele>1659.1</ele>
        <time>2013-02-28T08:42:31Z</time>
      </trkpt>
      <trkpt lat="45.54334" lon="6.56934">
        <ele>1659</ele>
        <time>2013-02-28T08:42:32Z</time>
      </trkpt>
      <trkpt lat="45.54345" lon="6.56917">
        <ele>1664.8</ele>
        <time>2013-02-28T08:42:59Z</time>
      </trkpt>
      <trkpt lat="45.54352" lon="6.56909">
        <ele>1668</ele>
        <time>2013-02-28T08:43:15Z</time>
      </trkpt>
      <trkpt lat="45.54359" lon="6.56901">
        <ele>1670.7</ele>
        <time>2013-02-28T08:43:29Z</time>
      </trkpt>
      <trkpt lat="45.54367" lon="6.56905">
        <ele>1672.8</ele>
        <time>2013-02-28T08:43:45Z</time>
      </trkpt>
      <trkpt lat="45.54367" lon="6.56906">
        <ele>1673</ele>
        <time>2013-02-28T08:43:46Z</time>
      </trkpt>
      <trkpt lat="45.54366" lon="6.56926">
        <ele>1676.5</ele>
        <time>2013-02-28T08:47:00Z</time>
      </trkpt>
      <trkpt lat="45.54365" lon="6.56927">
        <ele>1676.4</ele>
        <time>2013-02-28T08:47:01Z</time>
      </trkpt>
      <trkpt lat="45.54375" lon="6.56925">
        <ele>1673.1</ele>
        <time>2013-02-28T08:51:11Z</time>
      </trkpt>
      <trkpt lat="45.54385" lon="6.56908">
        <ele>1675.4</ele>
        <time>2013-02-28T08:51:49Z</time>
      </trkpt>
      <trkpt lat="45.54388" lon="6.56897">
        <ele>1677.1</ele>
        <time>2013-02-28T08:51:59Z</time>
      </trkpt>
      <trkpt lat="45.54393" lon="6.56886">
        <ele>1678.7</ele>
        <time>2013-02-28T08:52:10Z</time>
      </trkpt>
      <trkpt lat="45.54397" lon="6.56875">
        <ele>1680.6</ele>
        <time>2013-02-28T08:52:23Z</time>
      </trkpt>
      <trkpt lat="45.54398" lon="6.56875">
        <ele>1681.4</ele>
        <time>2013-02-28T08:52:24Z</time>
      </trkpt>
      <trkpt lat="45.54411" lon="6.56863">
        <ele>1684.9</ele>
        <time>2013-02-28T08:52:51Z</time>
      </trkpt>
      <trkpt lat="45.54419" lon="6.5686">
        <ele>1688</ele>
        <time>2013-02-28T08:53:06Z</time>
      </trkpt>
      <trkpt lat="45.54427" lon="6.56853">
        <ele>1690.7</ele>
        <time>2013-02-28T08:53:21Z</time>
      </trkpt>
      <trkpt lat="45.54435" lon="6.5685">
        <ele>1693.5</ele>
        <time>2013-02-28T08:53:34Z</time>
      </trkpt>
      <trkpt lat="45.54436" lon="6.5685">
        <ele>1693.6</ele>
        <time>2013-02-28T08:53:35Z</time>
      </trkpt>
      <trkpt lat="45.54452" lon="6.5685">
        <ele>1699.7</ele>
        <time>2013-02-28T08:54:01Z</time>
      </trkpt>
      <trkpt lat="45.5446" lon="6.56845">
        <ele>1701.9</ele>
        <time>2013-02-28T08:54:14Z</time>
      </trkpt>
      <trkpt lat="45.54469" lon="6.56842">
        <ele>1704</ele>
        <time>2013-02-28T08:54:25Z</time>
      </trkpt>
      <trkpt lat="45.54477" lon="6.5684">
        <ele>1704.1</ele>
        <time>2013-02-28T08:54:35Z</time>
      </trkpt>
      <trkpt lat="45.54478" lon="6.5684">
        <ele>1704.4</ele>
        <time>2013-02-28T08:54:36Z</time>
      </trkpt>
      <trkpt lat="45.54494" lon="6.56832">
        <ele>1708.6</ele>
        <time>2013-02-28T08:54:58Z</time>
      </trkpt>
      <trkpt lat="45.54501" lon="6.56827">
        <ele>1709</ele>
        <time>2013-02-28T08:55:08Z</time>
      </trkpt>
      <trkpt lat="45.54509" lon="6.56821">
        <ele>1711.2</ele>
        <time>2013-02-28T08:55:19Z</time>
      </trkpt>
      <trkpt lat="45.54516" lon="6.56815">
        <ele>1712</ele>
        <time>2013-02-28T08:55:29Z</time>
      </trkpt>
      <trkpt lat="45.54523" lon="6.56808">
        <ele>1712.9</ele>
        <time>2013-02-28T08:55:39Z</time>
      </trkpt>
      <trkpt lat="45.54523" lon="6.56807">
        <ele>1713.1</ele>
        <time>2013-02-28T08:55:40Z</time>
      </trkpt>
      <trkpt lat="45.54537" lon="6.56793">
        <ele>1715.5</ele>
        <time>2013-02-28T08:56:00Z</time>
      </trkpt>
      <trkpt lat="45.54543" lon="6.56785">
        <ele>1718.3</ele>
        <time>2013-02-28T08:56:12Z</time>
      </trkpt>
      <trkpt lat="45.54544" lon="6.56772">
        <ele>1720.9</ele>
        <time>2013-02-28T08:56:28Z</time>
      </trkpt>
      <trkpt lat="45.54547" lon="6.56761">
        <ele>1724.7</ele>
        <time>2013-02-28T08:56:47Z</time>
      </trkpt>
      <trkpt lat="45.54547" lon="6.5676">
        <ele>1724.8</ele>
        <time>2013-02-28T08:56:48Z</time>
      </trkpt>
      <trkpt lat="45.54554" lon="6.56743">
        <ele>1729.6</ele>
        <time>2013-02-28T08:57:13Z</time>
      </trkpt>
      <trkpt lat="45.54553" lon="6.56731">
        <ele>1731.2</ele>
        <time>2013-02-28T08:57:26Z</time>
      </trkpt>
      <trkpt lat="45.54556" lon="6.5672">
        <ele>1735</ele>
        <time>2013-02-28T08:57:40Z</time>
      </trkpt>
      <trkpt lat="45.54564" lon="6.56714">
        <ele>1736.8</ele>
        <time>2013-02-28T08:57:53Z</time>
      </trkpt>
      <trkpt lat="45.54564" lon="6.56714">
        <ele>1737.2</ele>
        <time>2013-02-28T08:57:54Z</time>
      </trkpt>
      <trkpt lat="45.54579" lon="6.56705">
        <ele>1742.3</ele>
        <time>2013-02-28T08:58:20Z</time>
      </trkpt>
      <trkpt lat="45.54587" lon="6.56699">
        <ele>1743.8</ele>
        <time>2013-02-28T08:58:34Z</time>
      </trkpt>
      <trkpt lat="45.54591" lon="6.56687">
        <ele>1748.2</ele>
        <time>2013-02-28T08:58:53Z</time>
      </trkpt>
      <trkpt lat="45.54596" lon="6.56678">
        <ele>1750</ele>
        <time>2013-02-28T08:59:06Z</time>
      </trkpt>
      <trkpt lat="45.54597" lon="6.56677">
        <ele>1749.9</ele>
        <time>2013-02-28T08:59:07Z</time>
      </trkpt>
      <trkpt lat="45.54601" lon="6.56656">
        <ele>1755.4</ele>
        <time>2013-02-28T08:59:37Z</time>
      </trkpt>
      <trkpt lat="45.54596" lon="6.56646">
        <ele>1757.5</ele>
        <time>2013-02-28T08:59:49Z</time>
      </trkpt>
      <trkpt lat="45.54593" lon="6.56635">
        <ele>1758.1</ele>
        <time>2013-02-28T09:00:01Z</time>
      </trkpt>
      <trkpt lat="45.54599" lon="6.56625">
        <ele>1762</ele>
        <time>2013-02-28T09:00:21Z</time>
      </trkpt>
      <trkpt lat="45.546" lon="6.56625">
        <ele>1762.5</ele>
        <time>2013-02-28T09:00:22Z</time>
      </trkpt>
      <trkpt lat="45.54617" lon="6.56623">
        <ele>1768.6</ele>
        <time>2013-02-28T09:00:56Z</time>
      </trkpt>
      <trkpt lat="45.54625" lon="6.56618">
        <ele>1771.7</ele>
        <time>2013-02-28T09:01:10Z</time>
      </trkpt>
      <trkpt lat="45.54633" lon="6.56615">
        <ele>1773.8</ele>
        <time>2013-02-28T09:01:24Z</time>
      </trkpt>
      <trkpt lat="45.54634" lon="6.56615">
        <ele>1774</ele>
        <time>2013-02-28T09:01:25Z</time>
      </trkpt>
      <trkpt lat="45.54643" lon="6.56599">
        <ele>1780.2</ele>
        <time>2013-02-28T09:01:54Z</time>
      </trkpt>
      <trkpt lat="45.54642" lon="6.56587">
        <ele>1782.2</ele>
        <time>2013-02-28T09:02:07Z</time>
      </trkpt>
      <trkpt lat="45.54642" lon="6.56574">
        <ele>1784.9</ele>
        <time>2013-02-28T09:02:19Z</time>
      </trkpt>
      <trkpt lat="45.54649" lon="6.56568">
        <ele>1787.1</ele>
        <time>2013-02-28T09:03:00Z</time>
      </trkpt>
      <trkpt lat="45.5465" lon="6.56568">
        <ele>1787.4</ele>
        <time>2013-02-28T09:03:01Z</time>
      </trkpt>
      <trkpt lat="45.54666" lon="6.56564">
        <ele>1791.1</ele>
        <time>2013-02-28T09:03:23Z</time>
      </trkpt>
      <trkpt lat="45.54674" lon="6.5656">
        <ele>1793.2</ele>
        <time>2013-02-28T09:03:36Z</time>
      </trkpt>
      <trkpt lat="45.54683" lon="6.56558">
        <ele>1796.9</ele>
        <time>2013-02-28T09:03:49Z</time>
      </trkpt>
      <trkpt lat="45.54692" lon="6.56556">
        <ele>1799.3</ele>
        <time>2013-02-28T09:04:02Z</time>
      </trkpt>
      <trkpt lat="45.54692" lon="6.56556">
        <ele>1799.3</ele>
        <time>2013-02-28T09:04:03Z</time>
      </trkpt>
      <trkpt lat="45.54709" lon="6.56557">
        <ele>1804.5</ele>
        <time>2013-02-28T09:04:30Z</time>
      </trkpt>
      <trkpt lat="45.54717" lon="6.56554">
        <ele>1805.6</ele>
        <time>2013-02-28T09:04:43Z</time>
      </trkpt>
      <trkpt lat="45.54725" lon="6.56547">
        <ele>1809.3</ele>
        <time>2013-02-28T09:04:55Z</time>
      </trkpt>
      <trkpt lat="45.54732" lon="6.56541">
        <ele>1811.5</ele>
        <time>2013-02-28T09:05:07Z</time>
      </trkpt>
      <trkpt lat="45.54733" lon="6.5654">
        <ele>1811.2</ele>
        <time>2013-02-28T09:05:08Z</time>
      </trkpt>
      <trkpt lat="45.54749" lon="6.56534">
        <ele>1815.6</ele>
        <time>2013-02-28T09:05:30Z</time>
      </trkpt>
      <trkpt lat="45.54757" lon="6.56532">
        <ele>1817.5</ele>
        <time>2013-02-28T09:05:43Z</time>
      </trkpt>
      <trkpt lat="45.54765" lon="6.56532">
        <ele>1819.9</ele>
        <time>2013-02-28T09:05:56Z</time>
      </trkpt>
      <trkpt lat="45.54774" lon="6.56532">
        <ele>1821.5</ele>
        <time>2013-02-28T09:06:11Z</time>
      </trkpt>
      <trkpt lat="45.54775" lon="6.56532">
        <ele>1821.7</ele>
        <time>2013-02-28T09:06:12Z</time>
      </trkpt>
      <trkpt lat="45.54792" lon="6.56531">
        <ele>1827.5</ele>
        <time>2013-02-28T09:06:37Z</time>
      </trkpt>
      <trkpt lat="45.548" lon="6.5653">
        <ele>1828.7</ele>
        <time>2013-02-28T09:06:48Z</time>
      </trkpt>
      <trkpt lat="45.54808" lon="6.56525">
        <ele>1830.4</ele>
        <time>2013-02-28T09:07:01Z</time>
      </trkpt>
      <trkpt lat="45.54816" lon="6.5652">
        <ele>1831.7</ele>
        <time>2013-02-28T09:07:14Z</time>
      </trkpt>
      <trkpt lat="45.54817" lon="6.5652">
        <ele>1831.7</ele>
        <time>2013-02-28T09:07:15Z</time>
      </trkpt>
      <trkpt lat="45.54833" lon="6.5651">
        <ele>1837.5</ele>
        <time>2013-02-28T09:07:47Z</time>
      </trkpt>
      <trkpt lat="45.5484" lon="6.56503">
        <ele>1840.8</ele>
        <time>2013-02-28T09:08:01Z</time>
      </trkpt>
      <trkpt lat="45.54849" lon="6.56503">
        <ele>1842.7</ele>
        <time>2013-02-28T09:08:14Z</time>
      </trkpt>
      <trkpt lat="45.54857" lon="6.56501">
        <ele>1844.4</ele>
        <time>2013-02-28T09:08:32Z</time>
      </trkpt>
      <trkpt lat="45.54858" lon="6.565">
        <ele>1844.6</ele>
        <time>2013-02-28T09:08:33Z</time>
      </trkpt>
      <trkpt lat="45.54873" lon="6.56492">
        <ele>1851.8</ele>
        <time>2013-02-28T09:09:08Z</time>
      </trkpt>
      <trkpt lat="45.5488" lon="6.56499">
        <ele>1854.8</ele>
        <time>2013-02-28T09:09:23Z</time>
      </trkpt>
      <trkpt lat="45.54888" lon="6.56505">
        <ele>1857.3</ele>
        <time>2013-02-28T09:09:37Z</time>
      </trkpt>
      <trkpt lat="45.54889" lon="6.56505">
        <ele>1857.5</ele>
        <time>2013-02-28T09:09:38Z</time>
      </trkpt>
      <trkpt lat="45.54903" lon="6.56518">
        <ele>1861.7</ele>
        <time>2013-02-28T09:10:07Z</time>
      </trkpt>
      <trkpt lat="45.54911" lon="6.56523">
        <ele>1864</ele>
        <time>2013-02-28T09:10:23Z</time>
      </trkpt>
      <trkpt lat="45.54919" lon="6.56527">
        <ele>1866.3</ele>
        <time>2013-02-28T09:10:36Z</time>
      </trkpt>
      <trkpt lat="45.54927" lon="6.56532">
        <ele>1868.8</ele>
        <time>2013-02-28T09:10:49Z</time>
      </trkpt>
      <trkpt lat="45.54928" lon="6.56532">
        <ele>1868.8</ele>
        <time>2013-02-28T09:10:50Z</time>
      </trkpt>
      <trkpt lat="45.54943" lon="6.56542">
        <ele>1873.1</ele>
        <time>2013-02-28T09:11:18Z</time>
      </trkpt>
      <trkpt lat="45.54951" lon="6.56547">
        <ele>1875.1</ele>
        <time>2013-02-28T09:11:33Z</time>
      </trkpt>
      <trkpt lat="45.5496" lon="6.5655">
        <ele>1878.3</ele>
        <time>2013-02-28T09:11:48Z</time>
      </trkpt>
      <trkpt lat="45.54968" lon="6.56552">
        <ele>1880.9</ele>
        <time>2013-02-28T09:12:02Z</time>
      </trkpt>
      <trkpt lat="45.54969" lon="6.56552">
        <ele>1880.7</ele>
        <time>2013-02-28T09:12:03Z</time>
      </trkpt>
      <trkpt lat="45.54984" lon="6.56562">
        <ele>1886</ele>
        <time>2013-02-28T09:12:29Z</time>
      </trkpt>
      <trkpt lat="45.54992" lon="6.56568">
        <ele>1886.9</ele>
        <time>2013-02-28T09:12:42Z</time>
      </trkpt>
      <trkpt lat="45.54999" lon="6.56574">
        <ele>1889.5</ele>
        <time>2013-02-28T09:12:56Z</time>
      </trkpt>
      <trkpt lat="45.55008" lon="6.56578">
        <ele>1891.2</ele>
        <time>2013-02-28T09:13:12Z</time>
      </trkpt>
      <trkpt lat="45.55008" lon="6.56578">
        <ele>1891.3</ele>
        <time>2013-02-28T09:13:13Z</time>
      </trkpt>
      <trkpt lat="45.55023" lon="6.5659">
        <ele>1894.8</ele>
        <time>2013-02-28T09:13:37Z</time>
      </trkpt>
      <trkpt lat="45.55029" lon="6.56598">
        <ele>1897.6</ele>
        <time>2013-02-28T09:13:50Z</time>
      </trkpt>
      <trkpt lat="45.55035" lon="6.56606">
        <ele>1900</ele>
        <time>2013-02-28T09:14:02Z</time>
      </trkpt>
      <trkpt lat="45.55041" lon="6.56616">
        <ele>1901.5</ele>
        <time>2013-02-28T09:14:14Z</time>
      </trkpt>
      <trkpt lat="45.55041" lon="6.56616">
        <ele>1901.2</ele>
        <time>2013-02-28T09:14:15Z</time>
      </trkpt>
      <trkpt lat="45.55051" lon="6.56636">
        <ele>1906.7</ele>
        <time>2013-02-28T09:14:42Z</time>
      </trkpt>
      <trkpt lat="45.55058" lon="6.56629">
        <ele>1909.7</ele>
        <time>2013-02-28T09:14:58Z</time>
      </trkpt>
      <trkpt lat="45.55062" lon="6.56618">
        <ele>1911.8</ele>
        <time>2013-02-28T09:15:10Z</time>
      </trkpt>
      <trkpt lat="45.55064" lon="6.56606">
        <ele>1914.1</ele>
        <time>2013-02-28T09:15:22Z</time>
      </trkpt>
      <trkpt lat="45.55064" lon="6.56605">
        <ele>1914.5</ele>
        <time>2013-02-28T09:15:23Z</time>
      </trkpt>
      <trkpt lat="45.55069" lon="6.56583">
        <ele>1918.6</ele>
        <time>2013-02-28T09:15:47Z</time>
      </trkpt>
      <trkpt lat="45.55069" lon="6.5657">
        <ele>1921.5</ele>
        <time>2013-02-28T09:16:02Z</time>
      </trkpt>
      <trkpt lat="45.5507" lon="6.56557">
        <ele>1923.4</ele>
        <time>2013-02-28T09:16:16Z</time>
      </trkpt>
      <trkpt lat="45.55069" lon="6.56545">
        <ele>1924.6</ele>
        <time>2013-02-28T09:16:29Z</time>
      </trkpt>
      <trkpt lat="45.55069" lon="6.56544">
        <ele>1924.7</ele>
        <time>2013-02-28T09:16:30Z</time>
      </trkpt>
      <trkpt lat="45.55071" lon="6.56521">
        <ele>1928.9</ele>
        <time>2013-02-28T09:17:00Z</time>
      </trkpt>
      <trkpt lat="45.55079" lon="6.56515">
        <ele>1933.5</ele>
        <time>2013-02-28T09:17:30Z</time>
      </trkpt>
      <trkpt lat="45.55079" lon="6.56515">
        <ele>1933.7</ele>
        <time>2013-02-28T09:17:31Z</time>
      </trkpt>
      <trkpt lat="45.55095" lon="6.56523">
        <ele>1939.6</ele>
        <time>2013-02-28T09:18:00Z</time>
      </trkpt>
      <trkpt lat="45.55104" lon="6.56527">
        <ele>1942.3</ele>
        <time>2013-02-28T09:18:14Z</time>
      </trkpt>
      <trkpt lat="45.55112" lon="6.56531">
        <ele>1944.9</ele>
        <time>2013-02-28T09:18:30Z</time>
      </trkpt>
      <trkpt lat="45.5512" lon="6.56535">
        <ele>1946.4</ele>
        <time>2013-02-28T09:18:46Z</time>
      </trkpt>
      <trkpt lat="45.55121" lon="6.56535">
        <ele>1946.7</ele>
        <time>2013-02-28T09:18:47Z</time>
      </trkpt>
      <trkpt lat="45.55137" lon="6.56544">
        <ele>1952.7</ele>
        <time>2013-02-28T09:19:20Z</time>
      </trkpt>
      <trkpt lat="45.55144" lon="6.56549">
        <ele>1955.3</ele>
        <time>2013-02-28T09:19:37Z</time>
      </trkpt>
      <trkpt lat="45.55152" lon="6.56555">
        <ele>1958.8</ele>
        <time>2013-02-28T09:19:52Z</time>
      </trkpt>
      <trkpt lat="45.55153" lon="6.56555">
        <ele>1958.9</ele>
        <time>2013-02-28T09:19:53Z</time>
      </trkpt>
      <trkpt lat="45.55169" lon="6.56562">
        <ele>1964.6</ele>
        <time>2013-02-28T09:20:23Z</time>
      </trkpt>
      <trkpt lat="45.55178" lon="6.56562">
        <ele>1967.2</ele>
        <time>2013-02-28T09:20:39Z</time>
      </trkpt>
      <trkpt lat="45.55186" lon="6.56558">
        <ele>1966.8</ele>
        <time>2013-02-28T09:25:17Z</time>
      </trkpt>
      <trkpt lat="45.55186" lon="6.56558">
        <ele>1967.4</ele>
        <time>2013-02-28T09:25:18Z</time>
      </trkpt>
      <trkpt lat="45.55195" lon="6.56555">
        <ele>1971.2</ele>
        <time>2013-02-28T09:27:37Z</time>
      </trkpt>
      <trkpt lat="45.55212" lon="6.56551">
        <ele>1975.4</ele>
        <time>2013-02-28T09:28:06Z</time>
      </trkpt>
      <trkpt lat="45.5522" lon="6.56547">
        <ele>1977.6</ele>
        <time>2013-02-28T09:28:20Z</time>
      </trkpt>
      <trkpt lat="45.55227" lon="6.56542">
        <ele>1980.4</ele>
        <time>2013-02-28T09:28:33Z</time>
      </trkpt>
      <trkpt lat="45.55235" lon="6.56537">
        <ele>1982.6</ele>
        <time>2013-02-28T09:28:47Z</time>
      </trkpt>
      <trkpt lat="45.55236" lon="6.56537">
        <ele>1982.6</ele>
        <time>2013-02-28T09:28:48Z</time>
      </trkpt>
      <trkpt lat="45.5525" lon="6.56524">
        <ele>1988</ele>
        <time>2013-02-28T09:29:15Z</time>
      </trkpt>
      <trkpt lat="45.55259" lon="6.56523">
        <ele>1990</ele>
        <time>2013-02-28T09:29:30Z</time>
      </trkpt>
      <trkpt lat="45.55268" lon="6.56525">
        <ele>1992.8</ele>
        <time>2013-02-28T09:29:44Z</time>
      </trkpt>
      <trkpt lat="45.55276" lon="6.5653">
        <ele>1994.5</ele>
        <time>2013-02-28T09:29:58Z</time>
      </trkpt>
      <trkpt lat="45.55276" lon="6.5653">
        <ele>1994.8</ele>
        <time>2013-02-28T09:29:59Z</time>
      </trkpt>
      <trkpt lat="45.55293" lon="6.56533">
        <ele>1999.7</ele>
        <time>2013-02-28T09:30:26Z</time>
      </trkpt>
      <trkpt lat="45.55301" lon="6.56538">
        <ele>2001.6</ele>
        <time>2013-02-28T09:30:41Z</time>
      </trkpt>
      <trkpt lat="45.5531" lon="6.56539">
        <ele>2003.3</ele>
        <time>2013-02-28T09:30:55Z</time>
      </trkpt>
      <trkpt lat="45.55318" lon="6.5654">
        <ele>2007</ele>
        <time>2013-02-28T09:31:11Z</time>
      </trkpt>
      <trkpt lat="45.55319" lon="6.5654">
        <ele>2007.4</ele>
        <time>2013-02-28T09:31:12Z</time>
      </trkpt>
      <trkpt lat="45.55335" lon="6.56549">
        <ele>2011.1</ele>
        <time>2013-02-28T09:31:46Z</time>
      </trkpt>
      <trkpt lat="45.55343" lon="6.56554">
        <ele>2015.2</ele>
        <time>2013-02-28T09:32:04Z</time>
      </trkpt>
      <trkpt lat="45.55351" lon="6.56555">
        <ele>2017.8</ele>
        <time>2013-02-28T09:32:18Z</time>
      </trkpt>
      <trkpt lat="45.55352" lon="6.56555">
        <ele>2017.9</ele>
        <time>2013-02-28T09:32:19Z</time>
      </trkpt>
      <trkpt lat="45.55366" lon="6.56545">
        <ele>2021.3</ele>
        <time>2013-02-28T09:32:48Z</time>
      </trkpt>
      <trkpt lat="45.55374" lon="6.56538">
        <ele>2024.4</ele>
        <time>2013-02-28T09:33:03Z</time>
      </trkpt>
      <trkpt lat="45.55381" lon="6.56531">
        <ele>2026.5</ele>
        <time>2013-02-28T09:33:18Z</time>
      </trkpt>
      <trkpt lat="45.55388" lon="6.56524">
        <ele>2027.6</ele>
        <time>2013-02-28T09:33:33Z</time>
      </trkpt>
      <trkpt lat="45.55388" lon="6.56524">
        <ele>2028</ele>
        <time>2013-02-28T09:33:34Z</time>
      </trkpt>
      <trkpt lat="45.55403" lon="6.56512">
        <ele>2032.4</ele>
        <time>2013-02-28T09:34:04Z</time>
      </trkpt>
      <trkpt lat="45.55411" lon="6.56507">
        <ele>2034.7</ele>
        <time>2013-02-28T09:34:18Z</time>
      </trkpt>
      <trkpt lat="45.55419" lon="6.56502">
        <ele>2036.4</ele>
        <time>2013-02-28T09:34:33Z</time>
      </trkpt>
      <trkpt lat="45.55427" lon="6.56497">
        <ele>2039.5</ele>
        <time>2013-02-28T09:34:45Z</time>
      </trkpt>
      <trkpt lat="45.55427" lon="6.56496">
        <ele>2039.9</ele>
        <time>2013-02-28T09:34:46Z</time>
      </trkpt>
      <trkpt lat="45.55444" lon="6.5649">
        <ele>2043.1</ele>
        <time>2013-02-28T09:35:16Z</time>
      </trkpt>
      <trkpt lat="45.55449" lon="6.5648">
        <ele>2047.2</ele>
        <time>2013-02-28T09:35:33Z</time>
      </trkpt>
      <trkpt lat="45.55453" lon="6.56468">
        <ele>2048.7</ele>
        <time>2013-02-28T09:35:50Z</time>
      </trkpt>
      <trkpt lat="45.55453" lon="6.56468">
        <ele>2048.9</ele>
        <time>2013-02-28T09:35:51Z</time>
      </trkpt>
      <trkpt lat="45.55464" lon="6.56461">
        <ele>2055.4</ele>
        <time>2013-02-28T09:36:28Z</time>
      </trkpt>
      <trkpt lat="45.55471" lon="6.56469">
        <ele>2057.1</ele>
        <time>2013-02-28T09:36:41Z</time>
      </trkpt>
      <trkpt lat="45.55477" lon="6.56477">
        <ele>2058.6</ele>
        <time>2013-02-28T09:36:53Z</time>
      </trkpt>
      <trkpt lat="45.55478" lon="6.56477">
        <ele>2058.6</ele>
        <time>2013-02-28T09:36:54Z</time>
      </trkpt>
      <trkpt lat="45.5549" lon="6.56493">
        <ele>2065</ele>
        <time>2013-02-28T09:37:21Z</time>
      </trkpt>
      <trkpt lat="45.55496" lon="6.56501">
        <ele>2066.5</ele>
        <time>2013-02-28T09:37:35Z</time>
      </trkpt>
      <trkpt lat="45.55503" lon="6.56508">
        <ele>2067.9</ele>
        <time>2013-02-28T09:37:49Z</time>
      </trkpt>
      <trkpt lat="45.55509" lon="6.56517">
        <ele>2072.1</ele>
        <time>2013-02-28T09:38:06Z</time>
      </trkpt>
      <trkpt lat="45.5551" lon="6.56518">
        <ele>2072.2</ele>
        <time>2013-02-28T09:38:07Z</time>
      </trkpt>
      <trkpt lat="45.5552" lon="6.56537">
        <ele>2076.7</ele>
        <time>2013-02-28T09:38:39Z</time>
      </trkpt>
      <trkpt lat="45.55526" lon="6.56547">
        <ele>2080.8</ele>
        <time>2013-02-28T09:38:59Z</time>
      </trkpt>
      <trkpt lat="45.55531" lon="6.56556">
        <ele>2084.4</ele>
        <time>2013-02-28T09:39:17Z</time>
      </trkpt>
      <trkpt lat="45.55532" lon="6.56556">
        <ele>2084.4</ele>
        <time>2013-02-28T09:39:18Z</time>
      </trkpt>
      <trkpt lat="45.55544" lon="6.56572">
        <ele>2088.9</ele>
        <time>2013-02-28T09:39:45Z</time>
      </trkpt>
      <trkpt lat="45.55551" lon="6.56579">
        <ele>2090.9</ele>
        <time>2013-02-28T09:39:58Z</time>
      </trkpt>
      <trkpt lat="45.55559" lon="6.56584">
        <ele>2093.8</ele>
        <time>2013-02-28T09:40:13Z</time>
      </trkpt>
      <trkpt lat="45.55568" lon="6.56585">
        <ele>2096.8</ele>
        <time>2013-02-28T09:40:30Z</time>
      </trkpt>
      <trkpt lat="45.55568" lon="6.56585">
        <ele>2097.2</ele>
        <time>2013-02-28T09:40:31Z</time>
      </trkpt>
      <trkpt lat="45.55583" lon="6.56596">
        <ele>2100.8</ele>
        <time>2013-02-28T09:41:01Z</time>
      </trkpt>
      <trkpt lat="45.55592" lon="6.56596">
        <ele>2106</ele>
        <time>2013-02-28T09:41:26Z</time>
      </trkpt>
      <trkpt lat="45.55596" lon="6.56585">
        <ele>2108.7</ele>
        <time>2013-02-28T09:41:42Z</time>
      </trkpt>
      <trkpt lat="45.55597" lon="6.56584">
        <ele>2109</ele>
        <time>2013-02-28T09:41:43Z</time>
      </trkpt>
      <trkpt lat="45.5561" lon="6.56583">
        <ele>2113.6</ele>
        <time>2013-02-28T09:46:18Z</time>
      </trkpt>
      <trkpt lat="45.55611" lon="6.56584">
        <ele>2113.5</ele>
        <time>2013-02-28T09:46:19Z</time>
      </trkpt>
      <trkpt lat="45.55618" lon="6.56605">
        <ele>2115.2</ele>
        <time>2013-02-28T09:46:40Z</time>
      </trkpt>
      <trkpt lat="45.55624" lon="6.56614">
        <ele>2117.3</ele>
        <time>2013-02-28T09:46:53Z</time>
      </trkpt>
      <trkpt lat="45.55631" lon="6.56622">
        <ele>2120.1</ele>
        <time>2013-02-28T09:47:07Z</time>
      </trkpt>
      <trkpt lat="45.55638" lon="6.5663">
        <ele>2121.7</ele>
        <time>2013-02-28T09:47:23Z</time>
      </trkpt>
      <trkpt lat="45.55638" lon="6.56631">
        <ele>2121.9</ele>
        <time>2013-02-28T09:47:24Z</time>
      </trkpt>
      <trkpt lat="45.55652" lon="6.56643">
        <ele>2126.3</ele>
        <time>2013-02-28T09:47:56Z</time>
      </trkpt>
      <trkpt lat="45.55657" lon="6.56633">
        <ele>2131.3</ele>
        <time>2013-02-28T09:48:17Z</time>
      </trkpt>
      <trkpt lat="45.5566" lon="6.56621">
        <ele>2135.7</ele>
        <time>2013-02-28T09:48:33Z</time>
      </trkpt>
      <trkpt lat="45.5566" lon="6.56621">
        <ele>2136.1</ele>
        <time>2013-02-28T09:48:34Z</time>
      </trkpt>
      <trkpt lat="45.55673" lon="6.56612">
        <ele>2142.5</ele>
        <time>2013-02-28T09:49:17Z</time>
      </trkpt>
      <trkpt lat="45.55677" lon="6.56602">
        <ele>2145.7</ele>
        <time>2013-02-28T09:49:32Z</time>
      </trkpt>
      <trkpt lat="45.55683" lon="6.56593">
        <ele>2147.2</ele>
        <time>2013-02-28T09:49:45Z</time>
      </trkpt>
      <trkpt lat="45.55683" lon="6.56593">
        <ele>2147.4</ele>
        <time>2013-02-28T09:49:46Z</time>
      </trkpt>
      <trkpt lat="45.55697" lon="6.56578">
        <ele>2149.2</ele>
        <time>2013-02-28T09:50:09Z</time>
      </trkpt>
      <trkpt lat="45.55704" lon="6.56571">
        <ele>2149.7</ele>
        <time>2013-02-28T09:50:21Z</time>
      </trkpt>
      <trkpt lat="45.55712" lon="6.56565">
        <ele>2151.6</ele>
        <time>2013-02-28T09:50:33Z</time>
      </trkpt>
      <trkpt lat="45.55718" lon="6.56556">
        <ele>2154.4</ele>
        <time>2013-02-28T09:50:45Z</time>
      </trkpt>
      <trkpt lat="45.55724" lon="6.56547">
        <ele>2155.6</ele>
        <time>2013-02-28T09:50:57Z</time>
      </trkpt>
      <trkpt lat="45.55725" lon="6.56546">
        <ele>2155.7</ele>
        <time>2013-02-28T09:50:58Z</time>
      </trkpt>
      <trkpt lat="45.55735" lon="6.56529">
        <ele>2158.5</ele>
        <time>2013-02-28T09:51:20Z</time>
      </trkpt>
      <trkpt lat="45.55741" lon="6.56519">
        <ele>2161.1</ele>
        <time>2013-02-28T09:51:32Z</time>
      </trkpt>
      <trkpt lat="45.55748" lon="6.56512">
        <ele>2162.3</ele>
        <time>2013-02-28T09:51:43Z</time>
      </trkpt>
      <trkpt lat="45.55753" lon="6.56503">
        <ele>2164.4</ele>
        <time>2013-02-28T09:51:55Z</time>
      </trkpt>
      <trkpt lat="45.5576" lon="6.56496">
        <ele>2165.3</ele>
        <time>2013-02-28T09:52:06Z</time>
      </trkpt>
      <trkpt lat="45.55761" lon="6.56495">
        <ele>2165.2</ele>
        <time>2013-02-28T09:52:07Z</time>
      </trkpt>
      <trkpt lat="45.55776" lon="6.56483">
        <ele>2166.6</ele>
        <time>2013-02-28T09:52:28Z</time>
      </trkpt>
      <trkpt lat="45.55784" lon="6.5648">
        <ele>2166.4</ele>
        <time>2013-02-28T09:52:38Z</time>
      </trkpt>
      <trkpt lat="45.55793" lon="6.5648">
        <ele>2166.7</ele>
        <time>2013-02-28T09:53:39Z</time>
      </trkpt>
      <trkpt lat="45.55794" lon="6.56481">
        <ele>2166.3</ele>
        <time>2013-02-28T09:53:40Z</time>
      </trkpt>
      <trkpt lat="45.5581" lon="6.56482">
        <ele>2166.4</ele>
        <time>2013-02-28T09:54:15Z</time>
      </trkpt>
      <trkpt lat="45.55818" lon="6.56483">
        <ele>2166.9</ele>
        <time>2013-02-28T09:54:25Z</time>
      </trkpt>
      <trkpt lat="45.55827" lon="6.56484">
        <ele>2166</ele>
        <time>2013-02-28T09:54:35Z</time>
      </trkpt>
      <trkpt lat="45.55835" lon="6.56486">
        <ele>2164.5</ele>
        <time>2013-02-28T09:54:45Z</time>
      </trkpt>
      <trkpt lat="45.55836" lon="6.56487">
        <ele>2164.2</ele>
        <time>2013-02-28T09:54:46Z</time>
      </trkpt>
      <trkpt lat="45.55852" lon="6.56489">
        <ele>2162.7</ele>
        <time>2013-02-28T09:55:03Z</time>
      </trkpt>
      <trkpt lat="45.55861" lon="6.56492">
        <ele>2160.9</ele>
        <time>2013-02-28T09:55:12Z</time>
      </trkpt>
      <trkpt lat="45.55869" lon="6.56494">
        <ele>2160.6</ele>
        <time>2013-02-28T09:55:20Z</time>
      </trkpt>
      <trkpt lat="45.55877" lon="6.56496">
        <ele>2160.4</ele>
        <time>2013-02-28T09:55:28Z</time>
      </trkpt>
      <trkpt lat="45.55885" lon="6.56497">
        <ele>2160.7</ele>
        <time>2013-02-28T09:55:37Z</time>
      </trkpt>
      <trkpt lat="45.55894" lon="6.56497">
        <ele>2160.5</ele>
        <time>2013-02-28T09:55:46Z</time>
      </trkpt>
      <trkpt lat="45.55895" lon="6.56498">
        <ele>2160.5</ele>
        <time>2013-02-28T09:55:47Z</time>
      </trkpt>
      <trkpt lat="45.55911" lon="6.565">
        <ele>2159.4</ele>
        <time>2013-02-28T09:56:05Z</time>
      </trkpt>
      <trkpt lat="45.55919" lon="6.56503">
        <ele>2161</ele>
        <time>2013-02-28T09:56:16Z</time>
      </trkpt>
      <trkpt lat="45.55927" lon="6.56498">
        <ele>2164.5</ele>
        <time>2013-02-28T09:56:51Z</time>
      </trkpt>
      <trkpt lat="45.55927" lon="6.56497">
        <ele>2164.7</ele>
        <time>2013-02-28T09:56:52Z</time>
      </trkpt>
      <trkpt lat="45.55927" lon="6.56474">
        <ele>2169.3</ele>
        <time>2013-02-28T09:57:18Z</time>
      </trkpt>
      <trkpt lat="45.55928" lon="6.56461">
        <ele>2170.6</ele>
        <time>2013-02-28T09:57:31Z</time>
      </trkpt>
      <trkpt lat="45.55927" lon="6.56449">
        <ele>2173.7</ele>
        <time>2013-02-28T09:57:48Z</time>
      </trkpt>
      <trkpt lat="45.55925" lon="6.56436">
        <ele>2177.5</ele>
        <time>2013-02-28T09:58:10Z</time>
      </trkpt>
      <trkpt lat="45.55925" lon="6.56436">
        <ele>2177.5</ele>
        <time>2013-02-28T09:58:11Z</time>
      </trkpt>
      <trkpt lat="45.55921" lon="6.56412">
        <ele>2184.3</ele>
        <time>2013-02-28T09:58:50Z</time>
      </trkpt>
      <trkpt lat="45.55921" lon="6.564">
        <ele>2187.4</ele>
        <time>2013-02-28T09:59:08Z</time>
      </trkpt>
      <trkpt lat="45.55921" lon="6.56387">
        <ele>2191.5</ele>
        <time>2013-02-28T09:59:26Z</time>
      </trkpt>
      <trkpt lat="45.55921" lon="6.56386">
        <ele>2191.9</ele>
        <time>2013-02-28T09:59:27Z</time>
      </trkpt>
      <trkpt lat="45.55926" lon="6.56364">
        <ele>2195.7</ele>
        <time>2013-02-28T09:59:59Z</time>
      </trkpt>
      <trkpt lat="45.55928" lon="6.56352">
        <ele>2199.2</ele>
        <time>2013-02-28T10:00:15Z</time>
      </trkpt>
      <trkpt lat="45.55931" lon="6.5634">
        <ele>2201.5</ele>
        <time>2013-02-28T10:00:31Z</time>
      </trkpt>
      <trkpt lat="45.55931" lon="6.56339">
        <ele>2202</ele>
        <time>2013-02-28T10:00:32Z</time>
      </trkpt>
      <trkpt lat="45.55936" lon="6.56317">
        <ele>2210.1</ele>
        <time>2013-02-28T10:01:05Z</time>
      </trkpt>
      <trkpt lat="45.55939" lon="6.56305">
        <ele>2212.5</ele>
        <time>2013-02-28T10:01:21Z</time>
      </trkpt>
      <trkpt lat="45.55941" lon="6.56292">
        <ele>2216.1</ele>
        <time>2013-02-28T10:01:37Z</time>
      </trkpt>
      <trkpt lat="45.55941" lon="6.56292">
        <ele>2216</ele>
        <time>2013-02-28T10:01:38Z</time>
      </trkpt>
      <trkpt lat="45.55947" lon="6.56269">
        <ele>2223.4</ele>
        <time>2013-02-28T10:02:12Z</time>
      </trkpt>
      <trkpt lat="45.55955" lon="6.56273">
        <ele>2225.5</ele>
        <time>2013-02-28T10:02:31Z</time>
      </trkpt>
      <trkpt lat="45.55961" lon="6.56282">
        <ele>2227.9</ele>
        <time>2013-02-28T10:03:00Z</time>
      </trkpt>
      <trkpt lat="45.55961" lon="6.56283">
        <ele>2227.9</ele>
        <time>2013-02-28T10:03:01Z</time>
      </trkpt>
      <trkpt lat="45.55974" lon="6.563">
        <ele>2232.8</ele>
        <time>2013-02-28T10:03:29Z</time>
      </trkpt>
      <trkpt lat="45.55981" lon="6.56307">
        <ele>2236.6</ele>
        <time>2013-02-28T10:03:43Z</time>
      </trkpt>
      <trkpt lat="45.55987" lon="6.56316">
        <ele>2238.2</ele>
        <time>2013-02-28T10:03:59Z</time>
      </trkpt>
      <trkpt lat="45.55993" lon="6.56325">
        <ele>2240.8</ele>
        <time>2013-02-28T10:04:15Z</time>
      </trkpt>
      <trkpt lat="45.55993" lon="6.56325">
        <ele>2240.8</ele>
        <time>2013-02-28T10:04:16Z</time>
      </trkpt>
      <trkpt lat="45.56008" lon="6.56338">
        <ele>2246.8</ele>
        <time>2013-02-28T10:04:50Z</time>
      </trkpt>
      <trkpt lat="45.56015" lon="6.56345">
        <ele>2250.1</ele>
        <time>2013-02-28T10:05:08Z</time>
      </trkpt>
      <trkpt lat="45.56022" lon="6.56352">
        <ele>2254.2</ele>
        <time>2013-02-28T10:05:24Z</time>
      </trkpt>
      <trkpt lat="45.56023" lon="6.56352">
        <ele>2254.3</ele>
        <time>2013-02-28T10:05:25Z</time>
      </trkpt>
      <trkpt lat="45.56033" lon="6.56346">
        <ele>2261.3</ele>
        <time>2013-02-28T10:06:20Z</time>
      </trkpt>
      <trkpt lat="45.56037" lon="6.56335">
        <ele>2263.1</ele>
        <time>2013-02-28T10:06:37Z</time>
      </trkpt>
      <trkpt lat="45.56037" lon="6.56335">
        <ele>2263.5</ele>
        <time>2013-02-28T10:06:38Z</time>
      </trkpt>
      <trkpt lat="45.56045" lon="6.56314">
        <ele>2267.2</ele>
        <time>2013-02-28T10:07:06Z</time>
      </trkpt>
      <trkpt lat="45.56053" lon="6.56308">
        <ele>2269.4</ele>
        <time>2013-02-28T10:07:24Z</time>
      </trkpt>
      <trkpt lat="45.56061" lon="6.56304">
        <ele>2272.1</ele>
        <time>2013-02-28T10:07:39Z</time>
      </trkpt>
      <trkpt lat="45.56061" lon="6.56303">
        <ele>2272.5</ele>
        <time>2013-02-28T10:07:40Z</time>
      </trkpt>
      <trkpt lat="45.56071" lon="6.56283">
        <ele>2275.8</ele>
        <time>2013-02-28T10:10:41Z</time>
      </trkpt>
      <trkpt lat="45.56071" lon="6.56282">
        <ele>2276.3</ele>
        <time>2013-02-28T10:10:42Z</time>
      </trkpt>
      <trkpt lat="45.56075" lon="6.56259">
        <ele>2281.3</ele>
        <time>2013-02-28T10:11:10Z</time>
      </trkpt>
      <trkpt lat="45.56078" lon="6.56247">
        <ele>2284</ele>
        <time>2013-02-28T10:11:23Z</time>
      </trkpt>
      <trkpt lat="45.56082" lon="6.56236">
        <ele>2285.2</ele>
        <time>2013-02-28T10:11:39Z</time>
      </trkpt>
      <trkpt lat="45.56085" lon="6.56223">
        <ele>2287.8</ele>
        <time>2013-02-28T10:12:04Z</time>
      </trkpt>
      <trkpt lat="45.56085" lon="6.56223">
        <ele>2288.3</ele>
        <time>2013-02-28T10:12:05Z</time>
      </trkpt>
      <trkpt lat="45.56086" lon="6.56219">
        <ele>2280.9</ele>
        <time>2013-02-28T10:36:26Z</time>
      </trkpt>
      <trkpt lat="45.56084" lon="6.56218">
        <ele>2280.5</ele>
        <time>2013-02-28T10:36:27Z</time>
      </trkpt>
      <trkpt lat="45.56071" lon="6.56209">
        <ele>2276.2</ele>
        <time>2013-02-28T10:36:47Z</time>
      </trkpt>
      <trkpt lat="45.56065" lon="6.56204">
        <ele>2272.4</ele>
        <time>2013-02-28T10:36:52Z</time>
      </trkpt>
      <trkpt lat="45.56058" lon="6.56198">
        <ele>2269</ele>
        <time>2013-02-28T10:36:57Z</time>
      </trkpt>
      <trkpt lat="45.56054" lon="6.56187">
        <ele>2263.5</ele>
        <time>2013-02-28T10:37:04Z</time>
      </trkpt>
      <trkpt lat="45.56046" lon="6.56185">
        <ele>2260.7</ele>
        <time>2013-02-28T10:37:18Z</time>
      </trkpt>
      <trkpt lat="45.56038" lon="6.5618">
        <ele>2258.2</ele>
        <time>2013-02-28T10:37:22Z</time>
      </trkpt>
      <trkpt lat="45.56036" lon="6.5617">
        <ele>2255</ele>
        <time>2013-02-28T10:37:26Z</time>
      </trkpt>
      <trkpt lat="45.56032" lon="6.56161">
        <ele>2252.6</ele>
        <time>2013-02-28T10:38:27Z</time>
      </trkpt>
      <trkpt lat="45.56031" lon="6.56157">
        <ele>2251.7</ele>
        <time>2013-02-28T10:38:28Z</time>
      </trkpt>
      <trkpt lat="45.56021" lon="6.56142">
        <ele>2246.8</ele>
        <time>2013-02-28T10:38:36Z</time>
      </trkpt>
      <trkpt lat="45.56013" lon="6.5614">
        <ele>2242.8</ele>
        <time>2013-02-28T10:38:43Z</time>
      </trkpt>
      <trkpt lat="45.56011" lon="6.56128">
        <ele>2244</ele>
        <time>2013-02-28T10:38:47Z</time>
      </trkpt>
      <trkpt lat="45.56007" lon="6.56118">
        <ele>2239.1</ele>
        <time>2013-02-28T10:38:52Z</time>
      </trkpt>
      <trkpt lat="45.56" lon="6.56112">
        <ele>2238.2</ele>
        <time>2013-02-28T10:38:55Z</time>
      </trkpt>
      <trkpt lat="45.55993" lon="6.56108">
        <ele>2237.3</ele>
        <time>2013-02-28T10:38:57Z</time>
      </trkpt>
      <trkpt lat="45.55986" lon="6.56103">
        <ele>2236.6</ele>
        <time>2013-02-28T10:38:59Z</time>
      </trkpt>
      <trkpt lat="45.55979" lon="6.56099">
        <ele>2236.1</ele>
        <time>2013-02-28T10:39:01Z</time>
      </trkpt>
      <trkpt lat="45.55978" lon="6.56087">
        <ele>2234.5</ele>
        <time>2013-02-28T10:39:05Z</time>
      </trkpt>
      <trkpt lat="45.55973" lon="6.56078">
        <ele>2230.3</ele>
        <time>2013-02-28T10:39:09Z</time>
      </trkpt>
      <trkpt lat="45.55973" lon="6.56066">
        <ele>2227</ele>
        <time>2013-02-28T10:39:12Z</time>
      </trkpt>
      <trkpt lat="45.55966" lon="6.56058">
        <ele>2222.5</ele>
        <time>2013-02-28T10:39:16Z</time>
      </trkpt>
      <trkpt lat="45.55962" lon="6.56049">
        <ele>2221</ele>
        <time>2013-02-28T10:39:18Z</time>
      </trkpt>
      <trkpt lat="45.55956" lon="6.56041">
        <ele>2219.9</ele>
        <time>2013-02-28T10:39:20Z</time>
      </trkpt>
      <trkpt lat="45.55952" lon="6.56034">
        <ele>2219.6</ele>
        <time>2013-02-28T10:39:22Z</time>
      </trkpt>
      <trkpt lat="45.55948" lon="6.56026">
        <ele>2219.5</ele>
        <time>2013-02-28T10:39:24Z</time>
      </trkpt>
      <trkpt lat="45.5594" lon="6.56021">
        <ele>2216.4</ele>
        <time>2013-02-28T10:39:27Z</time>
      </trkpt>
      <trkpt lat="45.55932" lon="6.56015">
        <ele>2214.3</ele>
        <time>2013-02-28T10:39:30Z</time>
      </trkpt>
      <trkpt lat="45.5593" lon="6.56014">
        <ele>2213.9</ele>
        <time>2013-02-28T10:39:31Z</time>
      </trkpt>
      <trkpt lat="45.55918" lon="6.56004">
        <ele>2209.3</ele>
        <time>2013-02-28T10:39:36Z</time>
      </trkpt>
      <trkpt lat="45.55912" lon="6.56002">
        <ele>2207.9</ele>
        <time>2013-02-28T10:39:38Z</time>
      </trkpt>
      <trkpt lat="45.55906" lon="6.56">
        <ele>2206.5</ele>
        <time>2013-02-28T10:39:40Z</time>
      </trkpt>
      <trkpt lat="45.55899" lon="6.55999">
        <ele>2205.1</ele>
        <time>2013-02-28T10:39:42Z</time>
      </trkpt>
      <trkpt lat="45.55893" lon="6.55995">
        <ele>2204.1</ele>
        <time>2013-02-28T10:39:44Z</time>
      </trkpt>
      <trkpt lat="45.5589" lon="6.55987">
        <ele>2203.3</ele>
        <time>2013-02-28T10:39:46Z</time>
      </trkpt>
      <trkpt lat="45.55888" lon="6.55976">
        <ele>2202.4</ele>
        <time>2013-02-28T10:39:48Z</time>
      </trkpt>
      <trkpt lat="45.55888" lon="6.55966">
        <ele>2201.4</ele>
        <time>2013-02-28T10:39:50Z</time>
      </trkpt>
      <trkpt lat="45.55886" lon="6.55955">
        <ele>2199.8</ele>
        <time>2013-02-28T10:39:54Z</time>
      </trkpt>
      <trkpt lat="45.55882" lon="6.55947">
        <ele>2198.6</ele>
        <time>2013-02-28T10:39:57Z</time>
      </trkpt>
      <trkpt lat="45.55874" lon="6.55945">
        <ele>2193.5</ele>
        <time>2013-02-28T10:40:06Z</time>
      </trkpt>
      <trkpt lat="45.55866" lon="6.55951">
        <ele>2192</ele>
        <time>2013-02-28T10:40:12Z</time>
      </trkpt>
      <trkpt lat="45.55861" lon="6.55956">
        <ele>2190.8</ele>
        <time>2013-02-28T10:40:15Z</time>
      </trkpt>
      <trkpt lat="45.55858" lon="6.55965">
        <ele>2189.2</ele>
        <time>2013-02-28T10:40:18Z</time>
      </trkpt>
      <trkpt lat="45.55857" lon="6.55975">
        <ele>2187.1</ele>
        <time>2013-02-28T10:40:21Z</time>
      </trkpt>
      <trkpt lat="45.55855" lon="6.55983">
        <ele>2185.2</ele>
        <time>2013-02-28T10:40:23Z</time>
      </trkpt>
      <trkpt lat="45.55853" lon="6.55992">
        <ele>2185</ele>
        <time>2013-02-28T10:40:25Z</time>
      </trkpt>
      <trkpt lat="45.55852" lon="6.56003">
        <ele>2183</ele>
        <time>2013-02-28T10:40:29Z</time>
      </trkpt>
      <trkpt lat="45.55851" lon="6.56014">
        <ele>2182.5</ele>
        <time>2013-02-28T10:40:34Z</time>
      </trkpt>
      <trkpt lat="45.5585" lon="6.56016">
        <ele>2182.1</ele>
        <time>2013-02-28T10:40:35Z</time>
      </trkpt>
      <trkpt lat="45.5585" lon="6.56037">
        <ele>2180.2</ele>
        <time>2013-02-28T10:40:43Z</time>
      </trkpt>
      <trkpt lat="45.55851" lon="6.56045">
        <ele>2179.4</ele>
        <time>2013-02-28T10:40:45Z</time>
      </trkpt>
      <trkpt lat="45.55854" lon="6.56055">
        <ele>2178.8</ele>
        <time>2013-02-28T10:40:47Z</time>
      </trkpt>
      <trkpt lat="45.55856" lon="6.56064">
        <ele>2177.1</ele>
        <time>2013-02-28T10:40:49Z</time>
      </trkpt>
      <trkpt lat="45.55859" lon="6.56075">
        <ele>2176.4</ele>
        <time>2013-02-28T10:40:52Z</time>
      </trkpt>
      <trkpt lat="45.5586" lon="6.56083">
        <ele>2175.5</ele>
        <time>2013-02-28T10:40:54Z</time>
      </trkpt>
      <trkpt lat="45.55861" lon="6.56095">
        <ele>2174.2</ele>
        <time>2013-02-28T10:40:56Z</time>
      </trkpt>
      <trkpt lat="45.55861" lon="6.56103">
        <ele>2172.9</ele>
        <time>2013-02-28T10:40:57Z</time>
      </trkpt>
      <trkpt lat="45.55862" lon="6.5611">
        <ele>2171.9</ele>
        <time>2013-02-28T10:40:58Z</time>
      </trkpt>
      <trkpt lat="45.55862" lon="6.56117">
        <ele>2171.1</ele>
        <time>2013-02-28T10:40:59Z</time>
      </trkpt>
      <trkpt lat="45.55861" lon="6.56129">
        <ele>2170.1</ele>
        <time>2013-02-28T10:41:01Z</time>
      </trkpt>
      <trkpt lat="45.55858" lon="6.5614">
        <ele>2169.4</ele>
        <time>2013-02-28T10:41:03Z</time>
      </trkpt>
      <trkpt lat="45.55853" lon="6.56149">
        <ele>2169.2</ele>
        <time>2013-02-28T10:41:06Z</time>
      </trkpt>
      <trkpt lat="45.55846" lon="6.56157">
        <ele>2168.9</ele>
        <time>2013-02-28T10:41:09Z</time>
      </trkpt>
      <trkpt lat="45.55842" lon="6.56163">
        <ele>2168.4</ele>
        <time>2013-02-28T10:41:11Z</time>
      </trkpt>
      <trkpt lat="45.55838" lon="6.5617">
        <ele>2167.8</ele>
        <time>2013-02-28T10:41:13Z</time>
      </trkpt>
      <trkpt lat="45.55833" lon="6.56176">
        <ele>2166.9</ele>
        <time>2013-02-28T10:41:15Z</time>
      </trkpt>
      <trkpt lat="45.55828" lon="6.56185">
        <ele>2164.8</ele>
        <time>2013-02-28T10:41:17Z</time>
      </trkpt>
      <trkpt lat="45.55824" lon="6.56196">
        <ele>2162.7</ele>
        <time>2013-02-28T10:41:20Z</time>
      </trkpt>
      <trkpt lat="45.55821" lon="6.56208">
        <ele>2160.3</ele>
        <time>2013-02-28T10:41:25Z</time>
      </trkpt>
      <trkpt lat="45.55813" lon="6.56204">
        <ele>2163</ele>
        <time>2013-02-28T10:41:35Z</time>
      </trkpt>
      <trkpt lat="45.5581" lon="6.56202">
        <ele>2162.9</ele>
        <time>2013-02-28T10:41:36Z</time>
      </trkpt>
      <trkpt lat="45.55799" lon="6.56197">
        <ele>2160.1</ele>
        <time>2013-02-28T10:41:40Z</time>
      </trkpt>
      <trkpt lat="45.55793" lon="6.56193">
        <ele>2159.6</ele>
        <time>2013-02-28T10:41:42Z</time>
      </trkpt>
      <trkpt lat="45.55786" lon="6.56187">
        <ele>2160.3</ele>
        <time>2013-02-28T10:41:45Z</time>
      </trkpt>
      <trkpt lat="45.5578" lon="6.5618">
        <ele>2160.1</ele>
        <time>2013-02-28T10:41:48Z</time>
      </trkpt>
      <trkpt lat="45.55772" lon="6.56173">
        <ele>2158.7</ele>
        <time>2013-02-28T10:41:51Z</time>
      </trkpt>
      <trkpt lat="45.55765" lon="6.56169">
        <ele>2158.7</ele>
        <time>2013-02-28T10:41:55Z</time>
      </trkpt>
      <trkpt lat="45.55759" lon="6.56161">
        <ele>2158</ele>
        <time>2013-02-28T10:41:58Z</time>
      </trkpt>
      <trkpt lat="45.55753" lon="6.56155">
        <ele>2156.4</ele>
        <time>2013-02-28T10:42:00Z</time>
      </trkpt>
      <trkpt lat="45.55746" lon="6.56147">
        <ele>2154.6</ele>
        <time>2013-02-28T10:42:03Z</time>
      </trkpt>
      <trkpt lat="45.55741" lon="6.5614">
        <ele>2153.4</ele>
        <time>2013-02-28T10:42:06Z</time>
      </trkpt>
      <trkpt lat="45.55735" lon="6.56135">
        <ele>2151.6</ele>
        <time>2013-02-28T10:42:09Z</time>
      </trkpt>
      <trkpt lat="45.55729" lon="6.56129">
        <ele>2150.2</ele>
        <time>2013-02-28T10:42:12Z</time>
      </trkpt>
      <trkpt lat="45.55722" lon="6.56121">
        <ele>2148.8</ele>
        <time>2013-02-28T10:42:16Z</time>
      </trkpt>
      <trkpt lat="45.55716" lon="6.56113">
        <ele>2146.8</ele>
        <time>2013-02-28T10:42:21Z</time>
      </trkpt>
      <trkpt lat="45.55713" lon="6.56103">
        <ele>2144.9</ele>
        <time>2013-02-28T10:42:25Z</time>
      </trkpt>
      <trkpt lat="45.55715" lon="6.5609">
        <ele>2144.1</ele>
        <time>2013-02-28T10:42:30Z</time>
      </trkpt>
      <trkpt lat="45.55719" lon="6.5608">
        <ele>2142.7</ele>
        <time>2013-02-28T10:42:32Z</time>
      </trkpt>
      <trkpt lat="45.55723" lon="6.5607">
        <ele>2141</ele>
        <time>2013-02-28T10:42:34Z</time>
      </trkpt>
      <trkpt lat="45.55719" lon="6.5606">
        <ele>2138.7</ele>
        <time>2013-02-28T10:42:38Z</time>
      </trkpt>
      <trkpt lat="45.55717" lon="6.5606">
        <ele>2138.1</ele>
        <time>2013-02-28T10:42:39Z</time>
      </trkpt>
      <trkpt lat="45.55704" lon="6.56059">
        <ele>2135.7</ele>
        <time>2013-02-28T10:42:44Z</time>
      </trkpt>
      <trkpt lat="45.55698" lon="6.56055">
        <ele>2134.6</ele>
        <time>2013-02-28T10:42:46Z</time>
      </trkpt>
      <trkpt lat="45.55693" lon="6.56046">
        <ele>2133.7</ele>
        <time>2013-02-28T10:42:49Z</time>
      </trkpt>
      <trkpt lat="45.55687" lon="6.5604">
        <ele>2132.7</ele>
        <time>2013-02-28T10:42:52Z</time>
      </trkpt>
      <trkpt lat="45.55681" lon="6.56036">
        <ele>2131.3</ele>
        <time>2013-02-28T10:42:54Z</time>
      </trkpt>
      <trkpt lat="45.55674" lon="6.56033">
        <ele>2129.7</ele>
        <time>2013-02-28T10:42:56Z</time>
      </trkpt>
      <trkpt lat="45.5567" lon="6.5603">
        <ele>2129.2</ele>
        <time>2013-02-28T10:42:57Z</time>
      </trkpt>
      <trkpt lat="45.55662" lon="6.56025">
        <ele>2127.4</ele>
        <time>2013-02-28T10:42:59Z</time>
      </trkpt>
      <trkpt lat="45.55655" lon="6.56023">
        <ele>2126.1</ele>
        <time>2013-02-28T10:43:01Z</time>
      </trkpt>
      <trkpt lat="45.55649" lon="6.56018">
        <ele>2124.9</ele>
        <time>2013-02-28T10:43:03Z</time>
      </trkpt>
      <trkpt lat="45.55642" lon="6.56014">
        <ele>2123.4</ele>
        <time>2013-02-28T10:43:05Z</time>
      </trkpt>
      <trkpt lat="45.55634" lon="6.56008">
        <ele>2122.1</ele>
        <time>2013-02-28T10:43:07Z</time>
      </trkpt>
      <trkpt lat="45.5563" lon="6.56">
        <ele>2120.2</ele>
        <time>2013-02-28T10:43:09Z</time>
      </trkpt>
      <trkpt lat="45.55625" lon="6.55994">
        <ele>2118.8</ele>
        <time>2013-02-28T10:43:12Z</time>
      </trkpt>
      <trkpt lat="45.55618" lon="6.5599">
        <ele>2117.4</ele>
        <time>2013-02-28T10:43:14Z</time>
      </trkpt>
      <trkpt lat="45.55611" lon="6.55985">
        <ele>2115.7</ele>
        <time>2013-02-28T10:43:16Z</time>
      </trkpt>
      <trkpt lat="45.55602" lon="6.55982">
        <ele>2114.3</ele>
        <time>2013-02-28T10:43:18Z</time>
      </trkpt>
      <trkpt lat="45.55598" lon="6.5598">
        <ele>2113.8</ele>
        <time>2013-02-28T10:43:19Z</time>
      </trkpt>
      <trkpt lat="45.55593" lon="6.55981">
        <ele>2113.3</ele>
        <time>2013-02-28T10:43:20Z</time>
      </trkpt>
      <trkpt lat="45.55584" lon="6.55979">
        <ele>2112.4</ele>
        <time>2013-02-28T10:43:22Z</time>
      </trkpt>
      <trkpt lat="45.55576" lon="6.55974">
        <ele>2111.5</ele>
        <time>2013-02-28T10:43:24Z</time>
      </trkpt>
      <trkpt lat="45.55568" lon="6.55971">
        <ele>2111</ele>
        <time>2013-02-28T10:43:26Z</time>
      </trkpt>
      <trkpt lat="45.55561" lon="6.55974">
        <ele>2108.6</ele>
        <time>2013-02-28T10:43:28Z</time>
      </trkpt>
      <trkpt lat="45.55555" lon="6.55971">
        <ele>2107.7</ele>
        <time>2013-02-28T10:43:30Z</time>
      </trkpt>
      <trkpt lat="45.55548" lon="6.55971">
        <ele>2106.7</ele>
        <time>2013-02-28T10:43:32Z</time>
      </trkpt>
      <trkpt lat="45.55542" lon="6.55974">
        <ele>2105.2</ele>
        <time>2013-02-28T10:43:34Z</time>
      </trkpt>
      <trkpt lat="45.55534" lon="6.55979">
        <ele>2102.4</ele>
        <time>2013-02-28T10:43:37Z</time>
      </trkpt>
      <trkpt lat="45.55535" lon="6.5599">
        <ele>2101.2</ele>
        <time>2013-02-28T10:43:42Z</time>
      </trkpt>
      <trkpt lat="45.55536" lon="6.55993">
        <ele>2100.6</ele>
        <time>2013-02-28T10:43:43Z</time>
      </trkpt>
      <trkpt lat="45.55543" lon="6.56009">
        <ele>2098.5</ele>
        <time>2013-02-28T10:43:49Z</time>
      </trkpt>
      <trkpt lat="45.55547" lon="6.56018">
        <ele>2096.5</ele>
        <time>2013-02-28T10:43:52Z</time>
      </trkpt>
      <trkpt lat="45.55552" lon="6.56026">
        <ele>2096.1</ele>
        <time>2013-02-28T10:43:55Z</time>
      </trkpt>
      <trkpt lat="45.55558" lon="6.56036">
        <ele>2095.7</ele>
        <time>2013-02-28T10:44:00Z</time>
      </trkpt>
      <trkpt lat="45.55563" lon="6.56045">
        <ele>2094.6</ele>
        <time>2013-02-28T10:44:06Z</time>
      </trkpt>
      <trkpt lat="45.55566" lon="6.56054">
        <ele>2093.8</ele>
        <time>2013-02-28T10:44:09Z</time>
      </trkpt>
      <trkpt lat="45.55571" lon="6.56063">
        <ele>2092.8</ele>
        <time>2013-02-28T10:44:12Z</time>
      </trkpt>
      <trkpt lat="45.55577" lon="6.56073">
        <ele>2093.1</ele>
        <time>2013-02-28T10:44:16Z</time>
      </trkpt>
      <trkpt lat="45.55581" lon="6.56082">
        <ele>2091.8</ele>
        <time>2013-02-28T10:44:19Z</time>
      </trkpt>
      <trkpt lat="45.55585" lon="6.56091">
        <ele>2090.1</ele>
        <time>2013-02-28T10:44:21Z</time>
      </trkpt>
      <trkpt lat="45.55588" lon="6.56101">
        <ele>2088.7</ele>
        <time>2013-02-28T10:44:23Z</time>
      </trkpt>
      <trkpt lat="45.55592" lon="6.56111">
        <ele>2088.4</ele>
        <time>2013-02-28T10:44:26Z</time>
      </trkpt>
      <trkpt lat="45.55583" lon="6.56113">
        <ele>2087.8</ele>
        <time>2013-02-28T10:44:34Z</time>
      </trkpt>
      <trkpt lat="45.55578" lon="6.56121">
        <ele>2085.4</ele>
        <time>2013-02-28T10:44:39Z</time>
      </trkpt>
      <trkpt lat="45.5558" lon="6.5613">
        <ele>2084.4</ele>
        <time>2013-02-28T10:44:42Z</time>
      </trkpt>
      <trkpt lat="45.55581" lon="6.56142">
        <ele>2082.8</ele>
        <time>2013-02-28T10:44:45Z</time>
      </trkpt>
      <trkpt lat="45.5558" lon="6.56147">
        <ele>2082.3</ele>
        <time>2013-02-28T10:44:46Z</time>
      </trkpt>
      <trkpt lat="45.55577" lon="6.56161">
        <ele>2081</ele>
        <time>2013-02-28T10:44:50Z</time>
      </trkpt>
      <trkpt lat="45.55569" lon="6.56166">
        <ele>2080.4</ele>
        <time>2013-02-28T10:44:53Z</time>
      </trkpt>
      <trkpt lat="45.55563" lon="6.56169">
        <ele>2079.7</ele>
        <time>2013-02-28T10:44:55Z</time>
      </trkpt>
      <trkpt lat="45.55556" lon="6.56173">
        <ele>2078.6</ele>
        <time>2013-02-28T10:44:57Z</time>
      </trkpt>
      <trkpt lat="45.55548" lon="6.56176">
        <ele>2077.8</ele>
        <time>2013-02-28T10:44:59Z</time>
      </trkpt>
      <trkpt lat="45.55544" lon="6.56175">
        <ele>2077.7</ele>
        <time>2013-02-28T10:45:00Z</time>
      </trkpt>
      <trkpt lat="45.55539" lon="6.56174">
        <ele>2077.5</ele>
        <time>2013-02-28T10:45:01Z</time>
      </trkpt>
      <trkpt lat="45.55535" lon="6.56174">
        <ele>2076.8</ele>
        <time>2013-02-28T10:45:02Z</time>
      </trkpt>
      <trkpt lat="45.5553" lon="6.56173">
        <ele>2076.2</ele>
        <time>2013-02-28T10:45:03Z</time>
      </trkpt>
      <trkpt lat="45.55525" lon="6.56173">
        <ele>2075.2</ele>
        <time>2013-02-28T10:45:04Z</time>
      </trkpt>
      <trkpt lat="45.5552" lon="6.56172">
        <ele>2074.6</ele>
        <time>2013-02-28T10:45:05Z</time>
      </trkpt>
      <trkpt lat="45.55511" lon="6.56172">
        <ele>2073</ele>
        <time>2013-02-28T10:45:07Z</time>
      </trkpt>
      <trkpt lat="45.55504" lon="6.56173">
        <ele>2071.8</ele>
        <time>2013-02-28T10:45:09Z</time>
      </trkpt>
      <trkpt lat="45.55497" lon="6.56174">
        <ele>2071</ele>
        <time>2013-02-28T10:45:11Z</time>
      </trkpt>
      <trkpt lat="45.55489" lon="6.56175">
        <ele>2070.7</ele>
        <time>2013-02-28T10:45:13Z</time>
      </trkpt>
      <trkpt lat="45.55483" lon="6.56179">
        <ele>2069.9</ele>
        <time>2013-02-28T10:45:15Z</time>
      </trkpt>
      <trkpt lat="45.55475" lon="6.56183">
        <ele>2068.9</ele>
        <time>2013-02-28T10:45:17Z</time>
      </trkpt>
      <trkpt lat="45.55471" lon="6.56187">
        <ele>2067.6</ele>
        <time>2013-02-28T10:45:18Z</time>
      </trkpt>
      <trkpt lat="45.55464" lon="6.56195">
        <ele>2065.8</ele>
        <time>2013-02-28T10:45:20Z</time>
      </trkpt>
      <trkpt lat="45.55459" lon="6.56203">
        <ele>2064.2</ele>
        <time>2013-02-28T10:45:22Z</time>
      </trkpt>
      <trkpt lat="45.55455" lon="6.5621">
        <ele>2063.9</ele>
        <time>2013-02-28T10:45:24Z</time>
      </trkpt>
      <trkpt lat="45.55451" lon="6.56218">
        <ele>2062.9</ele>
        <time>2013-02-28T10:45:26Z</time>
      </trkpt>
      <trkpt lat="45.55447" lon="6.56227">
        <ele>2061.9</ele>
        <time>2013-02-28T10:45:29Z</time>
      </trkpt>
      <trkpt lat="45.55442" lon="6.56238">
        <ele>2061.6</ele>
        <time>2013-02-28T10:45:33Z</time>
      </trkpt>
      <trkpt lat="45.55437" lon="6.56229">
        <ele>2062.3</ele>
        <time>2013-02-28T10:45:38Z</time>
      </trkpt>
      <trkpt lat="45.5543" lon="6.56222">
        <ele>2059.5</ele>
        <time>2013-02-28T10:45:47Z</time>
      </trkpt>
      <trkpt lat="45.55428" lon="6.56225">
        <ele>2059</ele>
        <time>2013-02-28T10:45:48Z</time>
      </trkpt>
      <trkpt lat="45.55419" lon="6.56221">
        <ele>2056.7</ele>
        <time>2013-02-28T10:45:55Z</time>
      </trkpt>
      <trkpt lat="45.55412" lon="6.56218">
        <ele>2056.5</ele>
        <time>2013-02-28T10:45:59Z</time>
      </trkpt>
      <trkpt lat="45.55406" lon="6.56208">
        <ele>2053.2</ele>
        <time>2013-02-28T10:46:40Z</time>
      </trkpt>
      <trkpt lat="45.55414" lon="6.56206">
        <ele>2056.4</ele>
        <time>2013-02-28T10:55:49Z</time>
      </trkpt>
      <trkpt lat="45.55415" lon="6.56206">
        <ele>2056.8</ele>
        <time>2013-02-28T10:55:50Z</time>
      </trkpt>
      <trkpt lat="45.55432" lon="6.56202">
        <ele>2061.5</ele>
        <time>2013-02-28T10:56:18Z</time>
      </trkpt>
      <trkpt lat="45.5544" lon="6.56197">
        <ele>2063.2</ele>
        <time>2013-02-28T10:56:33Z</time>
      </trkpt>
      <trkpt lat="45.55447" lon="6.56191">
        <ele>2064.8</ele>
        <time>2013-02-28T10:56:46Z</time>
      </trkpt>
      <trkpt lat="45.55455" lon="6.56184">
        <ele>2066.5</ele>
        <time>2013-02-28T10:56:59Z</time>
      </trkpt>
      <trkpt lat="45.55455" lon="6.56184">
        <ele>2066.4</ele>
        <time>2013-02-28T10:57:00Z</time>
      </trkpt>
      <trkpt lat="45.55468" lon="6.56168">
        <ele>2068.7</ele>
        <time>2013-02-28T10:57:27Z</time>
      </trkpt>
      <trkpt lat="45.55475" lon="6.56162">
        <ele>2070</ele>
        <time>2013-02-28T10:57:39Z</time>
      </trkpt>
      <trkpt lat="45.55483" lon="6.56158">
        <ele>2071.2</ele>
        <time>2013-02-28T10:57:52Z</time>
      </trkpt>
      <trkpt lat="45.55492" lon="6.5616">
        <ele>2072.8</ele>
        <time>2013-02-28T10:58:05Z</time>
      </trkpt>
      <trkpt lat="45.55493" lon="6.56161">
        <ele>2072.7</ele>
        <time>2013-02-28T10:58:06Z</time>
      </trkpt>
      <trkpt lat="45.55509" lon="6.56164">
        <ele>2074.6</ele>
        <time>2013-02-28T10:58:29Z</time>
      </trkpt>
      <trkpt lat="45.55518" lon="6.56164">
        <ele>2075.6</ele>
        <time>2013-02-28T10:58:41Z</time>
      </trkpt>
      <trkpt lat="45.55527" lon="6.56163">
        <ele>2076.2</ele>
        <time>2013-02-28T10:58:54Z</time>
      </trkpt>
      <trkpt lat="45.55535" lon="6.56162">
        <ele>2077</ele>
        <time>2013-02-28T10:59:06Z</time>
      </trkpt>
      <trkpt lat="45.55536" lon="6.56162">
        <ele>2077.1</ele>
        <time>2013-02-28T10:59:07Z</time>
      </trkpt>
      <trkpt lat="45.55553" lon="6.56158">
        <ele>2080.6</ele>
        <time>2013-02-28T10:59:34Z</time>
      </trkpt>
      <trkpt lat="45.55561" lon="6.56157">
        <ele>2081.7</ele>
        <time>2013-02-28T10:59:47Z</time>
      </trkpt>
      <trkpt lat="45.5557" lon="6.56156">
        <ele>2082.8</ele>
        <time>2013-02-28T11:00:01Z</time>
      </trkpt>
      <trkpt lat="45.55578" lon="6.56154">
        <ele>2086.2</ele>
        <time>2013-02-28T11:00:16Z</time>
      </trkpt>
      <trkpt lat="45.55579" lon="6.56153">
        <ele>2086.4</ele>
        <time>2013-02-28T11:00:17Z</time>
      </trkpt>
      <trkpt lat="45.55595" lon="6.5615">
        <ele>2090.7</ele>
        <time>2013-02-28T11:01:24Z</time>
      </trkpt>
      <trkpt lat="45.55596" lon="6.5615">
        <ele>2090.8</ele>
        <time>2013-02-28T11:01:25Z</time>
      </trkpt>
      <trkpt lat="45.55608" lon="6.56167">
        <ele>2094</ele>
        <time>2013-02-28T11:01:48Z</time>
      </trkpt>
      <trkpt lat="45.55614" lon="6.56176">
        <ele>2096.4</ele>
        <time>2013-02-28T11:02:00Z</time>
      </trkpt>
      <trkpt lat="45.55622" lon="6.56181">
        <ele>2098.9</ele>
        <time>2013-02-28T11:02:13Z</time>
      </trkpt>
      <trkpt lat="45.5563" lon="6.56183">
        <ele>2102.5</ele>
        <time>2013-02-28T11:02:31Z</time>
      </trkpt>
      <trkpt lat="45.55631" lon="6.56183">
        <ele>2102.8</ele>
        <time>2013-02-28T11:02:32Z</time>
      </trkpt>
      <trkpt lat="45.55647" lon="6.5619">
        <ele>2105.1</ele>
        <time>2013-02-28T11:02:58Z</time>
      </trkpt>
      <trkpt lat="45.55654" lon="6.56197">
        <ele>2107.6</ele>
        <time>2013-02-28T11:03:12Z</time>
      </trkpt>
      <trkpt lat="45.55661" lon="6.56204">
        <ele>2108.1</ele>
        <time>2013-02-28T11:03:24Z</time>
      </trkpt>
      <trkpt lat="45.55668" lon="6.56211">
        <ele>2110.2</ele>
        <time>2013-02-28T11:03:42Z</time>
      </trkpt>
      <trkpt lat="45.55668" lon="6.56211">
        <ele>2110.4</ele>
        <time>2013-02-28T11:03:43Z</time>
      </trkpt>
      <trkpt lat="45.55683" lon="6.56223">
        <ele>2113.4</ele>
        <time>2013-02-28T11:04:10Z</time>
      </trkpt>
      <trkpt lat="45.5569" lon="6.56229">
        <ele>2114.9</ele>
        <time>2013-02-28T11:04:22Z</time>
      </trkpt>
      <trkpt lat="45.55698" lon="6.56235">
        <ele>2116.2</ele>
        <time>2013-02-28T11:04:36Z</time>
      </trkpt>
      <trkpt lat="45.55705" lon="6.56242">
        <ele>2116.9</ele>
        <time>2013-02-28T11:04:50Z</time>
      </trkpt>
      <trkpt lat="45.55706" lon="6.56242">
        <ele>2117</ele>
        <time>2013-02-28T11:04:51Z</time>
      </trkpt>
      <trkpt lat="45.5572" lon="6.56254">
        <ele>2119.6</ele>
        <time>2013-02-28T11:05:17Z</time>
      </trkpt>
      <trkpt lat="45.55728" lon="6.56261">
        <ele>2121.4</ele>
        <time>2013-02-28T11:05:32Z</time>
      </trkpt>
      <trkpt lat="45.55735" lon="6.56267">
        <ele>2121.8</ele>
        <time>2013-02-28T11:05:45Z</time>
      </trkpt>
      <trkpt lat="45.55742" lon="6.56274">
        <ele>2123.2</ele>
        <time>2013-02-28T11:05:59Z</time>
      </trkpt>
      <trkpt lat="45.55743" lon="6.56274">
        <ele>2123.2</ele>
        <time>2013-02-28T11:06:00Z</time>
      </trkpt>
      <trkpt lat="45.55756" lon="6.56289">
        <ele>2125.9</ele>
        <time>2013-02-28T11:06:26Z</time>
      </trkpt>
      <trkpt lat="45.55762" lon="6.56297">
        <ele>2126.4</ele>
        <time>2013-02-28T11:06:39Z</time>
      </trkpt>
      <trkpt lat="45.55768" lon="6.56306">
        <ele>2127.3</ele>
        <time>2013-02-28T11:06:53Z</time>
      </trkpt>
      <trkpt lat="45.55774" lon="6.56315">
        <ele>2128.9</ele>
        <time>2013-02-28T11:07:06Z</time>
      </trkpt>
      <trkpt lat="45.55774" lon="6.56316">
        <ele>2128.7</ele>
        <time>2013-02-28T11:07:07Z</time>
      </trkpt>
      <trkpt lat="45.55784" lon="6.56335">
        <ele>2129.9</ele>
        <time>2013-02-28T11:07:28Z</time>
      </trkpt>
      <trkpt lat="45.55789" lon="6.56344">
        <ele>2131.6</ele>
        <time>2013-02-28T11:07:41Z</time>
      </trkpt>
      <trkpt lat="45.55795" lon="6.56352">
        <ele>2132.8</ele>
        <time>2013-02-28T11:07:52Z</time>
      </trkpt>
      <trkpt lat="45.55802" lon="6.56361">
        <ele>2133.5</ele>
        <time>2013-02-28T11:08:05Z</time>
      </trkpt>
      <trkpt lat="45.55809" lon="6.56368">
        <ele>2134.9</ele>
        <time>2013-02-28T11:08:18Z</time>
      </trkpt>
      <trkpt lat="45.5581" lon="6.56369">
        <ele>2135</ele>
        <time>2013-02-28T11:08:19Z</time>
      </trkpt>
      <trkpt lat="45.55824" lon="6.56383">
        <ele>2139.1</ele>
        <time>2013-02-28T11:08:42Z</time>
      </trkpt>
      <trkpt lat="45.55831" lon="6.5639">
        <ele>2139.7</ele>
        <time>2013-02-28T11:08:53Z</time>
      </trkpt>
      <trkpt lat="45.55838" lon="6.56398">
        <ele>2141.8</ele>
        <time>2013-02-28T11:09:05Z</time>
      </trkpt>
      <trkpt lat="45.55844" lon="6.56407">
        <ele>2143.1</ele>
        <time>2013-02-28T11:09:20Z</time>
      </trkpt>
      <trkpt lat="45.55844" lon="6.56408">
        <ele>2143.1</ele>
        <time>2013-02-28T11:09:21Z</time>
      </trkpt>
      <trkpt lat="45.55856" lon="6.56425">
        <ele>2145.7</ele>
        <time>2013-02-28T11:09:48Z</time>
      </trkpt>
      <trkpt lat="45.55862" lon="6.56432">
        <ele>2146.8</ele>
        <time>2013-02-28T11:09:59Z</time>
      </trkpt>
      <trkpt lat="45.55869" lon="6.5644">
        <ele>2146.8</ele>
        <time>2013-02-28T11:10:10Z</time>
      </trkpt>
      <trkpt lat="45.55875" lon="6.56448">
        <ele>2148.1</ele>
        <time>2013-02-28T11:10:22Z</time>
      </trkpt>
      <trkpt lat="45.55876" lon="6.56449">
        <ele>2147.9</ele>
        <time>2013-02-28T11:10:23Z</time>
      </trkpt>
      <trkpt lat="45.55886" lon="6.56467">
        <ele>2148.7</ele>
        <time>2013-02-28T11:10:47Z</time>
      </trkpt>
      <trkpt lat="45.55891" lon="6.56477">
        <ele>2150.1</ele>
        <time>2013-02-28T11:10:59Z</time>
      </trkpt>
      <trkpt lat="45.55896" lon="6.56487">
        <ele>2150.3</ele>
        <time>2013-02-28T11:11:10Z</time>
      </trkpt>
      <trkpt lat="45.559" lon="6.56498">
        <ele>2150.4</ele>
        <time>2013-02-28T11:11:23Z</time>
      </trkpt>
      <trkpt lat="45.559" lon="6.56499">
        <ele>2150.5</ele>
        <time>2013-02-28T11:11:24Z</time>
      </trkpt>
      <trkpt lat="45.55897" lon="6.56511">
        <ele>2152.7</ele>
        <time>2013-02-28T11:16:55Z</time>
      </trkpt>
      <trkpt lat="45.55899" lon="6.56535">
        <ele>2150.5</ele>
        <time>2013-02-28T11:17:13Z</time>
      </trkpt>
      <trkpt lat="45.55898" lon="6.56548">
        <ele>2150.5</ele>
        <time>2013-02-28T11:17:23Z</time>
      </trkpt>
      <trkpt lat="45.55897" lon="6.5656">
        <ele>2150.1</ele>
        <time>2013-02-28T11:17:37Z</time>
      </trkpt>
      <trkpt lat="45.55896" lon="6.56573">
        <ele>2152.6</ele>
        <time>2013-02-28T11:17:54Z</time>
      </trkpt>
      <trkpt lat="45.55894" lon="6.56585">
        <ele>2153.9</ele>
        <time>2013-02-28T11:18:12Z</time>
      </trkpt>
      <trkpt lat="45.55894" lon="6.56586">
        <ele>2153.8</ele>
        <time>2013-02-28T11:18:13Z</time>
      </trkpt>
      <trkpt lat="45.5589" lon="6.56609">
        <ele>2155.5</ele>
        <time>2013-02-28T11:18:51Z</time>
      </trkpt>
      <trkpt lat="45.55887" lon="6.56621">
        <ele>2155.8</ele>
        <time>2013-02-28T11:27:05Z</time>
      </trkpt>
      <trkpt lat="45.55886" lon="6.56624">
        <ele>2155.9</ele>
        <time>2013-02-28T11:27:06Z</time>
      </trkpt>
      <trkpt lat="45.55878" lon="6.56639">
        <ele>2154.5</ele>
        <time>2013-02-28T11:27:10Z</time>
      </trkpt>
      <trkpt lat="45.55884" lon="6.56647">
        <ele>2152.5</ele>
        <time>2013-02-28T11:27:13Z</time>
      </trkpt>
      <trkpt lat="45.55887" lon="6.56657">
        <ele>2149.8</ele>
        <time>2013-02-28T11:27:16Z</time>
      </trkpt>
      <trkpt lat="45.55892" lon="6.56668">
        <ele>2146.9</ele>
        <time>2013-02-28T11:27:19Z</time>
      </trkpt>
      <trkpt lat="45.55893" lon="6.56676">
        <ele>2145.1</ele>
        <time>2013-02-28T11:27:21Z</time>
      </trkpt>
      <trkpt lat="45.55897" lon="6.56686">
        <ele>2142.7</ele>
        <time>2013-02-28T11:27:24Z</time>
      </trkpt>
      <trkpt lat="45.55898" lon="6.56696">
        <ele>2139.7</ele>
        <time>2013-02-28T11:27:27Z</time>
      </trkpt>
      <trkpt lat="45.55896" lon="6.56708">
        <ele>2136.7</ele>
        <time>2013-02-28T11:27:30Z</time>
      </trkpt>
      <trkpt lat="45.55894" lon="6.56715">
        <ele>2135.5</ele>
        <time>2013-02-28T11:27:31Z</time>
      </trkpt>
      <trkpt lat="45.55891" lon="6.56722">
        <ele>2134.6</ele>
        <time>2013-02-28T11:27:32Z</time>
      </trkpt>
      <trkpt lat="45.55888" lon="6.5673">
        <ele>2132.6</ele>
        <time>2013-02-28T11:27:33Z</time>
      </trkpt>
      <trkpt lat="45.55884" lon="6.56736">
        <ele>2131.1</ele>
        <time>2013-02-28T11:27:34Z</time>
      </trkpt>
      <trkpt lat="45.55878" lon="6.56743">
        <ele>2129.2</ele>
        <time>2013-02-28T11:27:36Z</time>
      </trkpt>
      <trkpt lat="45.55873" lon="6.5675">
        <ele>2127.5</ele>
        <time>2013-02-28T11:27:38Z</time>
      </trkpt>
      <trkpt lat="45.55875" lon="6.56762">
        <ele>2124.6</ele>
        <time>2013-02-28T11:27:41Z</time>
      </trkpt>
      <trkpt lat="45.55869" lon="6.56771">
        <ele>2121.2</ele>
        <time>2013-02-28T11:27:44Z</time>
      </trkpt>
      <trkpt lat="45.55866" lon="6.56777">
        <ele>2119.1</ele>
        <time>2013-02-28T11:27:45Z</time>
      </trkpt>
      <trkpt lat="45.55862" lon="6.56785">
        <ele>2117.6</ele>
        <time>2013-02-28T11:27:46Z</time>
      </trkpt>
      <trkpt lat="45.55859" lon="6.56792">
        <ele>2116.5</ele>
        <time>2013-02-28T11:27:47Z</time>
      </trkpt>
      <trkpt lat="45.55859" lon="6.56805">
        <ele>2113.4</ele>
        <time>2013-02-28T11:27:58Z</time>
      </trkpt>
      <trkpt lat="45.55857" lon="6.56817">
        <ele>2113.6</ele>
        <time>2013-02-28T11:30:22Z</time>
      </trkpt>
      <trkpt lat="45.55856" lon="6.56818">
        <ele>2113.5</ele>
        <time>2013-02-28T11:30:23Z</time>
      </trkpt>
      <trkpt lat="45.55842" lon="6.56824">
        <ele>2110.4</ele>
        <time>2013-02-28T11:30:29Z</time>
      </trkpt>
      <trkpt lat="45.55833" lon="6.56825">
        <ele>2108.7</ele>
        <time>2013-02-28T11:30:32Z</time>
      </trkpt>
      <trkpt lat="45.55828" lon="6.56834">
        <ele>2107.4</ele>
        <time>2013-02-28T11:30:34Z</time>
      </trkpt>
      <trkpt lat="45.55826" lon="6.56841">
        <ele>2106.7</ele>
        <time>2013-02-28T11:30:35Z</time>
      </trkpt>
      <trkpt lat="45.55825" lon="6.56848">
        <ele>2104.6</ele>
        <time>2013-02-28T11:30:36Z</time>
      </trkpt>
      <trkpt lat="45.55823" lon="6.56855">
        <ele>2103</ele>
        <time>2013-02-28T11:30:37Z</time>
      </trkpt>
      <trkpt lat="45.55823" lon="6.56862">
        <ele>2101.3</ele>
        <time>2013-02-28T11:30:38Z</time>
      </trkpt>
      <trkpt lat="45.55825" lon="6.56875">
        <ele>2099.2</ele>
        <time>2013-02-28T11:30:40Z</time>
      </trkpt>
      <trkpt lat="45.55828" lon="6.56883">
        <ele>2098</ele>
        <time>2013-02-28T11:30:42Z</time>
      </trkpt>
      <trkpt lat="45.55835" lon="6.56891">
        <ele>2096.9</ele>
        <time>2013-02-28T11:30:45Z</time>
      </trkpt>
      <trkpt lat="45.55841" lon="6.569">
        <ele>2095.5</ele>
        <time>2013-02-28T11:30:50Z</time>
      </trkpt>
      <trkpt lat="45.55836" lon="6.56906">
        <ele>2095.7</ele>
        <time>2013-02-28T11:31:43Z</time>
      </trkpt>
      <trkpt lat="45.55833" lon="6.56909">
        <ele>2095.6</ele>
        <time>2013-02-28T11:31:44Z</time>
      </trkpt>
      <trkpt lat="45.55823" lon="6.56916">
        <ele>2091.2</ele>
        <time>2013-02-28T11:31:47Z</time>
      </trkpt>
      <trkpt lat="45.55816" lon="6.56919">
        <ele>2089.3</ele>
        <time>2013-02-28T11:31:49Z</time>
      </trkpt>
      <trkpt lat="45.55815" lon="6.56929">
        <ele>2087.6</ele>
        <time>2013-02-28T11:31:53Z</time>
      </trkpt>
      <trkpt lat="45.55817" lon="6.56942">
        <ele>2083.5</ele>
        <time>2013-02-28T11:31:57Z</time>
      </trkpt>
      <trkpt lat="45.55818" lon="6.56954">
        <ele>2080.9</ele>
        <time>2013-02-28T11:32:00Z</time>
      </trkpt>
      <trkpt lat="45.55824" lon="6.56958">
        <ele>2077.9</ele>
        <time>2013-02-28T11:32:03Z</time>
      </trkpt>
      <trkpt lat="45.55828" lon="6.56969">
        <ele>2075.3</ele>
        <time>2013-02-28T11:32:06Z</time>
      </trkpt>
      <trkpt lat="45.55831" lon="6.56976">
        <ele>2073.2</ele>
        <time>2013-02-28T11:32:08Z</time>
      </trkpt>
      <trkpt lat="45.55837" lon="6.56985">
        <ele>2070.3</ele>
        <time>2013-02-28T11:32:11Z</time>
      </trkpt>
      <trkpt lat="45.55842" lon="6.56992">
        <ele>2068.1</ele>
        <time>2013-02-28T11:32:13Z</time>
      </trkpt>
      <trkpt lat="45.55846" lon="6.57">
        <ele>2064.9</ele>
        <time>2013-02-28T11:32:16Z</time>
      </trkpt>
      <trkpt lat="45.55849" lon="6.57009">
        <ele>2061.7</ele>
        <time>2013-02-28T11:32:18Z</time>
      </trkpt>
      <trkpt lat="45.5585" lon="6.57015">
        <ele>2060.1</ele>
        <time>2013-02-28T11:32:19Z</time>
      </trkpt>
      <trkpt lat="45.55852" lon="6.57022">
        <ele>2057.8</ele>
        <time>2013-02-28T11:32:20Z</time>
      </trkpt>
      <trkpt lat="45.55853" lon="6.57028">
        <ele>2056</ele>
        <time>2013-02-28T11:32:21Z</time>
      </trkpt>
      <trkpt lat="45.55855" lon="6.57035">
        <ele>2054.7</ele>
        <time>2013-02-28T11:32:22Z</time>
      </trkpt>
      <trkpt lat="45.55856" lon="6.57041">
        <ele>2052.7</ele>
        <time>2013-02-28T11:32:23Z</time>
      </trkpt>
      <trkpt lat="45.55858" lon="6.57048">
        <ele>2051.1</ele>
        <time>2013-02-28T11:32:24Z</time>
      </trkpt>
      <trkpt lat="45.5586" lon="6.57054">
        <ele>2049</ele>
        <time>2013-02-28T11:32:25Z</time>
      </trkpt>
      <trkpt lat="45.55862" lon="6.57059">
        <ele>2047.4</ele>
        <time>2013-02-28T11:32:26Z</time>
      </trkpt>
      <trkpt lat="45.55864" lon="6.57066">
        <ele>2046.2</ele>
        <time>2013-02-28T11:32:27Z</time>
      </trkpt>
      <trkpt lat="45.55869" lon="6.57074">
        <ele>2043.2</ele>
        <time>2013-02-28T11:32:29Z</time>
      </trkpt>
      <trkpt lat="45.55871" lon="6.57084">
        <ele>2041</ele>
        <time>2013-02-28T11:32:31Z</time>
      </trkpt>
      <trkpt lat="45.55866" lon="6.57094">
        <ele>2036.7</ele>
        <time>2013-02-28T11:32:34Z</time>
      </trkpt>
      <trkpt lat="45.55861" lon="6.57104">
        <ele>2033.2</ele>
        <time>2013-02-28T11:35:18Z</time>
      </trkpt>
      <trkpt lat="45.55861" lon="6.57109">
        <ele>2033.1</ele>
        <time>2013-02-28T11:35:19Z</time>
      </trkpt>
      <trkpt lat="45.55859" lon="6.57127">
        <ele>2031.1</ele>
        <time>2013-02-28T11:35:22Z</time>
      </trkpt>
      <trkpt lat="45.55858" lon="6.57135">
        <ele>2029.9</ele>
        <time>2013-02-28T11:35:24Z</time>
      </trkpt>
      <trkpt lat="45.55859" lon="6.57145">
        <ele>2028.9</ele>
        <time>2013-02-28T11:35:26Z</time>
      </trkpt>
      <trkpt lat="45.55858" lon="6.57154">
        <ele>2028.2</ele>
        <time>2013-02-28T11:35:28Z</time>
      </trkpt>
      <trkpt lat="45.55861" lon="6.57165">
        <ele>2026.9</ele>
        <time>2013-02-28T11:35:31Z</time>
      </trkpt>
      <trkpt lat="45.5587" lon="6.57165">
        <ele>2025.3</ele>
        <time>2013-02-28T11:35:34Z</time>
      </trkpt>
      <trkpt lat="45.55875" lon="6.57175">
        <ele>2022.6</ele>
        <time>2013-02-28T11:35:37Z</time>
      </trkpt>
      <trkpt lat="45.55883" lon="6.57172">
        <ele>2018.7</ele>
        <time>2013-02-28T11:35:42Z</time>
      </trkpt>
      <trkpt lat="45.55885" lon="6.57181">
        <ele>2017.1</ele>
        <time>2013-02-28T11:35:44Z</time>
      </trkpt>
      <trkpt lat="45.55892" lon="6.57188">
        <ele>2013</ele>
        <time>2013-02-28T11:35:50Z</time>
      </trkpt>
      <trkpt lat="45.55896" lon="6.57199">
        <ele>2010.1</ele>
        <time>2013-02-28T11:35:59Z</time>
      </trkpt>
      <trkpt lat="45.55901" lon="6.5721">
        <ele>2008.3</ele>
        <time>2013-02-28T11:36:05Z</time>
      </trkpt>
      <trkpt lat="45.55909" lon="6.57213">
        <ele>2004</ele>
        <time>2013-02-28T11:36:11Z</time>
      </trkpt>
      <trkpt lat="45.55914" lon="6.57223">
        <ele>2000</ele>
        <time>2013-02-28T11:36:17Z</time>
      </trkpt>
      <trkpt lat="45.55923" lon="6.5722">
        <ele>1997.2</ele>
        <time>2013-02-28T11:36:21Z</time>
      </trkpt>
      <trkpt lat="45.55924" lon="6.57219">
        <ele>1996.9</ele>
        <time>2013-02-28T11:36:22Z</time>
      </trkpt>
      <trkpt lat="45.55931" lon="6.57241">
        <ele>1990.3</ele>
        <time>2013-02-28T11:37:07Z</time>
      </trkpt>
      <trkpt lat="45.55939" lon="6.57238">
        <ele>1987</ele>
        <time>2013-02-28T11:37:14Z</time>
      </trkpt>
      <trkpt lat="45.55941" lon="6.57248">
        <ele>1982.1</ele>
        <time>2013-02-28T11:37:58Z</time>
      </trkpt>
      <trkpt lat="45.55943" lon="6.57252">
        <ele>1981.8</ele>
        <time>2013-02-28T11:37:59Z</time>
      </trkpt>
      <trkpt lat="45.5595" lon="6.57267">
        <ele>1976</ele>
        <time>2013-02-28T11:38:06Z</time>
      </trkpt>
      <trkpt lat="45.55949" lon="6.57276">
        <ele>1974</ele>
        <time>2013-02-28T11:38:08Z</time>
      </trkpt>
      <trkpt lat="45.55951" lon="6.57286">
        <ele>1971.6</ele>
        <time>2013-02-28T11:38:10Z</time>
      </trkpt>
      <trkpt lat="45.55953" lon="6.57291">
        <ele>1970.9</ele>
        <time>2013-02-28T11:38:11Z</time>
      </trkpt>
      <trkpt lat="45.55955" lon="6.57298">
        <ele>1969.3</ele>
        <time>2013-02-28T11:38:12Z</time>
      </trkpt>
      <trkpt lat="45.55956" lon="6.57307">
        <ele>1968.2</ele>
        <time>2013-02-28T11:38:13Z</time>
      </trkpt>
      <trkpt lat="45.55958" lon="6.57314">
        <ele>1966</ele>
        <time>2013-02-28T11:38:14Z</time>
      </trkpt>
      <trkpt lat="45.55961" lon="6.57326">
        <ele>1962.6</ele>
        <time>2013-02-28T11:38:16Z</time>
      </trkpt>
      <trkpt lat="45.55964" lon="6.57331">
        <ele>1961.3</ele>
        <time>2013-02-28T11:38:17Z</time>
      </trkpt>
      <trkpt lat="45.55965" lon="6.57338">
        <ele>1960.3</ele>
        <time>2013-02-28T11:38:18Z</time>
      </trkpt>
      <trkpt lat="45.55967" lon="6.57346">
        <ele>1958.4</ele>
        <time>2013-02-28T11:38:19Z</time>
      </trkpt>
      <trkpt lat="45.55969" lon="6.57354">
        <ele>1957</ele>
        <time>2013-02-28T11:38:20Z</time>
      </trkpt>
      <trkpt lat="45.55971" lon="6.57363">
        <ele>1954.9</ele>
        <time>2013-02-28T11:38:21Z</time>
      </trkpt>
      <trkpt lat="45.55974" lon="6.57371">
        <ele>1953.4</ele>
        <time>2013-02-28T11:38:22Z</time>
      </trkpt>
      <trkpt lat="45.55976" lon="6.5738">
        <ele>1951.2</ele>
        <time>2013-02-28T11:38:23Z</time>
      </trkpt>
      <trkpt lat="45.55978" lon="6.57387">
        <ele>1949.5</ele>
        <time>2013-02-28T11:38:24Z</time>
      </trkpt>
      <trkpt lat="45.55979" lon="6.57395">
        <ele>1948.3</ele>
        <time>2013-02-28T11:38:25Z</time>
      </trkpt>
      <trkpt lat="45.55982" lon="6.57402">
        <ele>1946.7</ele>
        <time>2013-02-28T11:38:26Z</time>
      </trkpt>
      <trkpt lat="45.55984" lon="6.57409">
        <ele>1945.6</ele>
        <time>2013-02-28T11:38:27Z</time>
      </trkpt>
      <trkpt lat="45.55986" lon="6.57416">
        <ele>1943.9</ele>
        <time>2013-02-28T11:38:28Z</time>
      </trkpt>
      <trkpt lat="45.55988" lon="6.57423">
        <ele>1942.6</ele>
        <time>2013-02-28T11:38:29Z</time>
      </trkpt>
      <trkpt lat="45.5599" lon="6.5743">
        <ele>1941.7</ele>
        <time>2013-02-28T11:38:30Z</time>
      </trkpt>
      <trkpt lat="45.55989" lon="6.57441">
        <ele>1938.8</ele>
        <time>2013-02-28T11:38:32Z</time>
      </trkpt>
      <trkpt lat="45.55986" lon="6.57453">
        <ele>1936.8</ele>
        <time>2013-02-28T11:38:37Z</time>
      </trkpt>
      <trkpt lat="45.55983" lon="6.57464">
        <ele>1937.3</ele>
        <time>2013-02-28T11:39:53Z</time>
      </trkpt>
      <trkpt lat="45.55983" lon="6.57466">
        <ele>1937.2</ele>
        <time>2013-02-28T11:39:54Z</time>
      </trkpt>
      <trkpt lat="45.55983" lon="6.57484">
        <ele>1934.4</ele>
        <time>2013-02-28T11:40:07Z</time>
      </trkpt>
      <trkpt lat="45.55986" lon="6.57494">
        <ele>1932.4</ele>
        <time>2013-02-28T11:40:09Z</time>
      </trkpt>
      <trkpt lat="45.55989" lon="6.575">
        <ele>1930.6</ele>
        <time>2013-02-28T11:40:10Z</time>
      </trkpt>
      <trkpt lat="45.55991" lon="6.57506">
        <ele>1929.3</ele>
        <time>2013-02-28T11:40:11Z</time>
      </trkpt>
      <trkpt lat="45.55992" lon="6.57513">
        <ele>1928.3</ele>
        <time>2013-02-28T11:40:12Z</time>
      </trkpt>
      <trkpt lat="45.55994" lon="6.5752">
        <ele>1926.6</ele>
        <time>2013-02-28T11:40:13Z</time>
      </trkpt>
      <trkpt lat="45.55995" lon="6.57527">
        <ele>1925.3</ele>
        <time>2013-02-28T11:40:14Z</time>
      </trkpt>
      <trkpt lat="45.55997" lon="6.57533">
        <ele>1923.4</ele>
        <time>2013-02-28T11:40:15Z</time>
      </trkpt>
      <trkpt lat="45.55998" lon="6.57539">
        <ele>1922</ele>
        <time>2013-02-28T11:40:16Z</time>
      </trkpt>
      <trkpt lat="45.56" lon="6.57546">
        <ele>1921</ele>
        <time>2013-02-28T11:40:17Z</time>
      </trkpt>
      <trkpt lat="45.56001" lon="6.57552">
        <ele>1918.9</ele>
        <time>2013-02-28T11:40:18Z</time>
      </trkpt>
      <trkpt lat="45.56003" lon="6.57558">
        <ele>1917.3</ele>
        <time>2013-02-28T11:40:19Z</time>
      </trkpt>
      <trkpt lat="45.56004" lon="6.57565">
        <ele>1914.9</ele>
        <time>2013-02-28T11:40:20Z</time>
      </trkpt>
      <trkpt lat="45.56005" lon="6.57572">
        <ele>1913.1</ele>
        <time>2013-02-28T11:40:21Z</time>
      </trkpt>
      <trkpt lat="45.56007" lon="6.57579">
        <ele>1910.2</ele>
        <time>2013-02-28T11:40:22Z</time>
      </trkpt>
      <trkpt lat="45.56008" lon="6.57585">
        <ele>1908.1</ele>
        <time>2013-02-28T11:40:23Z</time>
      </trkpt>
      <trkpt lat="45.56009" lon="6.57592">
        <ele>1906.5</ele>
        <time>2013-02-28T11:40:24Z</time>
      </trkpt>
      <trkpt lat="45.56011" lon="6.57599">
        <ele>1904.3</ele>
        <time>2013-02-28T11:40:25Z</time>
      </trkpt>
      <trkpt lat="45.56012" lon="6.57606">
        <ele>1902.6</ele>
        <time>2013-02-28T11:40:26Z</time>
      </trkpt>
      <trkpt lat="45.56009" lon="6.57618">
        <ele>1898.6</ele>
        <time>2013-02-28T11:40:28Z</time>
      </trkpt>
      <trkpt lat="45.56005" lon="6.57627">
        <ele>1896.3</ele>
        <time>2013-02-28T11:43:31Z</time>
      </trkpt>
      <trkpt lat="45.56005" lon="6.57631">
        <ele>1895.4</ele>
        <time>2013-02-28T11:43:32Z</time>
      </trkpt>
      <trkpt lat="45.56003" lon="6.5765">
        <ele>1892.5</ele>
        <time>2013-02-28T11:43:36Z</time>
      </trkpt>
      <trkpt lat="45.56002" lon="6.57662">
        <ele>1890.1</ele>
        <time>2013-02-28T11:43:38Z</time>
      </trkpt>
      <trkpt lat="45.56001" lon="6.57669">
        <ele>1888.7</ele>
        <time>2013-02-28T11:43:39Z</time>
      </trkpt>
      <trkpt lat="45.55999" lon="6.57681">
        <ele>1886.8</ele>
        <time>2013-02-28T11:43:41Z</time>
      </trkpt>
      <trkpt lat="45.55998" lon="6.57688">
        <ele>1885.3</ele>
        <time>2013-02-28T11:43:42Z</time>
      </trkpt>
      <trkpt lat="45.55996" lon="6.577">
        <ele>1882.5</ele>
        <time>2013-02-28T11:43:44Z</time>
      </trkpt>
      <trkpt lat="45.55994" lon="6.57706">
        <ele>1881.3</ele>
        <time>2013-02-28T11:43:45Z</time>
      </trkpt>
      <trkpt lat="45.55994" lon="6.57713">
        <ele>1879.7</ele>
        <time>2013-02-28T11:43:46Z</time>
      </trkpt>
      <trkpt lat="45.55988" lon="6.57722">
        <ele>1877.6</ele>
        <time>2013-02-28T11:43:48Z</time>
      </trkpt>
      <trkpt lat="45.55984" lon="6.57734">
        <ele>1874.7</ele>
        <time>2013-02-28T11:43:50Z</time>
      </trkpt>
      <trkpt lat="45.55983" lon="6.57741">
        <ele>1872.7</ele>
        <time>2013-02-28T11:43:51Z</time>
      </trkpt>
      <trkpt lat="45.55981" lon="6.57748">
        <ele>1871.2</ele>
        <time>2013-02-28T11:43:52Z</time>
      </trkpt>
      <trkpt lat="45.55979" lon="6.57755">
        <ele>1870.1</ele>
        <time>2013-02-28T11:43:53Z</time>
      </trkpt>
      <trkpt lat="45.55976" lon="6.57762">
        <ele>1868.4</ele>
        <time>2013-02-28T11:43:54Z</time>
      </trkpt>
      <trkpt lat="45.55973" lon="6.57768">
        <ele>1867</ele>
        <time>2013-02-28T11:43:55Z</time>
      </trkpt>
      <trkpt lat="45.55968" lon="6.57778">
        <ele>1864.2</ele>
        <time>2013-02-28T11:43:57Z</time>
      </trkpt>
      <trkpt lat="45.55963" lon="6.57788">
        <ele>1862.9</ele>
        <time>2013-02-28T11:43:59Z</time>
      </trkpt>
      <trkpt lat="45.55959" lon="6.57798">
        <ele>1862.2</ele>
        <time>2013-02-28T11:44:01Z</time>
      </trkpt>
      <trkpt lat="45.55954" lon="6.57807">
        <ele>1861</ele>
        <time>2013-02-28T11:44:03Z</time>
      </trkpt>
      <trkpt lat="45.55949" lon="6.57815">
        <ele>1859.6</ele>
        <time>2013-02-28T11:44:05Z</time>
      </trkpt>
      <trkpt lat="45.55944" lon="6.57823">
        <ele>1858.8</ele>
        <time>2013-02-28T11:44:07Z</time>
      </trkpt>
      <trkpt lat="45.55939" lon="6.5783">
        <ele>1857.8</ele>
        <time>2013-02-28T11:44:09Z</time>
      </trkpt>
      <trkpt lat="45.55934" lon="6.57836">
        <ele>1856.6</ele>
        <time>2013-02-28T11:44:11Z</time>
      </trkpt>
      <trkpt lat="45.55929" lon="6.57843">
        <ele>1855.9</ele>
        <time>2013-02-28T11:44:13Z</time>
      </trkpt>
      <trkpt lat="45.55926" lon="6.57848">
        <ele>1855.6</ele>
        <time>2013-02-28T11:44:14Z</time>
      </trkpt>
      <trkpt lat="45.55922" lon="6.57852">
        <ele>1854.5</ele>
        <time>2013-02-28T11:44:15Z</time>
      </trkpt>
      <trkpt lat="45.55919" lon="6.57857">
        <ele>1853.7</ele>
        <time>2013-02-28T11:44:16Z</time>
      </trkpt>
      <trkpt lat="45.55913" lon="6.57866">
        <ele>1851.8</ele>
        <time>2013-02-28T11:44:18Z</time>
      </trkpt>
      <trkpt lat="45.55907" lon="6.57874">
        <ele>1850.5</ele>
        <time>2013-02-28T11:44:20Z</time>
      </trkpt>
      <trkpt lat="45.55902" lon="6.57883">
        <ele>1849.5</ele>
        <time>2013-02-28T11:44:22Z</time>
      </trkpt>
      <trkpt lat="45.55899" lon="6.57888">
        <ele>1849.2</ele>
        <time>2013-02-28T11:44:23Z</time>
      </trkpt>
      <trkpt lat="45.55897" lon="6.57895">
        <ele>1848.2</ele>
        <time>2013-02-28T11:44:24Z</time>
      </trkpt>
      <trkpt lat="45.55891" lon="6.57903">
        <ele>1847</ele>
        <time>2013-02-28T11:44:26Z</time>
      </trkpt>
      <trkpt lat="45.5589" lon="6.57916">
        <ele>1845.5</ele>
        <time>2013-02-28T11:48:22Z</time>
      </trkpt>
      <trkpt lat="45.5589" lon="6.57916">
        <ele>1845.5</ele>
        <time>2013-02-28T11:48:23Z</time>
      </trkpt>
      <trkpt lat="45.55878" lon="6.57922">
        <ele>1845.9</ele>
        <time>2013-02-28T11:48:54Z</time>
      </trkpt>
      <trkpt lat="45.55872" lon="6.57931">
        <ele>1844.7</ele>
        <time>2013-02-28T11:48:57Z</time>
      </trkpt>
      <trkpt lat="45.55868" lon="6.57938">
        <ele>1844</ele>
        <time>2013-02-28T11:48:59Z</time>
      </trkpt>
      <trkpt lat="45.55863" lon="6.57944">
        <ele>1843.3</ele>
        <time>2013-02-28T11:49:01Z</time>
      </trkpt>
      <trkpt lat="45.55857" lon="6.57951">
        <ele>1841.5</ele>
        <time>2013-02-28T11:49:04Z</time>
      </trkpt>
      <trkpt lat="45.5585" lon="6.5796">
        <ele>1840.6</ele>
        <time>2013-02-28T11:49:07Z</time>
      </trkpt>
      <trkpt lat="45.55844" lon="6.57969">
        <ele>1838.2</ele>
        <time>2013-02-28T11:49:11Z</time>
      </trkpt>
      <trkpt lat="45.55851" lon="6.57976">
        <ele>1836.2</ele>
        <time>2013-02-28T11:49:15Z</time>
      </trkpt>
      <trkpt lat="45.55853" lon="6.57987">
        <ele>1834.6</ele>
        <time>2013-02-28T11:49:18Z</time>
      </trkpt>
      <trkpt lat="45.55855" lon="6.57997">
        <ele>1830.1</ele>
        <time>2013-02-28T11:49:21Z</time>
      </trkpt>
      <trkpt lat="45.55861" lon="6.58005">
        <ele>1825.5</ele>
        <time>2013-02-28T11:49:24Z</time>
      </trkpt>
      <trkpt lat="45.55864" lon="6.58008">
        <ele>1824.5</ele>
        <time>2013-02-28T11:49:25Z</time>
      </trkpt>
      <trkpt lat="45.55877" lon="6.58005">
        <ele>1817.1</ele>
        <time>2013-02-28T11:49:30Z</time>
      </trkpt>
      <trkpt lat="45.55882" lon="6.58012">
        <ele>1814</ele>
        <time>2013-02-28T11:49:33Z</time>
      </trkpt>
      <trkpt lat="45.55881" lon="6.58025">
        <ele>1808.6</ele>
        <time>2013-02-28T11:49:37Z</time>
      </trkpt>
      <trkpt lat="45.55879" lon="6.58036">
        <ele>1804.2</ele>
        <time>2013-02-28T11:49:58Z</time>
      </trkpt>
      <trkpt lat="45.55886" lon="6.5804">
        <ele>1801.4</ele>
        <time>2013-02-28T11:50:02Z</time>
      </trkpt>
      <trkpt lat="45.55885" lon="6.58051">
        <ele>1797.5</ele>
        <time>2013-02-28T11:50:24Z</time>
      </trkpt>
      <trkpt lat="45.55894" lon="6.58053">
        <ele>1793.4</ele>
        <time>2013-02-28T11:51:09Z</time>
      </trkpt>
      <trkpt lat="45.55894" lon="6.58054">
        <ele>1793.1</ele>
        <time>2013-02-28T11:51:10Z</time>
      </trkpt>
      <trkpt lat="45.55904" lon="6.58067">
        <ele>1790.3</ele>
        <time>2013-02-28T11:51:19Z</time>
      </trkpt>
      <trkpt lat="45.55911" lon="6.58067">
        <ele>1787.5</ele>
        <time>2013-02-28T11:51:22Z</time>
      </trkpt>
      <trkpt lat="45.55915" lon="6.58077">
        <ele>1784.9</ele>
        <time>2013-02-28T11:51:27Z</time>
      </trkpt>
      <trkpt lat="45.55923" lon="6.58083">
        <ele>1781.5</ele>
        <time>2013-02-28T11:51:30Z</time>
      </trkpt>
      <trkpt lat="45.55926" lon="6.58095">
        <ele>1775.1</ele>
        <time>2013-02-28T11:52:29Z</time>
      </trkpt>
      <trkpt lat="45.55927" lon="6.58095">
        <ele>1775.1</ele>
        <time>2013-02-28T11:52:30Z</time>
      </trkpt>
      <trkpt lat="45.55935" lon="6.58108">
        <ele>1772.4</ele>
        <time>2013-02-28T11:52:37Z</time>
      </trkpt>
      <trkpt lat="45.55938" lon="6.58115">
        <ele>1770.7</ele>
        <time>2013-02-28T11:52:38Z</time>
      </trkpt>
      <trkpt lat="45.55941" lon="6.58122">
        <ele>1769.4</ele>
        <time>2013-02-28T11:52:39Z</time>
      </trkpt>
      <trkpt lat="45.55945" lon="6.58133">
        <ele>1766.2</ele>
        <time>2013-02-28T11:52:42Z</time>
      </trkpt>
      <trkpt lat="45.55936" lon="6.58135">
        <ele>1763.2</ele>
        <time>2013-02-28T11:52:56Z</time>
      </trkpt>
      <trkpt lat="45.55929" lon="6.58128">
        <ele>1776.4</ele>
        <time>2013-02-28T12:25:35Z</time>
      </trkpt>
      <trkpt lat="45.55928" lon="6.58128">
        <ele>1776.5</ele>
        <time>2013-02-28T12:25:36Z</time>
      </trkpt>
      <trkpt lat="45.55921" lon="6.58134">
        <ele>1777.3</ele>
        <time>2013-02-28T12:28:23Z</time>
      </trkpt>
      <trkpt lat="45.5593" lon="6.58134">
        <ele>1779.3</ele>
        <time>2013-02-28T12:32:53Z</time>
      </trkpt>
      <trkpt lat="45.5592" lon="6.58144">
        <ele>1781.5</ele>
        <time>2013-02-28T12:39:39Z</time>
      </trkpt>
      <trkpt lat="45.5591" lon="6.58154">
        <ele>1779.1</ele>
        <time>2013-02-28T12:39:45Z</time>
      </trkpt>
      <trkpt lat="45.55903" lon="6.5816">
        <ele>1778.6</ele>
        <time>2013-02-28T12:39:49Z</time>
      </trkpt>
      <trkpt lat="45.559" lon="6.58168">
        <ele>1777.3</ele>
        <time>2013-02-28T12:39:51Z</time>
      </trkpt>
      <trkpt lat="45.55894" lon="6.58176">
        <ele>1776.2</ele>
        <time>2013-02-28T12:39:53Z</time>
      </trkpt>
      <trkpt lat="45.55886" lon="6.58179">
        <ele>1771.3</ele>
        <time>2013-02-28T12:40:05Z</time>
      </trkpt>
      <trkpt lat="45.55893" lon="6.58183">
        <ele>1768.3</ele>
        <time>2013-02-28T12:40:14Z</time>
      </trkpt>
      <trkpt lat="45.55901" lon="6.58186">
        <ele>1766.5</ele>
        <time>2013-02-28T12:40:18Z</time>
      </trkpt>
      <trkpt lat="45.559" lon="6.58198">
        <ele>1763</ele>
        <time>2013-02-28T12:40:26Z</time>
      </trkpt>
      <trkpt lat="45.55899" lon="6.58211">
        <ele>1756.8</ele>
        <time>2013-02-28T12:40:40Z</time>
      </trkpt>
      <trkpt lat="45.55898" lon="6.58212">
        <ele>1756.2</ele>
        <time>2013-02-28T12:40:41Z</time>
      </trkpt>
      <trkpt lat="45.55885" lon="6.58226">
        <ele>1750.4</ele>
        <time>2013-02-28T12:41:07Z</time>
      </trkpt>
      <trkpt lat="45.55883" lon="6.58236">
        <ele>1748.3</ele>
        <time>2013-02-28T12:41:21Z</time>
      </trkpt>
      <trkpt lat="45.55876" lon="6.58242">
        <ele>1746.6</ele>
        <time>2013-02-28T12:41:28Z</time>
      </trkpt>
      <trkpt lat="45.55873" lon="6.58254">
        <ele>1740.5</ele>
        <time>2013-02-28T12:41:53Z</time>
      </trkpt>
      <trkpt lat="45.55873" lon="6.58255">
        <ele>1740.2</ele>
        <time>2013-02-28T12:41:54Z</time>
      </trkpt>
      <trkpt lat="45.55871" lon="6.58275">
        <ele>1729.3</ele>
        <time>2013-02-28T12:42:49Z</time>
      </trkpt>
      <trkpt lat="45.55864" lon="6.58282">
        <ele>1726.7</ele>
        <time>2013-02-28T12:43:01Z</time>
      </trkpt>
      <trkpt lat="45.55863" lon="6.58283">
        <ele>1726.5</ele>
        <time>2013-02-28T12:43:02Z</time>
      </trkpt>
      <trkpt lat="45.55852" lon="6.58296">
        <ele>1724.5</ele>
        <time>2013-02-28T12:43:10Z</time>
      </trkpt>
      <trkpt lat="45.55846" lon="6.58301">
        <ele>1723.9</ele>
        <time>2013-02-28T12:43:12Z</time>
      </trkpt>
      <trkpt lat="45.55843" lon="6.58305">
        <ele>1722.9</ele>
        <time>2013-02-28T12:43:13Z</time>
      </trkpt>
      <trkpt lat="45.55839" lon="6.58309">
        <ele>1722.2</ele>
        <time>2013-02-28T12:43:14Z</time>
      </trkpt>
      <trkpt lat="45.55834" lon="6.58314">
        <ele>1721.2</ele>
        <time>2013-02-28T12:43:15Z</time>
      </trkpt>
      <trkpt lat="45.55829" lon="6.58317">
        <ele>1720.4</ele>
        <time>2013-02-28T12:43:16Z</time>
      </trkpt>
      <trkpt lat="45.55824" lon="6.5832">
        <ele>1719.9</ele>
        <time>2013-02-28T12:43:17Z</time>
      </trkpt>
      <trkpt lat="45.5582" lon="6.58323">
        <ele>1719.4</ele>
        <time>2013-02-28T12:43:18Z</time>
      </trkpt>
      <trkpt lat="45.55816" lon="6.58327">
        <ele>1719</ele>
        <time>2013-02-28T12:43:19Z</time>
      </trkpt>
      <trkpt lat="45.55811" lon="6.5833">
        <ele>1718.4</ele>
        <time>2013-02-28T12:43:20Z</time>
      </trkpt>
      <trkpt lat="45.55808" lon="6.58333">
        <ele>1717.9</ele>
        <time>2013-02-28T12:43:21Z</time>
      </trkpt>
      <trkpt lat="45.558" lon="6.58339">
        <ele>1716.8</ele>
        <time>2013-02-28T12:43:23Z</time>
      </trkpt>
      <trkpt lat="45.55793" lon="6.58343">
        <ele>1715.7</ele>
        <time>2013-02-28T12:43:25Z</time>
      </trkpt>
      <trkpt lat="45.55786" lon="6.58346">
        <ele>1715.3</ele>
        <time>2013-02-28T12:43:27Z</time>
      </trkpt>
      <trkpt lat="45.55781" lon="6.5835">
        <ele>1715.4</ele>
        <time>2013-02-28T12:43:29Z</time>
      </trkpt>
      <trkpt lat="45.55775" lon="6.58357">
        <ele>1714.7</ele>
        <time>2013-02-28T12:43:31Z</time>
      </trkpt>
      <trkpt lat="45.55767" lon="6.58363">
        <ele>1713.5</ele>
        <time>2013-02-28T12:43:34Z</time>
      </trkpt>
      <trkpt lat="45.55759" lon="6.58368">
        <ele>1711.9</ele>
        <time>2013-02-28T12:43:46Z</time>
      </trkpt>
      <trkpt lat="45.55754" lon="6.58378">
        <ele>1711.8</ele>
        <time>2013-02-28T12:44:01Z</time>
      </trkpt>
      <trkpt lat="45.55745" lon="6.58382">
        <ele>1710.9</ele>
        <time>2013-02-28T12:44:07Z</time>
      </trkpt>
      <trkpt lat="45.55743" lon="6.58382">
        <ele>1710.5</ele>
        <time>2013-02-28T12:44:08Z</time>
      </trkpt>
      <trkpt lat="45.55727" lon="6.5838">
        <ele>1709.9</ele>
        <time>2013-02-28T12:44:19Z</time>
      </trkpt>
      <trkpt lat="45.5572" lon="6.58375">
        <ele>1710.3</ele>
        <time>2013-02-28T12:44:30Z</time>
      </trkpt>
      <trkpt lat="45.55712" lon="6.58369">
        <ele>1709.9</ele>
        <time>2013-02-28T12:44:54Z</time>
      </trkpt>
      <trkpt lat="45.55705" lon="6.58373">
        <ele>1709.4</ele>
        <time>2013-02-28T12:44:57Z</time>
      </trkpt>
      <trkpt lat="45.55698" lon="6.58377">
        <ele>1707.3</ele>
        <time>2013-02-28T12:45:01Z</time>
      </trkpt>
      <trkpt lat="45.55692" lon="6.58382">
        <ele>1706</ele>
        <time>2013-02-28T12:45:05Z</time>
      </trkpt>
      <trkpt lat="45.55686" lon="6.58389">
        <ele>1704.7</ele>
        <time>2013-02-28T12:45:08Z</time>
      </trkpt>
      <trkpt lat="45.55685" lon="6.58392">
        <ele>1704.4</ele>
        <time>2013-02-28T12:45:09Z</time>
      </trkpt>
      <trkpt lat="45.55677" lon="6.58406">
        <ele>1701.3</ele>
        <time>2013-02-28T12:45:14Z</time>
      </trkpt>
      <trkpt lat="45.5567" lon="6.58408">
        <ele>1700</ele>
        <time>2013-02-28T12:45:16Z</time>
      </trkpt>
      <trkpt lat="45.55663" lon="6.58409">
        <ele>1699.1</ele>
        <time>2013-02-28T12:45:18Z</time>
      </trkpt>
      <trkpt lat="45.55657" lon="6.58411">
        <ele>1697.3</ele>
        <time>2013-02-28T12:45:20Z</time>
      </trkpt>
      <trkpt lat="45.55648" lon="6.58409">
        <ele>1695.5</ele>
        <time>2013-02-28T12:45:23Z</time>
      </trkpt>
      <trkpt lat="45.5564" lon="6.58407">
        <ele>1693.5</ele>
        <time>2013-02-28T12:45:26Z</time>
      </trkpt>
      <trkpt lat="45.55633" lon="6.58408">
        <ele>1691</ele>
        <time>2013-02-28T12:45:29Z</time>
      </trkpt>
      <trkpt lat="45.55624" lon="6.58411">
        <ele>1689.3</ele>
        <time>2013-02-28T12:45:32Z</time>
      </trkpt>
      <trkpt lat="45.55617" lon="6.58413">
        <ele>1686.7</ele>
        <time>2013-02-28T12:45:34Z</time>
      </trkpt>
      <trkpt lat="45.55609" lon="6.58415">
        <ele>1685.6</ele>
        <time>2013-02-28T12:45:36Z</time>
      </trkpt>
      <trkpt lat="45.55601" lon="6.58414">
        <ele>1684.5</ele>
        <time>2013-02-28T12:45:38Z</time>
      </trkpt>
      <trkpt lat="45.55593" lon="6.58415">
        <ele>1683.1</ele>
        <time>2013-02-28T12:45:40Z</time>
      </trkpt>
      <trkpt lat="45.55585" lon="6.58418">
        <ele>1681.4</ele>
        <time>2013-02-28T12:45:42Z</time>
      </trkpt>
      <trkpt lat="45.55577" lon="6.58421">
        <ele>1680.1</ele>
        <time>2013-02-28T12:45:44Z</time>
      </trkpt>
      <trkpt lat="45.5557" lon="6.58425">
        <ele>1679.1</ele>
        <time>2013-02-28T12:45:46Z</time>
      </trkpt>
      <trkpt lat="45.55563" lon="6.58429">
        <ele>1677.7</ele>
        <time>2013-02-28T12:45:48Z</time>
      </trkpt>
      <trkpt lat="45.55555" lon="6.58432">
        <ele>1676.6</ele>
        <time>2013-02-28T12:45:50Z</time>
      </trkpt>
      <trkpt lat="45.55546" lon="6.58433">
        <ele>1675.8</ele>
        <time>2013-02-28T12:45:52Z</time>
      </trkpt>
      <trkpt lat="45.55538" lon="6.58433">
        <ele>1675.2</ele>
        <time>2013-02-28T12:45:54Z</time>
      </trkpt>
      <trkpt lat="45.5553" lon="6.58429">
        <ele>1674</ele>
        <time>2013-02-28T12:46:05Z</time>
      </trkpt>
      <trkpt lat="45.55522" lon="6.58433">
        <ele>1674.4</ele>
        <time>2013-02-28T12:48:32Z</time>
      </trkpt>
      <trkpt lat="45.5552" lon="6.58434">
        <ele>1673.8</ele>
        <time>2013-02-28T12:48:33Z</time>
      </trkpt>
      <trkpt lat="45.55517" lon="6.58451">
        <ele>1670.2</ele>
        <time>2013-02-28T12:48:40Z</time>
      </trkpt>
      <trkpt lat="45.5552" lon="6.5846">
        <ele>1668.9</ele>
        <time>2013-02-28T12:48:43Z</time>
      </trkpt>
      <trkpt lat="45.55516" lon="6.58468">
        <ele>1667.7</ele>
        <time>2013-02-28T12:48:45Z</time>
      </trkpt>
      <trkpt lat="45.55512" lon="6.58475">
        <ele>1666.5</ele>
        <time>2013-02-28T12:48:47Z</time>
      </trkpt>
      <trkpt lat="45.55503" lon="6.58472">
        <ele>1664.1</ele>
        <time>2013-02-28T12:49:20Z</time>
      </trkpt>
      <trkpt lat="45.55501" lon="6.58483">
        <ele>1661.5</ele>
        <time>2013-02-28T12:50:04Z</time>
      </trkpt>
      <trkpt lat="45.55499" lon="6.58484">
        <ele>1660.7</ele>
        <time>2013-02-28T12:50:05Z</time>
      </trkpt>
      <trkpt lat="45.55487" lon="6.58489">
        <ele>1658.1</ele>
        <time>2013-02-28T12:50:10Z</time>
      </trkpt>
      <trkpt lat="45.55479" lon="6.58491">
        <ele>1655.3</ele>
        <time>2013-02-28T12:50:14Z</time>
      </trkpt>
      <trkpt lat="45.55482" lon="6.58503">
        <ele>1651.1</ele>
        <time>2013-02-28T12:50:29Z</time>
      </trkpt>
      <trkpt lat="45.55489" lon="6.5851">
        <ele>1649.3</ele>
        <time>2013-02-28T12:50:33Z</time>
      </trkpt>
      <trkpt lat="45.55494" lon="6.58519">
        <ele>1647.8</ele>
        <time>2013-02-28T12:50:36Z</time>
      </trkpt>
      <trkpt lat="45.55489" lon="6.5853">
        <ele>1643.6</ele>
        <time>2013-02-28T12:50:45Z</time>
      </trkpt>
      <trkpt lat="45.55482" lon="6.58537">
        <ele>1639.7</ele>
        <time>2013-02-28T12:50:51Z</time>
      </trkpt>
      <trkpt lat="45.55476" lon="6.58542">
        <ele>1637.3</ele>
        <time>2013-02-28T12:50:55Z</time>
      </trkpt>
      <trkpt lat="45.55467" lon="6.5854">
        <ele>1635.4</ele>
        <time>2013-02-28T12:50:57Z</time>
      </trkpt>
      <trkpt lat="45.5546" lon="6.58538">
        <ele>1633.4</ele>
        <time>2013-02-28T12:50:59Z</time>
      </trkpt>
      <trkpt lat="45.55453" lon="6.58536">
        <ele>1630.9</ele>
        <time>2013-02-28T12:51:01Z</time>
      </trkpt>
      <trkpt lat="45.55444" lon="6.58533">
        <ele>1629.4</ele>
        <time>2013-02-28T12:51:04Z</time>
      </trkpt>
      <trkpt lat="45.55437" lon="6.58533">
        <ele>1627.3</ele>
        <time>2013-02-28T12:51:08Z</time>
      </trkpt>
      <trkpt lat="45.55435" lon="6.58533">
        <ele>1627.1</ele>
        <time>2013-02-28T12:51:09Z</time>
      </trkpt>
      <trkpt lat="45.55423" lon="6.58532">
        <ele>1625.1</ele>
        <time>2013-02-28T12:51:13Z</time>
      </trkpt>
      <trkpt lat="45.55416" lon="6.58531">
        <ele>1624.4</ele>
        <time>2013-02-28T12:51:15Z</time>
      </trkpt>
      <trkpt lat="45.55407" lon="6.58529">
        <ele>1622.8</ele>
        <time>2013-02-28T12:51:20Z</time>
      </trkpt>
      <trkpt lat="45.55399" lon="6.58528">
        <ele>1622</ele>
        <time>2013-02-28T12:51:46Z</time>
      </trkpt>
      <trkpt lat="45.55394" lon="6.58524">
        <ele>1620.9</ele>
        <time>2013-02-28T12:51:48Z</time>
      </trkpt>
      <trkpt lat="45.55388" lon="6.58514">
        <ele>1620.1</ele>
        <time>2013-02-28T12:52:14Z</time>
      </trkpt>
      <trkpt lat="45.55388" lon="6.58514">
        <ele>1620.2</ele>
        <time>2013-02-28T12:52:15Z</time>
      </trkpt>
      <trkpt lat="45.55384" lon="6.58535">
        <ele>1614.7</ele>
        <time>2013-02-28T12:53:14Z</time>
      </trkpt>
      <trkpt lat="45.5538" lon="6.58538">
        <ele>1614</ele>
        <time>2013-02-28T12:53:15Z</time>
      </trkpt>
      <trkpt lat="45.55375" lon="6.58543">
        <ele>1612.7</ele>
        <time>2013-02-28T12:53:16Z</time>
      </trkpt>
      <trkpt lat="45.5537" lon="6.58547">
        <ele>1611.7</ele>
        <time>2013-02-28T12:53:17Z</time>
      </trkpt>
      <trkpt lat="45.55362" lon="6.58552">
        <ele>1609</ele>
        <time>2013-02-28T12:53:19Z</time>
      </trkpt>
      <trkpt lat="45.55354" lon="6.58557">
        <ele>1608.5</ele>
        <time>2013-02-28T12:53:22Z</time>
      </trkpt>
      <trkpt lat="45.55349" lon="6.58566">
        <ele>1606.2</ele>
        <time>2013-02-28T12:53:34Z</time>
      </trkpt>
      <trkpt lat="45.55341" lon="6.58567">
        <ele>1604.8</ele>
        <time>2013-02-28T12:53:37Z</time>
      </trkpt>
      <trkpt lat="45.55333" lon="6.58561">
        <ele>1603.1</ele>
        <time>2013-02-28T12:53:40Z</time>
      </trkpt>
      <trkpt lat="45.55327" lon="6.58556">
        <ele>1600.8</ele>
        <time>2013-02-28T12:53:47Z</time>
      </trkpt>
      <trkpt lat="45.55323" lon="6.58553">
        <ele>1600</ele>
        <time>2013-02-28T12:53:49Z</time>
      </trkpt>
      <trkpt lat="45.55316" lon="6.58546">
        <ele>1599.3</ele>
        <time>2013-02-28T12:53:51Z</time>
      </trkpt>
      <trkpt lat="45.55311" lon="6.58542">
        <ele>1597.9</ele>
        <time>2013-02-28T12:54:24Z</time>
      </trkpt>
      <trkpt lat="45.55308" lon="6.5854">
        <ele>1598</ele>
        <time>2013-02-28T12:54:25Z</time>
      </trkpt>
      <trkpt lat="45.553" lon="6.58534">
        <ele>1597.5</ele>
        <time>2013-02-28T12:54:27Z</time>
      </trkpt>
      <trkpt lat="45.55296" lon="6.58531">
        <ele>1597.1</ele>
        <time>2013-02-28T12:54:28Z</time>
      </trkpt>
      <trkpt lat="45.55289" lon="6.58523">
        <ele>1595.2</ele>
        <time>2013-02-28T12:54:30Z</time>
      </trkpt>
      <trkpt lat="45.55281" lon="6.58523">
        <ele>1593.7</ele>
        <time>2013-02-28T12:54:33Z</time>
      </trkpt>
      <trkpt lat="45.55272" lon="6.58523">
        <ele>1590.1</ele>
        <time>2013-02-28T12:54:36Z</time>
      </trkpt>
      <trkpt lat="45.55268" lon="6.58531">
        <ele>1588.2</ele>
        <time>2013-02-28T12:54:38Z</time>
      </trkpt>
      <trkpt lat="45.55268" lon="6.58542">
        <ele>1586.4</ele>
        <time>2013-02-28T12:54:40Z</time>
      </trkpt>
      <trkpt lat="45.55261" lon="6.58541">
        <ele>1583.8</ele>
        <time>2013-02-28T12:54:43Z</time>
      </trkpt>
      <trkpt lat="45.55255" lon="6.58547">
        <ele>1581.2</ele>
        <time>2013-02-28T12:54:46Z</time>
      </trkpt>
      <trkpt lat="45.55247" lon="6.58544">
        <ele>1578.4</ele>
        <time>2013-02-28T12:54:49Z</time>
      </trkpt>
      <trkpt lat="45.55239" lon="6.58538">
        <ele>1576.6</ele>
        <time>2013-02-28T12:54:51Z</time>
      </trkpt>
      <trkpt lat="45.55236" lon="6.58526">
        <ele>1574.5</ele>
        <time>2013-02-28T12:57:34Z</time>
      </trkpt>
      <trkpt lat="45.55236" lon="6.58526">
        <ele>1574.6</ele>
        <time>2013-02-28T12:57:35Z</time>
      </trkpt>
      <trkpt lat="45.55229" lon="6.58535">
        <ele>1574.8</ele>
        <time>2013-02-28T13:00:10Z</time>
      </trkpt>
      <trkpt lat="45.55215" lon="6.58532">
        <ele>1571.3</ele>
        <time>2013-02-28T13:00:18Z</time>
      </trkpt>
      <trkpt lat="45.55209" lon="6.58534">
        <ele>1569</ele>
        <time>2013-02-28T13:00:22Z</time>
      </trkpt>
      <trkpt lat="45.55207" lon="6.58546">
        <ele>1565.7</ele>
        <time>2013-02-28T13:00:27Z</time>
      </trkpt>
      <trkpt lat="45.55201" lon="6.58551">
        <ele>1562.3</ele>
        <time>2013-02-28T13:00:30Z</time>
      </trkpt>
      <trkpt lat="45.55197" lon="6.5856">
        <ele>1558</ele>
        <time>2013-02-28T13:00:34Z</time>
      </trkpt>
      <trkpt lat="45.5519" lon="6.58565">
        <ele>1555.2</ele>
        <time>2013-02-28T13:00:37Z</time>
      </trkpt>
      <trkpt lat="45.5519" lon="6.58574">
        <ele>1552.9</ele>
        <time>2013-02-28T13:00:40Z</time>
      </trkpt>
      <trkpt lat="45.55186" lon="6.58584">
        <ele>1550.4</ele>
        <time>2013-02-28T13:00:43Z</time>
      </trkpt>
      <trkpt lat="45.55181" lon="6.58594">
        <ele>1546.9</ele>
        <time>2013-02-28T13:00:46Z</time>
      </trkpt>
      <trkpt lat="45.55184" lon="6.58605">
        <ele>1543</ele>
        <time>2013-02-28T13:00:50Z</time>
      </trkpt>
      <trkpt lat="45.55184" lon="6.58616">
        <ele>1542.2</ele>
        <time>2013-02-28T13:00:53Z</time>
      </trkpt>
      <trkpt lat="45.55178" lon="6.58622">
        <ele>1540.3</ele>
        <time>2013-02-28T13:00:55Z</time>
      </trkpt>
      <trkpt lat="45.5517" lon="6.58624">
        <ele>1537.5</ele>
        <time>2013-02-28T13:00:57Z</time>
      </trkpt>
      <trkpt lat="45.55165" lon="6.58632">
        <ele>1535.2</ele>
        <time>2013-02-28T13:00:59Z</time>
      </trkpt>
      <trkpt lat="45.55158" lon="6.5863">
        <ele>1533.2</ele>
        <time>2013-02-28T13:01:01Z</time>
      </trkpt>
      <trkpt lat="45.55153" lon="6.58637">
        <ele>1531</ele>
        <time>2013-02-28T13:01:03Z</time>
      </trkpt>
      <trkpt lat="45.55145" lon="6.58637">
        <ele>1529.2</ele>
        <time>2013-02-28T13:01:05Z</time>
      </trkpt>
      <trkpt lat="45.55141" lon="6.58647">
        <ele>1526.7</ele>
        <time>2013-02-28T13:01:07Z</time>
      </trkpt>
      <trkpt lat="45.55135" lon="6.58647">
        <ele>1523.2</ele>
        <time>2013-02-28T13:01:09Z</time>
      </trkpt>
      <trkpt lat="45.55126" lon="6.5865">
        <ele>1519.4</ele>
        <time>2013-02-28T13:01:12Z</time>
      </trkpt>
      <trkpt lat="45.55123" lon="6.58649">
        <ele>1518</ele>
        <time>2013-02-28T13:01:13Z</time>
      </trkpt>
      <trkpt lat="45.55115" lon="6.58639">
        <ele>1514.8</ele>
        <time>2013-02-28T13:01:16Z</time>
      </trkpt>
      <trkpt lat="45.55109" lon="6.58632">
        <ele>1513.8</ele>
        <time>2013-02-28T13:01:18Z</time>
      </trkpt>
      <trkpt lat="45.55104" lon="6.58624">
        <ele>1512</ele>
        <time>2013-02-28T13:01:23Z</time>
      </trkpt>
      <trkpt lat="45.55099" lon="6.58614">
        <ele>1511.4</ele>
        <time>2013-02-28T13:01:28Z</time>
      </trkpt>
      <trkpt lat="45.55095" lon="6.58607">
        <ele>1510.5</ele>
        <time>2013-02-28T13:01:32Z</time>
      </trkpt>
      <trkpt lat="45.55089" lon="6.58597">
        <ele>1509.5</ele>
        <time>2013-02-28T13:01:36Z</time>
      </trkpt>
      <trkpt lat="45.55085" lon="6.58591">
        <ele>1509.7</ele>
        <time>2013-02-28T13:01:38Z</time>
      </trkpt>
      <trkpt lat="45.5508" lon="6.58585">
        <ele>1509.8</ele>
        <time>2013-02-28T13:01:40Z</time>
      </trkpt>
      <trkpt lat="45.55074" lon="6.58578">
        <ele>1508.5</ele>
        <time>2013-02-28T13:01:42Z</time>
      </trkpt>
      <trkpt lat="45.55068" lon="6.5857">
        <ele>1506.9</ele>
        <time>2013-02-28T13:01:45Z</time>
      </trkpt>
      <trkpt lat="45.55062" lon="6.58562">
        <ele>1506.7</ele>
        <time>2013-02-28T13:01:47Z</time>
      </trkpt>
      <trkpt lat="45.55056" lon="6.58555">
        <ele>1505.7</ele>
        <time>2013-02-28T13:01:49Z</time>
      </trkpt>
      <trkpt lat="45.55049" lon="6.58549">
        <ele>1504.5</ele>
        <time>2013-02-28T13:01:52Z</time>
      </trkpt>
      <trkpt lat="45.55044" lon="6.58543">
        <ele>1503.9</ele>
        <time>2013-02-28T13:01:56Z</time>
      </trkpt>
      <trkpt lat="45.5504" lon="6.58536">
        <ele>1503.7</ele>
        <time>2013-02-28T13:01:58Z</time>
      </trkpt>
      <trkpt lat="45.55035" lon="6.58529">
        <ele>1503.2</ele>
        <time>2013-02-28T13:02:00Z</time>
      </trkpt>
      <trkpt lat="45.55032" lon="6.58521">
        <ele>1502.7</ele>
        <time>2013-02-28T13:02:02Z</time>
      </trkpt>
      <trkpt lat="45.55029" lon="6.58514">
        <ele>1502.4</ele>
        <time>2013-02-28T13:02:04Z</time>
      </trkpt>
      <trkpt lat="45.55026" lon="6.58505">
        <ele>1502.3</ele>
        <time>2013-02-28T13:02:06Z</time>
      </trkpt>
      <trkpt lat="45.55023" lon="6.58496">
        <ele>1501.2</ele>
        <time>2013-02-28T13:02:08Z</time>
      </trkpt>
      <trkpt lat="45.5502" lon="6.58488">
        <ele>1500.4</ele>
        <time>2013-02-28T13:02:10Z</time>
      </trkpt>
      <trkpt lat="45.55017" lon="6.5848">
        <ele>1499.9</ele>
        <time>2013-02-28T13:02:12Z</time>
      </trkpt>
      <trkpt lat="45.55014" lon="6.58471">
        <ele>1499.1</ele>
        <time>2013-02-28T13:02:14Z</time>
      </trkpt>
      <trkpt lat="45.55012" lon="6.58466">
        <ele>1498.6</ele>
        <time>2013-02-28T13:02:15Z</time>
      </trkpt>
      <trkpt lat="45.55006" lon="6.58452">
        <ele>1497.5</ele>
        <time>2013-02-28T13:02:18Z</time>
      </trkpt>
      <trkpt lat="45.55" lon="6.58443">
        <ele>1496.9</ele>
        <time>2013-02-28T13:02:20Z</time>
      </trkpt>
      <trkpt lat="45.54994" lon="6.58435">
        <ele>1495.9</ele>
        <time>2013-02-28T13:02:22Z</time>
      </trkpt>
      <trkpt lat="45.5499" lon="6.58431">
        <ele>1495.3</ele>
        <time>2013-02-28T13:02:23Z</time>
      </trkpt>
      <trkpt lat="45.54986" lon="6.58427">
        <ele>1494.6</ele>
        <time>2013-02-28T13:02:24Z</time>
      </trkpt>
      <trkpt lat="45.54979" lon="6.58421">
        <ele>1493.7</ele>
        <time>2013-02-28T13:02:26Z</time>
      </trkpt>
      <trkpt lat="45.54972" lon="6.58417">
        <ele>1493.2</ele>
        <time>2013-02-28T13:02:28Z</time>
      </trkpt>
      <trkpt lat="45.54965" lon="6.58414">
        <ele>1492.8</ele>
        <time>2013-02-28T13:02:30Z</time>
      </trkpt>
      <trkpt lat="45.54959" lon="6.5841">
        <ele>1492.8</ele>
        <time>2013-02-28T13:02:32Z</time>
      </trkpt>
      <trkpt lat="45.54952" lon="6.58403">
        <ele>1492.3</ele>
        <time>2013-02-28T13:02:36Z</time>
      </trkpt>
      <trkpt lat="45.54946" lon="6.58393">
        <ele>1492.3</ele>
        <time>2013-02-28T13:02:54Z</time>
      </trkpt>
      <trkpt lat="45.54939" lon="6.58389">
        <ele>1491.2</ele>
        <time>2013-02-28T13:03:02Z</time>
      </trkpt>
      <trkpt lat="45.54935" lon="6.58397">
        <ele>1487.6</ele>
        <time>2013-02-28T13:03:09Z</time>
      </trkpt>
      <trkpt lat="45.54928" lon="6.58402">
        <ele>1486</ele>
        <time>2013-02-28T13:03:11Z</time>
      </trkpt>
      <trkpt lat="45.5492" lon="6.58402">
        <ele>1484.1</ele>
        <time>2013-02-28T13:03:13Z</time>
      </trkpt>
      <trkpt lat="45.54913" lon="6.58396">
        <ele>1482.2</ele>
        <time>2013-02-28T13:03:21Z</time>
      </trkpt>
      <trkpt lat="45.54911" lon="6.58395">
        <ele>1482.1</ele>
        <time>2013-02-28T13:03:22Z</time>
      </trkpt>
      <trkpt lat="45.54898" lon="6.58385">
        <ele>1479.3</ele>
        <time>2013-02-28T13:03:31Z</time>
      </trkpt>
      <trkpt lat="45.5489" lon="6.58379">
        <ele>1477.2</ele>
        <time>2013-02-28T13:03:34Z</time>
      </trkpt>
      <trkpt lat="45.54884" lon="6.58375">
        <ele>1474.9</ele>
        <time>2013-02-28T13:03:38Z</time>
      </trkpt>
      <trkpt lat="45.54883" lon="6.58386">
        <ele>1470.1</ele>
        <time>2013-02-28T13:03:48Z</time>
      </trkpt>
      <trkpt lat="45.54882" lon="6.58397">
        <ele>1467.1</ele>
        <time>2013-02-28T13:03:56Z</time>
      </trkpt>
      <trkpt lat="45.54875" lon="6.58397">
        <ele>1465.1</ele>
        <time>2013-02-28T13:03:58Z</time>
      </trkpt>
      <trkpt lat="45.54866" lon="6.58394">
        <ele>1460.9</ele>
        <time>2013-02-28T13:04:05Z</time>
      </trkpt>
      <trkpt lat="45.5486" lon="6.58386">
        <ele>1458.5</ele>
        <time>2013-02-28T13:04:24Z</time>
      </trkpt>
      <trkpt lat="45.54859" lon="6.58386">
        <ele>1458.2</ele>
        <time>2013-02-28T13:04:25Z</time>
      </trkpt>
      <trkpt lat="45.54847" lon="6.58371">
        <ele>1457.1</ele>
        <time>2013-02-28T13:04:36Z</time>
      </trkpt>
      <trkpt lat="45.54841" lon="6.58365">
        <ele>1456.5</ele>
        <time>2013-02-28T13:04:38Z</time>
      </trkpt>
      <trkpt lat="45.54833" lon="6.5836">
        <ele>1455.1</ele>
        <time>2013-02-28T13:04:40Z</time>
      </trkpt>
      <trkpt lat="45.54824" lon="6.5836">
        <ele>1453.4</ele>
        <time>2013-02-28T13:04:47Z</time>
      </trkpt>
      <trkpt lat="45.54816" lon="6.58364">
        <ele>1448.1</ele>
        <time>2013-02-28T13:05:13Z</time>
      </trkpt>
      <trkpt lat="45.54808" lon="6.5837">
        <ele>1443.6</ele>
        <time>2013-02-28T13:05:21Z</time>
      </trkpt>
      <trkpt lat="45.54801" lon="6.58367">
        <ele>1441.2</ele>
        <time>2013-02-28T13:05:25Z</time>
      </trkpt>
      <trkpt lat="45.54799" lon="6.58369">
        <ele>1440.6</ele>
        <time>2013-02-28T13:05:26Z</time>
      </trkpt>
      <trkpt lat="45.54787" lon="6.58373">
        <ele>1434.8</ele>
        <time>2013-02-28T13:05:30Z</time>
      </trkpt>
      <trkpt lat="45.54783" lon="6.5837">
        <ele>1433.7</ele>
        <time>2013-02-28T13:05:31Z</time>
      </trkpt>
      <trkpt lat="45.54778" lon="6.58368">
        <ele>1431.9</ele>
        <time>2013-02-28T13:05:32Z</time>
      </trkpt>
      <trkpt lat="45.54772" lon="6.58366">
        <ele>1430.6</ele>
        <time>2013-02-28T13:05:33Z</time>
      </trkpt>
      <trkpt lat="45.54765" lon="6.58365">
        <ele>1428.7</ele>
        <time>2013-02-28T13:05:34Z</time>
      </trkpt>
      <trkpt lat="45.54759" lon="6.58364">
        <ele>1427.3</ele>
        <time>2013-02-28T13:05:35Z</time>
      </trkpt>
      <trkpt lat="45.54753" lon="6.58364">
        <ele>1425.7</ele>
        <time>2013-02-28T13:05:36Z</time>
      </trkpt>
      <trkpt lat="45.54747" lon="6.58365">
        <ele>1424.5</ele>
        <time>2013-02-28T13:05:37Z</time>
      </trkpt>
      <trkpt lat="45.54742" lon="6.58365">
        <ele>1423.6</ele>
        <time>2013-02-28T13:05:38Z</time>
      </trkpt>
      <trkpt lat="45.54737" lon="6.58365">
        <ele>1423.4</ele>
        <time>2013-02-28T13:05:39Z</time>
      </trkpt>
      <trkpt lat="45.54728" lon="6.58366">
        <ele>1422.2</ele>
        <time>2013-02-28T13:05:41Z</time>
      </trkpt>
      <trkpt lat="45.54724" lon="6.58366">
        <ele>1421.5</ele>
        <time>2013-02-28T13:05:42Z</time>
      </trkpt>
      <trkpt lat="45.54719" lon="6.58366">
        <ele>1420.8</ele>
        <time>2013-02-28T13:05:43Z</time>
      </trkpt>
      <trkpt lat="45.54714" lon="6.58367">
        <ele>1420.2</ele>
        <time>2013-02-28T13:05:44Z</time>
      </trkpt>
      <trkpt lat="45.54705" lon="6.58368">
        <ele>1419.5</ele>
        <time>2013-02-28T13:05:46Z</time>
      </trkpt>
      <trkpt lat="45.54697" lon="6.58369">
        <ele>1419.1</ele>
        <time>2013-02-28T13:05:48Z</time>
      </trkpt>
      <trkpt lat="45.54689" lon="6.58367">
        <ele>1418.1</ele>
        <time>2013-02-28T13:05:50Z</time>
      </trkpt>
      <trkpt lat="45.54681" lon="6.58364">
        <ele>1417</ele>
        <time>2013-02-28T13:06:16Z</time>
      </trkpt>
      <trkpt lat="45.54673" lon="6.58363">
        <ele>1417</ele>
        <time>2013-02-28T13:06:44Z</time>
      </trkpt>
      <trkpt lat="45.54671" lon="6.58362">
        <ele>1416.1</ele>
        <time>2013-02-28T13:06:45Z</time>
      </trkpt>
      <trkpt lat="45.54661" lon="6.58377">
        <ele>1408.8</ele>
        <time>2013-02-28T13:06:53Z</time>
      </trkpt>
      <trkpt lat="45.54652" lon="6.58375">
        <ele>1407.1</ele>
        <time>2013-02-28T13:06:55Z</time>
      </trkpt>
      <trkpt lat="45.54643" lon="6.58373">
        <ele>1404.7</ele>
        <time>2013-02-28T13:06:57Z</time>
      </trkpt>
      <trkpt lat="45.54642" lon="6.58386">
        <ele>1401.3</ele>
        <time>2013-02-28T13:07:00Z</time>
      </trkpt>
      <trkpt lat="45.54634" lon="6.58389">
        <ele>1399.2</ele>
        <time>2013-02-28T13:07:03Z</time>
      </trkpt>
      <trkpt lat="45.54631" lon="6.58401">
        <ele>1394.9</ele>
        <time>2013-02-28T13:07:06Z</time>
      </trkpt>
      <trkpt lat="45.54628" lon="6.58411">
        <ele>1392.8</ele>
        <time>2013-02-28T13:07:08Z</time>
      </trkpt>
      <trkpt lat="45.54622" lon="6.58417">
        <ele>1387.4</ele>
        <time>2013-02-28T13:07:15Z</time>
      </trkpt>
      <trkpt lat="45.54621" lon="6.58429">
        <ele>1384.5</ele>
        <time>2013-02-28T13:07:18Z</time>
      </trkpt>
      <trkpt lat="45.54615" lon="6.58433">
        <ele>1382.4</ele>
        <time>2013-02-28T13:07:20Z</time>
      </trkpt>
      <trkpt lat="45.54607" lon="6.58436">
        <ele>1379.5</ele>
        <time>2013-02-28T13:07:23Z</time>
      </trkpt>
      <trkpt lat="45.546" lon="6.58442">
        <ele>1377.5</ele>
        <time>2013-02-28T13:07:26Z</time>
      </trkpt>
      <trkpt lat="45.54593" lon="6.5845">
        <ele>1373.5</ele>
        <time>2013-02-28T13:08:58Z</time>
      </trkpt>
      <trkpt lat="45.54593" lon="6.5845">
        <ele>1373</ele>
        <time>2013-02-28T13:08:59Z</time>
      </trkpt>
      <trkpt lat="45.54584" lon="6.5845">
        <ele>1363.5</ele>
        <time>2013-02-28T13:11:12Z</time>
      </trkpt>
      <trkpt lat="45.54586" lon="6.58472">
        <ele>1356.2</ele>
        <time>2013-02-28T13:11:20Z</time>
      </trkpt>
      <trkpt lat="45.54586" lon="6.58485">
        <ele>1353.1</ele>
        <time>2013-02-28T13:11:23Z</time>
      </trkpt>
      <trkpt lat="45.54581" lon="6.58495">
        <ele>1350.1</ele>
        <time>2013-02-28T13:11:26Z</time>
      </trkpt>
      <trkpt lat="45.54577" lon="6.58506">
        <ele>1346.8</ele>
        <time>2013-02-28T13:11:29Z</time>
      </trkpt>
      <trkpt lat="45.54568" lon="6.58507">
        <ele>1342.7</ele>
        <time>2013-02-28T13:11:32Z</time>
      </trkpt>
      <trkpt lat="45.54561" lon="6.58512">
        <ele>1336.9</ele>
        <time>2013-02-28T13:11:54Z</time>
      </trkpt>
      <trkpt lat="45.54553" lon="6.58512">
        <ele>1332.9</ele>
        <time>2013-02-28T13:12:01Z</time>
      </trkpt>
      <trkpt lat="45.54544" lon="6.58512">
        <ele>1330.1</ele>
        <time>2013-02-28T13:12:07Z</time>
      </trkpt>
      <trkpt lat="45.54537" lon="6.58519">
        <ele>1324.7</ele>
        <time>2013-02-28T13:12:19Z</time>
      </trkpt>
      <trkpt lat="45.54536" lon="6.5852">
        <ele>1324.3</ele>
        <time>2013-02-28T13:12:20Z</time>
      </trkpt>
      <trkpt lat="45.54528" lon="6.58534">
        <ele>1318.7</ele>
        <time>2013-02-28T13:12:40Z</time>
      </trkpt>
      <trkpt lat="45.5452" lon="6.58532">
        <ele>1317.1</ele>
        <time>2013-02-28T13:12:42Z</time>
      </trkpt>
      <trkpt lat="45.54513" lon="6.5853">
        <ele>1316</ele>
        <time>2013-02-28T13:12:44Z</time>
      </trkpt>
      <trkpt lat="45.54504" lon="6.58531">
        <ele>1315</ele>
        <time>2013-02-28T13:12:49Z</time>
      </trkpt>
      <trkpt lat="45.54498" lon="6.5854">
        <ele>1310</ele>
        <time>2013-02-28T13:13:09Z</time>
      </trkpt>
      <trkpt lat="45.54498" lon="6.58552">
        <ele>1302.6</ele>
        <time>2013-02-28T13:15:20Z</time>
      </trkpt>
      <trkpt lat="45.54498" lon="6.58553">
        <ele>1302.4</ele>
        <time>2013-02-28T13:15:21Z</time>
      </trkpt>
      <trkpt lat="45.54488" lon="6.58547">
        <ele>1298.6</ele>
        <time>2013-02-28T13:17:10Z</time>
      </trkpt>
      <trkpt lat="45.54473" lon="6.58542">
        <ele>1297</ele>
        <time>2013-02-28T13:17:19Z</time>
      </trkpt>
      <trkpt lat="45.54466" lon="6.58538">
        <ele>1295.4</ele>
        <time>2013-02-28T13:17:23Z</time>
      </trkpt>
      <trkpt lat="45.54458" lon="6.58535">
        <ele>1294.1</ele>
        <time>2013-02-28T13:17:27Z</time>
      </trkpt>
      <trkpt lat="45.54451" lon="6.58531">
        <ele>1293.1</ele>
        <time>2013-02-28T13:17:30Z</time>
      </trkpt>
      <trkpt lat="45.54443" lon="6.58526">
        <ele>1291</ele>
        <time>2013-02-28T13:17:33Z</time>
      </trkpt>
      <trkpt lat="45.54436" lon="6.58521">
        <ele>1289.8</ele>
        <time>2013-02-28T13:17:36Z</time>
      </trkpt>
      <trkpt lat="45.54429" lon="6.58517">
        <ele>1288.7</ele>
        <time>2013-02-28T13:17:39Z</time>
      </trkpt>
      <trkpt lat="45.54422" lon="6.58515">
        <ele>1287.8</ele>
        <time>2013-02-28T13:17:42Z</time>
      </trkpt>
      <trkpt lat="45.54414" lon="6.5851">
        <ele>1286.4</ele>
        <time>2013-02-28T13:17:45Z</time>
      </trkpt>
      <trkpt lat="45.54407" lon="6.58508">
        <ele>1285</ele>
        <time>2013-02-28T13:17:48Z</time>
      </trkpt>
      <trkpt lat="45.544" lon="6.58506">
        <ele>1283.9</ele>
        <time>2013-02-28T13:17:50Z</time>
      </trkpt>
      <trkpt lat="45.54393" lon="6.58504">
        <ele>1282.5</ele>
        <time>2013-02-28T13:17:52Z</time>
      </trkpt>
      <trkpt lat="45.54387" lon="6.58502">
        <ele>1281.5</ele>
        <time>2013-02-28T13:17:54Z</time>
      </trkpt>
      <trkpt lat="45.54379" lon="6.58501">
        <ele>1280.4</ele>
        <time>2013-02-28T13:17:57Z</time>
      </trkpt>
      <trkpt lat="45.5437" lon="6.58498">
        <ele>1278.3</ele>
        <time>2013-02-28T13:18:01Z</time>
      </trkpt>
      <trkpt lat="45.54362" lon="6.58496">
        <ele>1277.2</ele>
        <time>2013-02-28T13:18:07Z</time>
      </trkpt>
      <trkpt lat="45.54354" lon="6.58491">
        <ele>1276.4</ele>
        <time>2013-02-28T13:18:17Z</time>
      </trkpt>
      <trkpt lat="45.54352" lon="6.58491">
        <ele>1275.8</ele>
        <time>2013-02-28T13:18:18Z</time>
      </trkpt>
      <trkpt lat="45.54339" lon="6.58482">
        <ele>1274.9</ele>
        <time>2013-02-28T13:18:27Z</time>
      </trkpt>
      <trkpt lat="45.54332" lon="6.58478">
        <ele>1272.6</ele>
        <time>2013-02-28T13:18:31Z</time>
      </trkpt>
      <trkpt lat="45.54325" lon="6.58473">
        <ele>1271.3</ele>
        <time>2013-02-28T13:18:34Z</time>
      </trkpt>
      <trkpt lat="45.54319" lon="6.58468">
        <ele>1270.2</ele>
        <time>2013-02-28T13:18:38Z</time>
      </trkpt>
      <trkpt lat="45.54311" lon="6.58463">
        <ele>1268.8</ele>
        <time>2013-02-28T13:18:43Z</time>
      </trkpt>
      <trkpt lat="45.54305" lon="6.58454">
        <ele>1268.3</ele>
        <time>2013-02-28T13:18:57Z</time>
      </trkpt>
      <trkpt lat="45.54296" lon="6.58452">
        <ele>1267.6</ele>
        <time>2013-02-28T13:19:19Z</time>
      </trkpt>
      <trkpt lat="45.54296" lon="6.58452">
        <ele>1267.7</ele>
        <time>2013-02-28T13:19:20Z</time>
      </trkpt>
      <trkpt lat="45.54284" lon="6.5844">
        <ele>1264.4</ele>
        <time>2013-02-28T13:19:28Z</time>
      </trkpt>
      <trkpt lat="45.54277" lon="6.58436">
        <ele>1263.6</ele>
        <time>2013-02-28T13:19:32Z</time>
      </trkpt>
      <trkpt lat="45.5427" lon="6.5843">
        <ele>1262.6</ele>
        <time>2013-02-28T13:19:36Z</time>
      </trkpt>
      <trkpt lat="45.54263" lon="6.58424">
        <ele>1261.3</ele>
        <time>2013-02-28T13:19:39Z</time>
      </trkpt>
      <trkpt lat="45.54258" lon="6.58417">
        <ele>1259.6</ele>
        <time>2013-02-28T13:19:42Z</time>
      </trkpt>
      <trkpt lat="45.54251" lon="6.58409">
        <ele>1258.5</ele>
        <time>2013-02-28T13:19:45Z</time>
      </trkpt>
      <trkpt lat="45.54244" lon="6.58403">
        <ele>1257.2</ele>
        <time>2013-02-28T13:19:49Z</time>
      </trkpt>
      <trkpt lat="45.54236" lon="6.58398">
        <ele>1255.9</ele>
        <time>2013-02-28T13:19:54Z</time>
      </trkpt>
      <trkpt lat="45.54229" lon="6.58394">
        <ele>1253.4</ele>
        <time>2013-02-28T13:19:59Z</time>
      </trkpt>
      <trkpt lat="45.54221" lon="6.58391">
        <ele>1252.1</ele>
        <time>2013-02-28T13:20:05Z</time>
      </trkpt>
      <trkpt lat="45.54215" lon="6.58383">
        <ele>1251.1</ele>
        <time>2013-02-28T13:20:20Z</time>
      </trkpt>
      <trkpt lat="45.54214" lon="6.58381">
        <ele>1250.9</ele>
        <time>2013-02-28T13:20:21Z</time>
      </trkpt>
      <trkpt lat="45.54199" lon="6.58377">
        <ele>1249.4</ele>
        <time>2013-02-28T13:20:27Z</time>
      </trkpt>
      <trkpt lat="45.54192" lon="6.58375">
        <ele>1248</ele>
        <time>2013-02-28T13:20:30Z</time>
      </trkpt>
      <trkpt lat="45.54184" lon="6.58371">
        <ele>1245.5</ele>
        <time>2013-02-28T13:20:35Z</time>
      </trkpt>
      <trkpt lat="45.54177" lon="6.58371">
        <ele>1244</ele>
        <time>2013-02-28T13:20:39Z</time>
      </trkpt>
      <trkpt lat="45.54169" lon="6.5837">
        <ele>1242.5</ele>
        <time>2013-02-28T13:20:44Z</time>
      </trkpt>
      <trkpt lat="45.54161" lon="6.58368">
        <ele>1240.6</ele>
        <time>2013-02-28T13:20:47Z</time>
      </trkpt>
      <trkpt lat="45.54153" lon="6.58367">
        <ele>1239.4</ele>
        <time>2013-02-28T13:20:50Z</time>
      </trkpt>
      <trkpt lat="45.54145" lon="6.58366">
        <ele>1238.2</ele>
        <time>2013-02-28T13:20:54Z</time>
      </trkpt>
      <trkpt lat="45.54138" lon="6.58364">
        <ele>1235.5</ele>
        <time>2013-02-28T13:20:57Z</time>
      </trkpt>
      <trkpt lat="45.54131" lon="6.58359">
        <ele>1233.6</ele>
        <time>2013-02-28T13:21:00Z</time>
      </trkpt>
      <trkpt lat="45.54124" lon="6.58356">
        <ele>1232.6</ele>
        <time>2013-02-28T13:21:02Z</time>
      </trkpt>
      <trkpt lat="45.54118" lon="6.58353">
        <ele>1231.3</ele>
        <time>2013-02-28T13:21:05Z</time>
      </trkpt>
      <trkpt lat="45.5411" lon="6.5835">
        <ele>1230.6</ele>
        <time>2013-02-28T13:21:08Z</time>
      </trkpt>
      <trkpt lat="45.54103" lon="6.58347">
        <ele>1229.4</ele>
        <time>2013-02-28T13:21:11Z</time>
      </trkpt>
      <trkpt lat="45.54094" lon="6.58343">
        <ele>1228.3</ele>
        <time>2013-02-28T13:21:15Z</time>
      </trkpt>
      <trkpt lat="45.54086" lon="6.5834">
        <ele>1226.8</ele>
        <time>2013-02-28T13:21:18Z</time>
      </trkpt>
      <trkpt lat="45.5408" lon="6.58338">
        <ele>1226.3</ele>
        <time>2013-02-28T13:21:20Z</time>
      </trkpt>
      <trkpt lat="45.54074" lon="6.58336">
        <ele>1225.3</ele>
        <time>2013-02-28T13:21:22Z</time>
      </trkpt>
      <trkpt lat="45.54071" lon="6.58334">
        <ele>1224.7</ele>
        <time>2013-02-28T13:21:23Z</time>
      </trkpt>
      <trkpt lat="45.54061" lon="6.5833">
        <ele>1223.5</ele>
        <time>2013-02-28T13:21:26Z</time>
      </trkpt>
      <trkpt lat="45.54054" lon="6.58326">
        <ele>1222.6</ele>
        <time>2013-02-28T13:21:28Z</time>
      </trkpt>
      <trkpt lat="45.54046" lon="6.58322">
        <ele>1221.6</ele>
        <time>2013-02-28T13:21:30Z</time>
      </trkpt>
      <trkpt lat="45.54039" lon="6.58317">
        <ele>1220.9</ele>
        <time>2013-02-28T13:21:32Z</time>
      </trkpt>
      <trkpt lat="45.54031" lon="6.58313">
        <ele>1219.4</ele>
        <time>2013-02-28T13:21:36Z</time>
      </trkpt>
      <trkpt lat="45.54025" lon="6.58305">
        <ele>1218.4</ele>
        <time>2013-02-28T13:21:46Z</time>
      </trkpt>
      <trkpt lat="45.54018" lon="6.58297">
        <ele>1219</ele>
        <time>2013-02-28T13:21:59Z</time>
      </trkpt>
      <trkpt lat="45.54011" lon="6.58294">
        <ele>1218.5</ele>
        <time>2013-02-28T13:22:02Z</time>
      </trkpt>
      <trkpt lat="45.54005" lon="6.5829">
        <ele>1217.4</ele>
        <time>2013-02-28T13:22:04Z</time>
      </trkpt>
      <trkpt lat="45.53999" lon="6.58284">
        <ele>1217.1</ele>
        <time>2013-02-28T13:22:07Z</time>
      </trkpt>
      <trkpt lat="45.53993" lon="6.58278">
        <ele>1215.9</ele>
        <time>2013-02-28T13:22:10Z</time>
      </trkpt>
      <trkpt lat="45.53989" lon="6.58272">
        <ele>1215.7</ele>
        <time>2013-02-28T13:22:12Z</time>
      </trkpt>
      <trkpt lat="45.53986" lon="6.58263">
        <ele>1215.2</ele>
        <time>2013-02-28T13:22:14Z</time>
      </trkpt>
      <trkpt lat="45.53983" lon="6.58254">
        <ele>1214.6</ele>
        <time>2013-02-28T13:22:16Z</time>
      </trkpt>
      <trkpt lat="45.53981" lon="6.58244">
        <ele>1214.2</ele>
        <time>2013-02-28T13:22:18Z</time>
      </trkpt>
      <trkpt lat="45.53978" lon="6.58234">
        <ele>1214.1</ele>
        <time>2013-02-28T13:22:20Z</time>
      </trkpt>
      <trkpt lat="45.53975" lon="6.58222">
        <ele>1212.3</ele>
        <time>2013-02-28T13:22:24Z</time>
      </trkpt>
      <trkpt lat="45.53975" lon="6.58221">
        <ele>1212.1</ele>
        <time>2013-02-28T13:22:25Z</time>
      </trkpt>
      <trkpt lat="45.53965" lon="6.58204">
        <ele>1210.7</ele>
        <time>2013-02-28T13:22:56Z</time>
      </trkpt>
      <trkpt lat="45.53961" lon="6.58194">
        <ele>1210.5</ele>
        <time>2013-02-28T13:22:59Z</time>
      </trkpt>
      <trkpt lat="45.53956" lon="6.58187">
        <ele>1209.7</ele>
        <time>2013-02-28T13:23:01Z</time>
      </trkpt>
      <trkpt lat="45.5395" lon="6.5818">
        <ele>1208.9</ele>
        <time>2013-02-28T13:23:03Z</time>
      </trkpt>
      <trkpt lat="45.53944" lon="6.58173">
        <ele>1207.3</ele>
        <time>2013-02-28T13:23:05Z</time>
      </trkpt>
      <trkpt lat="45.5394" lon="6.58167">
        <ele>1205.8</ele>
        <time>2013-02-28T13:23:07Z</time>
      </trkpt>
      <trkpt lat="45.53937" lon="6.58159">
        <ele>1205.3</ele>
        <time>2013-02-28T13:23:09Z</time>
      </trkpt>
      <trkpt lat="45.53934" lon="6.58149">
        <ele>1205.1</ele>
        <time>2013-02-28T13:23:11Z</time>
      </trkpt>
      <trkpt lat="45.53933" lon="6.58138">
        <ele>1204</ele>
        <time>2013-02-28T13:23:13Z</time>
      </trkpt>
      <trkpt lat="45.53932" lon="6.58127">
        <ele>1203.6</ele>
        <time>2013-02-28T13:23:15Z</time>
      </trkpt>
      <trkpt lat="45.5393" lon="6.58115">
        <ele>1202.9</ele>
        <time>2013-02-28T13:23:17Z</time>
      </trkpt>
      <trkpt lat="45.53928" lon="6.58103">
        <ele>1202.1</ele>
        <time>2013-02-28T13:23:19Z</time>
      </trkpt>
      <trkpt lat="45.5392" lon="6.58098">
        <ele>1200.9</ele>
        <time>2013-02-28T13:23:22Z</time>
      </trkpt>
      <trkpt lat="45.53918" lon="6.5811">
        <ele>1199.2</ele>
        <time>2013-02-28T13:23:25Z</time>
      </trkpt>
      <trkpt lat="45.53919" lon="6.58115">
        <ele>1198.9</ele>
        <time>2013-02-28T13:23:26Z</time>
      </trkpt>
      <trkpt lat="45.53922" lon="6.58132">
        <ele>1197.6</ele>
        <time>2013-02-28T13:23:29Z</time>
      </trkpt>
      <trkpt lat="45.53921" lon="6.58139">
        <ele>1197.4</ele>
        <time>2013-02-28T13:23:30Z</time>
      </trkpt>
      <trkpt lat="45.5392" lon="6.58145">
        <ele>1196.5</ele>
        <time>2013-02-28T13:23:31Z</time>
      </trkpt>
      <trkpt lat="45.53919" lon="6.58152">
        <ele>1195.8</ele>
        <time>2013-02-28T13:23:32Z</time>
      </trkpt>
      <trkpt lat="45.53918" lon="6.58164">
        <ele>1194.7</ele>
        <time>2013-02-28T13:23:34Z</time>
      </trkpt>
      <trkpt lat="45.53918" lon="6.58176">
        <ele>1193.5</ele>
        <time>2013-02-28T13:23:36Z</time>
      </trkpt>
      <trkpt lat="45.5392" lon="6.58187">
        <ele>1192.7</ele>
        <time>2013-02-28T13:23:38Z</time>
      </trkpt>
      <trkpt lat="45.53922" lon="6.58198">
        <ele>1192.6</ele>
        <time>2013-02-28T13:23:40Z</time>
      </trkpt>
      <trkpt lat="45.53924" lon="6.58209">
        <ele>1191.8</ele>
        <time>2013-02-28T13:23:42Z</time>
      </trkpt>
      <trkpt lat="45.53925" lon="6.58219">
        <ele>1190.3</ele>
        <time>2013-02-28T13:23:44Z</time>
      </trkpt>
      <trkpt lat="45.53926" lon="6.58231">
        <ele>1189.5</ele>
        <time>2013-02-28T13:23:47Z</time>
      </trkpt>
      <trkpt lat="45.53926" lon="6.58243">
        <ele>1187.6</ele>
        <time>2013-02-28T13:24:11Z</time>
      </trkpt>
      <trkpt lat="45.53918" lon="6.58243">
        <ele>1185.8</ele>
        <time>2013-02-28T13:24:30Z</time>
      </trkpt>
      <trkpt lat="45.53916" lon="6.58243">
        <ele>1185.5</ele>
        <time>2013-02-28T13:24:31Z</time>
      </trkpt>
      <trkpt lat="45.53906" lon="6.5823">
        <ele>1182.6</ele>
        <time>2013-02-28T13:24:35Z</time>
      </trkpt>
      <trkpt lat="45.539" lon="6.58222">
        <ele>1181.1</ele>
        <time>2013-02-28T13:24:37Z</time>
      </trkpt>
      <trkpt lat="45.53893" lon="6.58225">
        <ele>1179.9</ele>
        <time>2013-02-28T13:24:39Z</time>
      </trkpt>
      <trkpt lat="45.53888" lon="6.58225">
        <ele>1178.6</ele>
        <time>2013-02-28T13:24:40Z</time>
      </trkpt>
      <trkpt lat="45.53882" lon="6.58216">
        <ele>1176.1</ele>
        <time>2013-02-28T13:24:42Z</time>
      </trkpt>
      <trkpt lat="45.53878" lon="6.58205">
        <ele>1174.2</ele>
        <time>2013-02-28T13:24:44Z</time>
      </trkpt>
      <trkpt lat="45.53871" lon="6.58204">
        <ele>1173.1</ele>
        <time>2013-02-28T13:24:46Z</time>
      </trkpt>
      <trkpt lat="45.53863" lon="6.58203">
        <ele>1170.3</ele>
        <time>2013-02-28T13:24:48Z</time>
      </trkpt>
      <trkpt lat="45.5386" lon="6.58192">
        <ele>1168.3</ele>
        <time>2013-02-28T13:24:51Z</time>
      </trkpt>
      <trkpt lat="45.53857" lon="6.58183">
        <ele>1166.1</ele>
        <time>2013-02-28T13:24:53Z</time>
      </trkpt>
      <trkpt lat="45.53852" lon="6.58172">
        <ele>1163.6</ele>
        <time>2013-02-28T13:24:55Z</time>
      </trkpt>
      <trkpt lat="45.5385" lon="6.58166">
        <ele>1162.9</ele>
        <time>2013-02-28T13:24:56Z</time>
      </trkpt>
      <trkpt lat="45.53843" lon="6.58163">
        <ele>1161.7</ele>
        <time>2013-02-28T13:24:59Z</time>
      </trkpt>
      <trkpt lat="45.53836" lon="6.58163">
        <ele>1160.3</ele>
        <time>2013-02-28T13:25:01Z</time>
      </trkpt>
      <trkpt lat="45.53831" lon="6.58162">
        <ele>1159.5</ele>
        <time>2013-02-28T13:25:02Z</time>
      </trkpt>
      <trkpt lat="45.53825" lon="6.58158">
        <ele>1158.9</ele>
        <time>2013-02-28T13:25:03Z</time>
      </trkpt>
      <trkpt lat="45.53818" lon="6.58156">
        <ele>1156.5</ele>
        <time>2013-02-28T13:25:04Z</time>
      </trkpt>
      <trkpt lat="45.53813" lon="6.58152">
        <ele>1154.7</ele>
        <time>2013-02-28T13:25:05Z</time>
      </trkpt>
      <trkpt lat="45.53806" lon="6.58146">
        <ele>1151.9</ele>
        <time>2013-02-28T13:25:07Z</time>
      </trkpt>
      <trkpt lat="45.53799" lon="6.58142">
        <ele>1150.4</ele>
        <time>2013-02-28T13:25:09Z</time>
      </trkpt>
      <trkpt lat="45.53792" lon="6.58135">
        <ele>1148.4</ele>
        <time>2013-02-28T13:25:38Z</time>
      </trkpt>
      <trkpt lat="45.53792" lon="6.58135">
        <ele>1148.3</ele>
        <time>2013-02-28T13:25:39Z</time>
      </trkpt>
      <trkpt lat="45.53784" lon="6.58135">
        <ele>1145</ele>
        <time>2013-02-28T13:28:13Z</time>
      </trkpt>
      <trkpt lat="45.53784" lon="6.58135">
        <ele>1145</ele>
        <time>2013-02-28T13:28:13Z</time>
      </trkpt>
      <trkpt lat="45.53783" lon="6.58135">
        <ele>1144.4</ele>
        <time>2013-02-28T13:28:17Z</time>
      </trkpt>
    </trkseg>
  </trk>
</gpx>